<?xml version='1.0' encoding='UTF-8'?><gpx version="1.1" creator="JPX - https://github.com/jenetics/jpx" xmlns="http://www.topografix.com/GPX/1/1"><trk><trkseg><trkpt lat="50.388535539628535" lon="4.526652269295578"><ele>164.0</ele><time>2026-04-28T07:22:36Z</time></trkpt><trkpt lat="50.388534795077746" lon="4.526756388380334"><ele>164.0</ele><time>2026-04-28T07:23:36.999Z</time></trkpt><trkpt lat="50.388525743299844" lon="4.526858682969615"><ele>164.0</ele><time>2026-04-28T07:25:43.999Z</time></trkpt><trkpt lat="50.388546647210745" lon="4.527022753486095"><ele>164.0</ele><time>2026-04-28T07:25:47.999Z</time></trkpt><trkpt lat="50.38857553149109" lon="4.527165129770242"><ele>164.0</ele><time>2026-04-28T07:25:49.999Z</time></trkpt><trkpt lat="50.388614550669004" lon="4.527259181606573"><ele>164.0</ele><time>2026-04-28T07:25:51.999Z</time></trkpt><trkpt lat="50.388655094826206" lon="4.527346593019062"><ele>164.0</ele><time>2026-04-28T07:25:53.999Z</time></trkpt><trkpt lat="50.38869717380514" lon="4.527476162130879"><ele>164.0</ele><time>2026-04-28T07:25:55.999Z</time></trkpt><trkpt lat="50.38871379034374" lon="4.527605675072685"><ele>164.0</ele><time>2026-04-28T07:25:57.999Z</time></trkpt><trkpt lat="50.388695691399896" lon="4.527806056035112"><ele>164.0</ele><time>2026-04-28T07:25:59.999Z</time></trkpt><trkpt lat="50.38861911683301" lon="4.528047962873854"><ele>164.0</ele><time>2026-04-28T07:26:01.999Z</time></trkpt><trkpt lat="50.38857188717547" lon="4.528159712627948"><ele>164.0</ele><time>2026-04-28T07:26:02.999Z</time></trkpt><trkpt lat="50.38852413325802" lon="4.528273009490533"><ele>164.0</ele><time>2026-04-28T07:26:03.999Z</time></trkpt><trkpt lat="50.388474370317866" lon="4.528398050691473"><ele>164.0</ele><time>2026-04-28T07:26:04.999Z</time></trkpt><trkpt lat="50.38843097618158" lon="4.528530294595765"><ele>164.0</ele><time>2026-04-28T07:26:05.999Z</time></trkpt><trkpt lat="50.38838980850653" lon="4.528664440505315"><ele>164.0</ele><time>2026-04-28T07:26:06.999Z</time></trkpt><trkpt lat="50.388343053030454" lon="4.528798448267068"><ele>164.0</ele><time>2026-04-28T07:26:07.999Z</time></trkpt><trkpt lat="50.38829511325054" lon="4.52893075809424"><ele>164.0</ele><time>2026-04-28T07:26:08.999Z</time></trkpt><trkpt lat="50.38824642116644" lon="4.529062120073863"><ele>164.0</ele><time>2026-04-28T07:26:09.999Z</time></trkpt><trkpt lat="50.38819744484328" lon="4.529194391090347"><ele>164.0</ele><time>2026-04-28T07:26:10.999Z</time></trkpt><trkpt lat="50.38815322966693" lon="4.529338174700352"><ele>164.0</ele><time>2026-04-28T07:26:11.999Z</time></trkpt><trkpt lat="50.38810613953439" lon="4.529475402976471"><ele>164.0</ele><time>2026-04-28T07:26:12.999Z</time></trkpt><trkpt lat="50.38805541562582" lon="4.52961427384156"><ele>164.0</ele><time>2026-04-28T07:26:13.999Z</time></trkpt><trkpt lat="50.388008419338966" lon="4.529752935682022"><ele>164.0</ele><time>2026-04-28T07:26:14.999Z</time></trkpt><trkpt lat="50.387959512467404" lon="4.529889380802384"><ele>164.0</ele><time>2026-04-28T07:26:15.999Z</time></trkpt><trkpt lat="50.3879021560883" lon="4.530025481540464"><ele>163.6</ele><time>2026-04-28T07:26:16.999Z</time></trkpt><trkpt lat="50.38784776410857" lon="4.530169741009479"><ele>163.2</ele><time>2026-04-28T07:26:17.999Z</time></trkpt><trkpt lat="50.38780151426004" lon="4.530308673636536"><ele>162.79999999999998</ele><time>2026-04-28T07:26:18.999Z</time></trkpt><trkpt lat="50.387764203289365" lon="4.530419927657029"><ele>162.39999999999998</ele><time>2026-04-28T07:26:19.999Z</time></trkpt><trkpt lat="50.3877024840363" lon="4.530579786121114"><ele>162.0</ele><time>2026-04-28T07:26:21.999Z</time></trkpt><trkpt lat="50.387648570345625" lon="4.5306550942633494"><ele>162.8</ele><time>2026-04-28T07:26:23.999Z</time></trkpt><trkpt lat="50.38760893637277" lon="4.530785765575059"><ele>163.6</ele><time>2026-04-28T07:26:42.999Z</time></trkpt><trkpt lat="50.38757742731733" lon="4.530926726613804"><ele>164.4</ele><time>2026-04-28T07:26:44.999Z</time></trkpt><trkpt lat="50.387517375110804" lon="4.531101218322759"><ele>165.20000000000002</ele><time>2026-04-28T07:26:46.999Z</time></trkpt><trkpt lat="50.38747812345344" lon="4.531201082822796"><ele>166.0</ele><time>2026-04-28T07:26:48Z</time></trkpt><trkpt lat="50.387431717895204" lon="4.531317456470034"><ele>166.20000000000002</ele><time>2026-04-28T07:26:49Z</time></trkpt><trkpt lat="50.387386680179624" lon="4.531441325269136"><ele>166.4</ele><time>2026-04-28T07:26:50Z</time></trkpt><trkpt lat="50.38734457152776" lon="4.531567860556418"><ele>166.6</ele><time>2026-04-28T07:26:51Z</time></trkpt><trkpt lat="50.38731599772859" lon="4.5317136779315295"><ele>166.8</ele><time>2026-04-28T07:26:52Z</time></trkpt><trkpt lat="50.38729879600903" lon="4.531865134572169"><ele>167.0</ele><time>2026-04-28T07:26:53Z</time></trkpt><trkpt lat="50.38728738457967" lon="4.531985467775473"><ele>167.16666666666666</ele><time>2026-04-28T07:26:54Z</time></trkpt><trkpt lat="50.3872704543887" lon="4.532083337024825"><ele>167.33333333333331</ele><time>2026-04-28T07:26:55Z</time></trkpt><trkpt lat="50.387263060700306" lon="4.532267641840895"><ele>167.5</ele><time>2026-04-28T07:26:57Z</time></trkpt><trkpt lat="50.38725474297638" lon="4.532400549397109"><ele>167.66666666666666</ele><time>2026-04-28T07:26:59Z</time></trkpt><trkpt lat="50.387245767435275" lon="4.532505739918461"><ele>167.83333333333334</ele><time>2026-04-28T07:27:03Z</time></trkpt><trkpt lat="50.38723714704257" lon="4.53261595749172"><ele>168.0</ele><time>2026-04-28T07:27:05Z</time></trkpt><trkpt lat="50.3872389249703" lon="4.532828815505543"><ele>168.2</ele><time>2026-04-28T07:27:07Z</time></trkpt><trkpt lat="50.38720795088714" lon="4.532917865143088"><ele>168.4</ele><time>2026-04-28T07:27:08Z</time></trkpt><trkpt lat="50.38717613757775" lon="4.533086115502608"><ele>168.6</ele><time>2026-04-28T07:27:09Z</time></trkpt><trkpt lat="50.387158912849394" lon="4.533234147019122"><ele>168.79999999999998</ele><time>2026-04-28T07:27:10Z</time></trkpt><trkpt lat="50.38713212155107" lon="4.533385327093812"><ele>169.0</ele><time>2026-04-28T07:27:11Z</time></trkpt><trkpt lat="50.387104588897756" lon="4.533551735662159"><ele>169.0</ele><time>2026-04-28T07:27:12Z</time></trkpt><trkpt lat="50.387078610499366" lon="4.533696758599687"><ele>169.0</ele><time>2026-04-28T07:27:13Z</time></trkpt><trkpt lat="50.38704946856326" lon="4.533838112411261"><ele>169.0</ele><time>2026-04-28T07:27:14Z</time></trkpt><trkpt lat="50.38701518272573" lon="4.533977091483059"><ele>169.0</ele><time>2026-04-28T07:27:15Z</time></trkpt><trkpt lat="50.386982520094314" lon="4.5341331250590065"><ele>169.0</ele><time>2026-04-28T07:27:16Z</time></trkpt><trkpt lat="50.38696255358271" lon="4.534288601039717"><ele>169.0</ele><time>2026-04-28T07:27:17Z</time></trkpt><trkpt lat="50.38696624375895" lon="4.534434952569122"><ele>169.0</ele><time>2026-04-28T07:27:18Z</time></trkpt><trkpt lat="50.386992793713816" lon="4.53458738590103"><ele>169.0</ele><time>2026-04-28T07:27:19Z</time></trkpt><trkpt lat="50.387039641812386" lon="4.534740381138397"><ele>169.0</ele><time>2026-04-28T07:27:20Z</time></trkpt><trkpt lat="50.387112694943696" lon="4.5348928905989245"><ele>169.0</ele><time>2026-04-28T07:27:21Z</time></trkpt><trkpt lat="50.387179243620714" lon="4.53502942705272"><ele>168.79999999999998</ele><time>2026-04-28T07:27:22Z</time></trkpt><trkpt lat="50.387222623490565" lon="4.5351332258003545"><ele>168.6</ele><time>2026-04-28T07:27:23Z</time></trkpt><trkpt lat="50.387268965468536" lon="4.535242554429452"><ele>168.4</ele><time>2026-04-28T07:27:24Z</time></trkpt><trkpt lat="50.38731938898272" lon="4.535362409836006"><ele>168.2</ele><time>2026-04-28T07:27:25Z</time></trkpt><trkpt lat="50.38737162387734" lon="4.535485123961934"><ele>168.0</ele><time>2026-04-28T07:27:26Z</time></trkpt><trkpt lat="50.38742885053434" lon="4.535615828358715"><ele>168.4</ele><time>2026-04-28T07:27:27Z</time></trkpt><trkpt lat="50.38748716231906" lon="4.535735839702582"><ele>168.8</ele><time>2026-04-28T07:27:28Z</time></trkpt><trkpt lat="50.387550368634734" lon="4.535883481052487"><ele>169.2</ele><time>2026-04-28T07:27:29Z</time></trkpt><trkpt lat="50.38760635688178" lon="4.53602399483598"><ele>169.6</ele><time>2026-04-28T07:27:30Z</time></trkpt><trkpt lat="50.38766619777324" lon="4.53616236630076"><ele>170.0</ele><time>2026-04-28T07:27:31Z</time></trkpt><trkpt lat="50.38772369862123" lon="4.536300198383579"><ele>170.0</ele><time>2026-04-28T07:27:32Z</time></trkpt><trkpt lat="50.387772430971104" lon="4.536438829629657"><ele>170.0</ele><time>2026-04-28T07:27:33Z</time></trkpt><trkpt lat="50.38782681491961" lon="4.536577505734273"><ele>170.0</ele><time>2026-04-28T07:27:34Z</time></trkpt><trkpt lat="50.38788282902274" lon="4.536733395327034"><ele>170.0</ele><time>2026-04-28T07:27:34.999Z</time></trkpt><trkpt lat="50.387934381257445" lon="4.536895939152138"><ele>170.0</ele><time>2026-04-28T07:27:35.999Z</time></trkpt><trkpt lat="50.38799085105869" lon="4.53705141772698"><ele>169.8</ele><time>2026-04-28T07:27:36.999Z</time></trkpt><trkpt lat="50.38804669431676" lon="4.537198540162551"><ele>169.6</ele><time>2026-04-28T07:27:37.999Z</time></trkpt><trkpt lat="50.388098481472426" lon="4.537328916829746"><ele>169.39999999999998</ele><time>2026-04-28T07:27:38.999Z</time></trkpt><trkpt lat="50.388132795979224" lon="4.537482064993482"><ele>169.2</ele><time>2026-04-28T07:27:39.999Z</time></trkpt><trkpt lat="50.38819969323903" lon="4.5376314301138985"><ele>169.0</ele><time>2026-04-28T07:27:40.999Z</time></trkpt><trkpt lat="50.388246897805885" lon="4.537808664889716"><ele>169.25</ele><time>2026-04-28T07:27:41.999Z</time></trkpt><trkpt lat="50.388291526125336" lon="4.538001553711911"><ele>169.5</ele><time>2026-04-28T07:27:42.999Z</time></trkpt><trkpt lat="50.38835274797881" lon="4.538176982325731"><ele>169.75</ele><time>2026-04-28T07:27:43.999Z</time></trkpt><trkpt lat="50.38841119443136" lon="4.538344772332006"><ele>170.0</ele><time>2026-04-28T07:27:44.999Z</time></trkpt><trkpt lat="50.38846490875875" lon="4.538506804260545"><ele>170.0</ele><time>2026-04-28T07:27:45.999Z</time></trkpt><trkpt lat="50.38852041022907" lon="4.538679572717983"><ele>170.0</ele><time>2026-04-28T07:27:46.999Z</time></trkpt><trkpt lat="50.38857315628375" lon="4.53885984278463"><ele>170.0</ele><time>2026-04-28T07:27:47.999Z</time></trkpt><trkpt lat="50.38863505565488" lon="4.53904205880766"><ele>170.0</ele><time>2026-04-28T07:27:48.999Z</time></trkpt><trkpt lat="50.38869287483029" lon="4.539220444833286"><ele>170.2</ele><time>2026-04-28T07:27:49.999Z</time></trkpt><trkpt lat="50.388740996346236" lon="4.539373898446539"><ele>170.4</ele><time>2026-04-28T07:27:50.999Z</time></trkpt><trkpt lat="50.38879184826749" lon="4.539502312234434"><ele>170.60000000000002</ele><time>2026-04-28T07:27:51.999Z</time></trkpt><trkpt lat="50.388839130529945" lon="4.539649935317023"><ele>170.8</ele><time>2026-04-28T07:27:52.999Z</time></trkpt><trkpt lat="50.38888278379401" lon="4.539813711604645"><ele>171.0</ele><time>2026-04-28T07:27:53.999Z</time></trkpt><trkpt lat="50.38893249475616" lon="4.539976356049198"><ele>170.8</ele><time>2026-04-28T07:27:54.999Z</time></trkpt><trkpt lat="50.3889861996061" lon="4.540121397571686"><ele>170.60000000000002</ele><time>2026-04-28T07:27:55.999Z</time></trkpt><trkpt lat="50.38904034120244" lon="4.540270569852786"><ele>170.4</ele><time>2026-04-28T07:27:56.999Z</time></trkpt><trkpt lat="50.389110205894596" lon="4.540412781354262"><ele>170.2</ele><time>2026-04-28T07:27:57.999Z</time></trkpt><trkpt lat="50.38918285558813" lon="4.540549865001905"><ele>170.0</ele><time>2026-04-28T07:27:58.999Z</time></trkpt><trkpt lat="50.38926171355086" lon="4.54067058380164"><ele>170.0</ele><time>2026-04-28T07:27:59.999Z</time></trkpt><trkpt lat="50.38932619151148" lon="4.540783008636965"><ele>170.0</ele><time>2026-04-28T07:28:00.999Z</time></trkpt><trkpt lat="50.38938145945374" lon="4.540884675766568"><ele>170.0</ele><time>2026-04-28T07:28:01.999Z</time></trkpt><trkpt lat="50.38942561375331" lon="4.540966541375825"><ele>170.0</ele><time>2026-04-28T07:28:02.999Z</time></trkpt><trkpt lat="50.389481966722826" lon="4.541084742828958"><ele>170.0</ele><time>2026-04-28T07:28:04.999Z</time></trkpt><trkpt lat="50.38955509707371" lon="4.541204532843936"><ele>169.25</ele><time>2026-04-28T07:28:06.999Z</time></trkpt><trkpt lat="50.38946844139447" lon="4.54144705549722"><ele>168.5</ele><time>2026-04-28T07:28:07.999Z</time></trkpt><trkpt lat="50.38942623140772" lon="4.541595550515331"><ele>167.75</ele><time>2026-04-28T07:28:08.999Z</time></trkpt><trkpt lat="50.38939642398126" lon="4.54175403062504"><ele>167.0</ele><time>2026-04-28T07:28:09.999Z</time></trkpt><trkpt lat="50.389367634884735" lon="4.541918549628215"><ele>166.25</ele><time>2026-04-28T07:28:10.999Z</time></trkpt><trkpt lat="50.38932804384413" lon="4.542088894271886"><ele>165.5</ele><time>2026-04-28T07:28:11.999Z</time></trkpt><trkpt lat="50.38927708719207" lon="4.542252364719877"><ele>164.75</ele><time>2026-04-28T07:28:12.999Z</time></trkpt><trkpt lat="50.38922718481214" lon="4.542435270807189"><ele>164.0</ele><time>2026-04-28T07:28:13.999Z</time></trkpt><trkpt lat="50.38917912087111" lon="4.5426221269972356"><ele>164.0</ele><time>2026-04-28T07:28:14.999Z</time></trkpt><trkpt lat="50.38912746504938" lon="4.542794667183676"><ele>164.0</ele><time>2026-04-28T07:28:15.999Z</time></trkpt><trkpt lat="50.38907381232331" lon="4.542966066182871"><ele>164.0</ele><time>2026-04-28T07:28:16.999Z</time></trkpt><trkpt lat="50.38901706615783" lon="4.54313845124271"><ele>164.0</ele><time>2026-04-28T07:28:17.999Z</time></trkpt><trkpt lat="50.38895787863501" lon="4.543305122030924"><ele>163.25</ele><time>2026-04-28T07:28:18.999Z</time></trkpt><trkpt lat="50.38888778039647" lon="4.54346157629411"><ele>162.5</ele><time>2026-04-28T07:28:19.999Z</time></trkpt><trkpt lat="50.38880735698294" lon="4.543606837462139"><ele>161.75</ele><time>2026-04-28T07:28:20.999Z</time></trkpt><trkpt lat="50.38871721254073" lon="4.543742282181987"><ele>161.0</ele><time>2026-04-28T07:28:21.999Z</time></trkpt><trkpt lat="50.388620653817256" lon="4.543876744493801"><ele>162.75</ele><time>2026-04-28T07:28:22.999Z</time></trkpt><trkpt lat="50.38851507148795" lon="4.543996974412665"><ele>164.5</ele><time>2026-04-28T07:28:23.999Z</time></trkpt><trkpt lat="50.38840989277717" lon="4.544103231381799"><ele>166.25</ele><time>2026-04-28T07:28:24.999Z</time></trkpt><trkpt lat="50.38830403018021" lon="4.544188934144484"><ele>168.0</ele><time>2026-04-28T07:28:25.999Z</time></trkpt><trkpt lat="50.388192739078086" lon="4.544286514393137"><ele>168.0</ele><time>2026-04-28T07:28:26.999Z</time></trkpt><trkpt lat="50.38807869249478" lon="4.544393162447483"><ele>168.0</ele><time>2026-04-28T07:28:27.999Z</time></trkpt><trkpt lat="50.387970769672876" lon="4.544505343993189"><ele>168.0</ele><time>2026-04-28T07:28:28.999Z</time></trkpt><trkpt lat="50.38787285812975" lon="4.544630277359343"><ele>168.0</ele><time>2026-04-28T07:28:29.999Z</time></trkpt><trkpt lat="50.38777942037766" lon="4.544757088081469"><ele>168.5</ele><time>2026-04-28T07:28:30.999Z</time></trkpt><trkpt lat="50.38768133256126" lon="4.544885442890481"><ele>169.0</ele><time>2026-04-28T07:28:31.999Z</time></trkpt><trkpt lat="50.38758254668834" lon="4.545019987865666"><ele>169.5</ele><time>2026-04-28T07:28:32.999Z</time></trkpt><trkpt lat="50.38748546743352" lon="4.545154837491125"><ele>170.0</ele><time>2026-04-28T07:28:33.999Z</time></trkpt><trkpt lat="50.38738613785939" lon="4.545278064102049"><ele>170.25</ele><time>2026-04-28T07:28:34.999Z</time></trkpt><trkpt lat="50.387287271551294" lon="4.54540184536828"><ele>170.5</ele><time>2026-04-28T07:28:35.999Z</time></trkpt><trkpt lat="50.3872014370827" lon="4.545513949124686"><ele>170.75</ele><time>2026-04-28T07:28:36.999Z</time></trkpt><trkpt lat="50.387106536110146" lon="4.5456358784033295"><ele>171.0</ele><time>2026-04-28T07:28:37.999Z</time></trkpt><trkpt lat="50.387005317258335" lon="4.545761924352094"><ele>171.25</ele><time>2026-04-28T07:28:38.999Z</time></trkpt><trkpt lat="50.38689651924355" lon="4.545898932083431"><ele>171.5</ele><time>2026-04-28T07:28:39.999Z</time></trkpt><trkpt lat="50.3867864345057" lon="4.546041844037088"><ele>171.75</ele><time>2026-04-28T07:28:40.999Z</time></trkpt><trkpt lat="50.38668933188147" lon="4.546187549049021"><ele>172.0</ele><time>2026-04-28T07:28:41.999Z</time></trkpt><trkpt lat="50.38661267517913" lon="4.546343695951587"><ele>172.0</ele><time>2026-04-28T07:28:42.999Z</time></trkpt><trkpt lat="50.38654121094246" lon="4.54649938826376"><ele>172.0</ele><time>2026-04-28T07:28:43.999Z</time></trkpt><trkpt lat="50.386461255821594" lon="4.546649588105876"><ele>172.0</ele><time>2026-04-28T07:28:44.999Z</time></trkpt><trkpt lat="50.386369405659956" lon="4.546770980991008"><ele>172.0</ele><time>2026-04-28T07:28:45.999Z</time></trkpt><trkpt lat="50.38627313539471" lon="4.546898095615786"><ele>171.75</ele><time>2026-04-28T07:28:46.999Z</time></trkpt><trkpt lat="50.38617987883483" lon="4.547022688543098"><ele>171.5</ele><time>2026-04-28T07:28:47.999Z</time></trkpt><trkpt lat="50.3860829701455" lon="4.547140873386646"><ele>171.25</ele><time>2026-04-28T07:28:48.999Z</time></trkpt><trkpt lat="50.38598246570017" lon="4.547263992047815"><ele>171.0</ele><time>2026-04-28T07:28:49.999Z</time></trkpt><trkpt lat="50.38588009671911" lon="4.547383712122838"><ele>171.0</ele><time>2026-04-28T07:28:50.999Z</time></trkpt><trkpt lat="50.3857771682035" lon="4.547502879808991"><ele>171.0</ele><time>2026-04-28T07:28:51.999Z</time></trkpt><trkpt lat="50.385676174232024" lon="4.54762416559618"><ele>171.0</ele><time>2026-04-28T07:28:52.999Z</time></trkpt><trkpt lat="50.38557637877899" lon="4.547740743770988"><ele>171.0</ele><time>2026-04-28T07:28:54Z</time></trkpt><trkpt lat="50.38548204981635" lon="4.547860054556696"><ele>171.5</ele><time>2026-04-28T07:28:55Z</time></trkpt><trkpt lat="50.385390684615814" lon="4.5479793182553445"><ele>172.0</ele><time>2026-04-28T07:28:56Z</time></trkpt><trkpt lat="50.38530425215034" lon="4.548110321038025"><ele>172.5</ele><time>2026-04-28T07:28:57Z</time></trkpt><trkpt lat="50.385231231705106" lon="4.548258030845328"><ele>173.0</ele><time>2026-04-28T07:28:58Z</time></trkpt><trkpt lat="50.385183838006874" lon="4.548425588134087"><ele>173.0</ele><time>2026-04-28T07:28:59Z</time></trkpt><trkpt lat="50.38513492804812" lon="4.548604133888582"><ele>173.0</ele><time>2026-04-28T07:29:00Z</time></trkpt><trkpt lat="50.385091604013915" lon="4.548783887694072"><ele>173.0</ele><time>2026-04-28T07:29:01Z</time></trkpt><trkpt lat="50.38504375144583" lon="4.548965442727066"><ele>173.0</ele><time>2026-04-28T07:29:02Z</time></trkpt><trkpt lat="50.385004592442726" lon="4.54913555038525"><ele>172.5</ele><time>2026-04-28T07:29:03Z</time></trkpt><trkpt lat="50.38495663085046" lon="4.5493254242314"><ele>172.0</ele><time>2026-04-28T07:29:04Z</time></trkpt><trkpt lat="50.38491070137362" lon="4.549508947982927"><ele>171.5</ele><time>2026-04-28T07:29:05Z</time></trkpt><trkpt lat="50.38485630435916" lon="4.549690271613884"><ele>171.0</ele><time>2026-04-28T07:29:06Z</time></trkpt><trkpt lat="50.38481691980017" lon="4.549852013552137"><ele>170.8</ele><time>2026-04-28T07:29:07Z</time></trkpt><trkpt lat="50.384786481357345" lon="4.5500021755473385"><ele>170.60000000000002</ele><time>2026-04-28T07:29:08Z</time></trkpt><trkpt lat="50.38475605906565" lon="4.550155950669094"><ele>170.4</ele><time>2026-04-28T07:29:09Z</time></trkpt><trkpt lat="50.38473727932673" lon="4.550327261507169"><ele>170.2</ele><time>2026-04-28T07:29:10Z</time></trkpt><trkpt lat="50.38471192192918" lon="4.550502023632957"><ele>170.0</ele><time>2026-04-28T07:29:11Z</time></trkpt><trkpt lat="50.384701694955474" lon="4.5506834973854335"><ele>170.0</ele><time>2026-04-28T07:29:12Z</time></trkpt><trkpt lat="50.38468091785735" lon="4.550859496883205"><ele>170.0</ele><time>2026-04-28T07:29:13Z</time></trkpt><trkpt lat="50.38465861453807" lon="4.551036378698935"><ele>170.0</ele><time>2026-04-28T07:29:14Z</time></trkpt><trkpt lat="50.384633485106015" lon="4.551211580550179"><ele>170.0</ele><time>2026-04-28T07:29:15Z</time></trkpt><trkpt lat="50.384598462351065" lon="4.5513842212236515"><ele>171.0</ele><time>2026-04-28T07:29:16Z</time></trkpt><trkpt lat="50.38455099311427" lon="4.551558291318439"><ele>172.0</ele><time>2026-04-28T07:29:17Z</time></trkpt><trkpt lat="50.38447867055296" lon="4.551734228579779"><ele>173.0</ele><time>2026-04-28T07:29:18Z</time></trkpt><trkpt lat="50.38439067295338" lon="4.551909302533173"><ele>174.0</ele><time>2026-04-28T07:29:19Z</time></trkpt><trkpt lat="50.3843012981385" lon="4.552100777518788"><ele>174.0</ele><time>2026-04-28T07:29:20Z</time></trkpt><trkpt lat="50.3842511576954" lon="4.552245418059902"><ele>174.0</ele><time>2026-04-28T07:29:21Z</time></trkpt><trkpt lat="50.3841826093548" lon="4.552401195022969"><ele>174.0</ele><time>2026-04-28T07:29:22Z</time></trkpt><trkpt lat="50.38410988047434" lon="4.552555276870791"><ele>174.0</ele><time>2026-04-28T07:29:23Z</time></trkpt><trkpt lat="50.384042879197544" lon="4.552709476367003"><ele>174.0</ele><time>2026-04-28T07:29:24Z</time></trkpt><trkpt lat="50.38397572319158" lon="4.552849882321942"><ele>174.0</ele><time>2026-04-28T07:29:25Z</time></trkpt><trkpt lat="50.3839166386682" lon="4.552988545665334"><ele>174.0</ele><time>2026-04-28T07:29:26Z</time></trkpt><trkpt lat="50.38385436675334" lon="4.553120339953272"><ele>174.0</ele><time>2026-04-28T07:29:27Z</time></trkpt><trkpt lat="50.3837910821866" lon="4.553270844975015"><ele>174.0</ele><time>2026-04-28T07:29:28Z</time></trkpt><trkpt lat="50.38373124473054" lon="4.553434791552367"><ele>174.25</ele><time>2026-04-28T07:29:29Z</time></trkpt><trkpt lat="50.38368981336026" lon="4.5536214736049665"><ele>174.5</ele><time>2026-04-28T07:29:30Z</time></trkpt><trkpt lat="50.383666498508504" lon="4.553820588056232"><ele>174.75</ele><time>2026-04-28T07:29:31Z</time></trkpt><trkpt lat="50.38365754626498" lon="4.5540258111172705"><ele>175.0</ele><time>2026-04-28T07:29:32Z</time></trkpt><trkpt lat="50.38365625800342" lon="4.554240486414264"><ele>175.25</ele><time>2026-04-28T07:29:33Z</time></trkpt><trkpt lat="50.38367522231227" lon="4.554452243539283"><ele>175.5</ele><time>2026-04-28T07:29:34Z</time></trkpt><trkpt lat="50.383712956203745" lon="4.554630365578912"><ele>175.75</ele><time>2026-04-28T07:29:35Z</time></trkpt><trkpt lat="50.383741518350014" lon="4.554787134608799"><ele>176.0</ele><time>2026-04-28T07:29:36Z</time></trkpt><trkpt lat="50.38376065813235" lon="4.554930471690495"><ele>176.0</ele><time>2026-04-28T07:29:37Z</time></trkpt><trkpt lat="50.38378178493144" lon="4.555055981642235"><ele>176.0</ele><time>2026-04-28T07:29:38Z</time></trkpt><trkpt lat="50.38380138379754" lon="4.555171575845129"><ele>176.0</ele><time>2026-04-28T07:29:39Z</time></trkpt><trkpt lat="50.38381898180079" lon="4.555271509590094"><ele>176.0</ele><time>2026-04-28T07:29:40Z</time></trkpt><trkpt lat="50.38378601484056" lon="4.555448868233901"><ele>176.0</ele><time>2026-04-28T07:29:42Z</time></trkpt><trkpt lat="50.38361855868782" lon="4.555520472292127"><ele>176.0</ele><time>2026-04-28T07:29:44Z</time></trkpt><trkpt lat="50.383531916742996" lon="4.555587522205728"><ele>176.0</ele><time>2026-04-28T07:29:45Z</time></trkpt><trkpt lat="50.38343153004889" lon="4.55562663563645"><ele>176.0</ele><time>2026-04-28T07:29:45.999Z</time></trkpt><trkpt lat="50.38335126683941" lon="4.555668816249671"><ele>176.0</ele><time>2026-04-28T07:29:46.999Z</time></trkpt><trkpt lat="50.38330643358557" lon="4.555782203066926"><ele>176.0</ele><time>2026-04-28T07:29:47.999Z</time></trkpt><trkpt lat="50.38326556546647" lon="4.555930774380271"><ele>176.0</ele><time>2026-04-28T07:29:48.999Z</time></trkpt><trkpt lat="50.38323212478659" lon="4.556124936910265"><ele>176.0</ele><time>2026-04-28T07:29:49.999Z</time></trkpt><trkpt lat="50.38317515596444" lon="4.556316824092022"><ele>176.0</ele><time>2026-04-28T07:29:50.999Z</time></trkpt><trkpt lat="50.38314584832076" lon="4.5564274968481255"><ele>176.0</ele><time>2026-04-28T07:29:51.999Z</time></trkpt><trkpt lat="50.383125971988505" lon="4.55654190437427"><ele>176.0</ele><time>2026-04-28T07:29:52.999Z</time></trkpt><trkpt lat="50.383080934465134" lon="4.556705567868943"><ele>177.0</ele><time>2026-04-28T07:29:53.999Z</time></trkpt><trkpt lat="50.38303793956148" lon="4.556884715161731"><ele>178.0</ele><time>2026-04-28T07:29:54.999Z</time></trkpt><trkpt lat="50.382989157784024" lon="4.557069045887872"><ele>179.0</ele><time>2026-04-28T07:29:55.999Z</time></trkpt><trkpt lat="50.382943069354084" lon="4.557251026294776"><ele>180.0</ele><time>2026-04-28T07:29:56.999Z</time></trkpt><trkpt lat="50.38289503746261" lon="4.557436928395025"><ele>183.5</ele><time>2026-04-28T07:29:57.999Z</time></trkpt><trkpt lat="50.382849991627275" lon="4.557629451812488"><ele>187.0</ele><time>2026-04-28T07:29:58.999Z</time></trkpt><trkpt lat="50.38280379881548" lon="4.557825428931421"><ele>190.5</ele><time>2026-04-28T07:29:59.999Z</time></trkpt><trkpt lat="50.382758143207" lon="4.557997411268689"><ele>194.0</ele><time>2026-04-28T07:30:00.999Z</time></trkpt><trkpt lat="50.38271848061275" lon="4.558313085673902"><ele>194.2</ele><time>2026-04-28T07:30:02.999Z</time></trkpt><trkpt lat="50.38271770349836" lon="4.558471675698074"><ele>194.39999999999998</ele><time>2026-04-28T07:30:03.999Z</time></trkpt><trkpt lat="50.38273082315244" lon="4.558625375792892"><ele>194.6</ele><time>2026-04-28T07:30:04.999Z</time></trkpt><trkpt lat="50.38274794859587" lon="4.5587680858131385"><ele>194.8</ele><time>2026-04-28T07:30:05.999Z</time></trkpt><trkpt lat="50.382753796172345" lon="4.558925956422758"><ele>195.0</ele><time>2026-04-28T07:30:06.999Z</time></trkpt><trkpt lat="50.382758601682205" lon="4.559102125803819"><ele>195.0</ele><time>2026-04-28T07:30:07.999Z</time></trkpt><trkpt lat="50.382746281860186" lon="4.559285517580657"><ele>195.0</ele><time>2026-04-28T07:30:08.999Z</time></trkpt><trkpt lat="50.382725793553874" lon="4.559472633710943"><ele>195.0</ele><time>2026-04-28T07:30:09.999Z</time></trkpt><trkpt lat="50.382692500470995" lon="4.55965674386742"><ele>195.0</ele><time>2026-04-28T07:30:10.999Z</time></trkpt><trkpt lat="50.3826616622422" lon="4.55982001164601"><ele>195.0</ele><time>2026-04-28T07:30:11.999Z</time></trkpt><trkpt lat="50.38264185578352" lon="4.559971954983488"><ele>195.0</ele><time>2026-04-28T07:30:12.999Z</time></trkpt><trkpt lat="50.3826167659672" lon="4.560074947071423"><ele>195.0</ele><time>2026-04-28T07:30:13.999Z</time></trkpt><trkpt lat="50.38260050923642" lon="4.560172110200436"><ele>195.0</ele><time>2026-04-28T07:30:14.999Z</time></trkpt><trkpt lat="50.382572221877446" lon="4.560350851095379"><ele>195.0</ele><time>2026-04-28T07:30:16.999Z</time></trkpt><trkpt lat="50.38254490657505" lon="4.560450582396318"><ele>195.0</ele><time>2026-04-28T07:30:18.999Z</time></trkpt><trkpt lat="50.38249044818642" lon="4.560517526159663"><ele>195.0</ele><time>2026-04-28T07:30:20.999Z</time></trkpt><trkpt lat="50.38233071048263" lon="4.560485998470686"><ele>195.0</ele><time>2026-04-28T07:30:22.999Z</time></trkpt><trkpt lat="50.382234739446595" lon="4.56048402070519"><ele>195.0</ele><time>2026-04-28T07:30:23.999Z</time></trkpt><trkpt lat="50.38212486362784" lon="4.560476347192029"><ele>195.0</ele><time>2026-04-28T07:30:24.999Z</time></trkpt><trkpt lat="50.38201530069261" lon="4.560455690629994"><ele>196.0</ele><time>2026-04-28T07:30:25.999Z</time></trkpt><trkpt lat="50.38190915462375" lon="4.5603808945693745"><ele>197.0</ele><time>2026-04-28T07:30:26.999Z</time></trkpt><trkpt lat="50.38180590655057" lon="4.560274495799622"><ele>198.0</ele><time>2026-04-28T07:30:27.999Z</time></trkpt><trkpt lat="50.38171101358702" lon="4.5601257889098425"><ele>199.0</ele><time>2026-04-28T07:30:28.999Z</time></trkpt><trkpt lat="50.38160685197003" lon="4.559969758308881"><ele>200.25</ele><time>2026-04-28T07:30:29.999Z</time></trkpt><trkpt lat="50.38150107712178" lon="4.559835438662259"><ele>201.5</ele><time>2026-04-28T07:30:30.999Z</time></trkpt><trkpt lat="50.38139022092614" lon="4.55967719522907"><ele>202.75</ele><time>2026-04-28T07:30:31.999Z</time></trkpt><trkpt lat="50.38128736009784" lon="4.559527928431909"><ele>204.0</ele><time>2026-04-28T07:30:32.999Z</time></trkpt><trkpt lat="50.38118445916334" lon="4.559371255856639"><ele>205.25</ele><time>2026-04-28T07:30:33.999Z</time></trkpt><trkpt lat="50.38107391717226" lon="4.559222565712835"><ele>206.5</ele><time>2026-04-28T07:30:34.999Z</time></trkpt><trkpt lat="50.380950591929576" lon="4.559091506243969"><ele>207.75</ele><time>2026-04-28T07:30:35.999Z</time></trkpt><trkpt lat="50.380818405286355" lon="4.558976647735889"><ele>209.0</ele><time>2026-04-28T07:30:36.999Z</time></trkpt><trkpt lat="50.38068281724387" lon="4.558884780202644"><ele>209.0</ele><time>2026-04-28T07:30:37.999Z</time></trkpt><trkpt lat="50.380545189146034" lon="4.558776408010758"><ele>209.0</ele><time>2026-04-28T07:30:38.999Z</time></trkpt><trkpt lat="50.38040867509339" lon="4.55868654860113"><ele>209.0</ele><time>2026-04-28T07:30:39.999Z</time></trkpt><trkpt lat="50.38024988469044" lon="4.55858244484022"><ele>210.33333333333334</ele><time>2026-04-28T07:30:40.999Z</time></trkpt><trkpt lat="50.380096719448915" lon="4.558482147963154"><ele>211.66666666666669</ele><time>2026-04-28T07:30:41.999Z</time></trkpt><trkpt lat="50.37994042147479" lon="4.5583793765265925"><ele>213.0</ele><time>2026-04-28T07:30:42.999Z</time></trkpt><trkpt lat="50.37978248943327" lon="4.558274994833258"><ele>212.33333333333331</ele><time>2026-04-28T07:30:43.999Z</time></trkpt><trkpt lat="50.379626613494246" lon="4.558172223199098"><ele>211.66666666666666</ele><time>2026-04-28T07:30:44.999Z</time></trkpt><trkpt lat="50.37946863677716" lon="4.558068021836621"><ele>211.0</ele><time>2026-04-28T07:30:45.999Z</time></trkpt><trkpt lat="50.37930804449526" lon="4.557962393468305"><ele>211.0</ele><time>2026-04-28T07:30:46.999Z</time></trkpt><trkpt lat="50.37915091524931" lon="4.557859002518898"><ele>211.0</ele><time>2026-04-28T07:30:47.999Z</time></trkpt><trkpt lat="50.37900023328126" lon="4.557759297723572"><ele>211.0</ele><time>2026-04-28T07:30:48.999Z</time></trkpt><trkpt lat="50.378857599402984" lon="4.557664918273015"><ele>211.33333333333331</ele><time>2026-04-28T07:30:49.999Z</time></trkpt><trkpt lat="50.378718130272595" lon="4.557572454027299"><ele>211.66666666666669</ele><time>2026-04-28T07:30:50.999Z</time></trkpt><trkpt lat="50.378580517282565" lon="4.557481012094065"><ele>212.0</ele><time>2026-04-28T07:30:51.999Z</time></trkpt><trkpt lat="50.37844054135195" lon="4.557387999911717"><ele>212.0</ele><time>2026-04-28T07:30:52.999Z</time></trkpt><trkpt lat="50.37828957878577" lon="4.55728768734676"><ele>212.0</ele><time>2026-04-28T07:30:53.999Z</time></trkpt><trkpt lat="50.37813373737899" lon="4.5571845939497315"><ele>212.0</ele><time>2026-04-28T07:30:54.999Z</time></trkpt><trkpt lat="50.3779787593744" lon="4.557083318307535"><ele>212.0</ele><time>2026-04-28T07:30:55.999Z</time></trkpt><trkpt lat="50.377835865897225" lon="4.557000035243992"><ele>212.0</ele><time>2026-04-28T07:30:56.999Z</time></trkpt><trkpt lat="50.37769289611291" lon="4.556927183537924"><ele>212.0</ele><time>2026-04-28T07:30:57.999Z</time></trkpt><trkpt lat="50.37753750153794" lon="4.556899620055785"><ele>212.0</ele><time>2026-04-28T07:30:58.999Z</time></trkpt><trkpt lat="50.37738763035533" lon="4.556833412578167"><ele>212.0</ele><time>2026-04-28T07:31:00Z</time></trkpt><trkpt lat="50.37723049989623" lon="4.5567905039070755"><ele>212.0</ele><time>2026-04-28T07:31:01Z</time></trkpt><trkpt lat="50.377083732494356" lon="4.5567507394153735"><ele>211.33333333333334</ele><time>2026-04-28T07:31:02Z</time></trkpt><trkpt lat="50.37693783842982" lon="4.556711446523546"><ele>210.66666666666669</ele><time>2026-04-28T07:31:03Z</time></trkpt><trkpt lat="50.37678722457991" lon="4.556696330307719"><ele>210.0</ele><time>2026-04-28T07:31:04Z</time></trkpt><trkpt lat="50.37663480133948" lon="4.556629205482261"><ele>210.0</ele><time>2026-04-28T07:31:05Z</time></trkpt><trkpt lat="50.376483566439866" lon="4.556588053588644"><ele>210.0</ele><time>2026-04-28T07:31:06Z</time></trkpt><trkpt lat="50.37632750116042" lon="4.556545587328842"><ele>210.0</ele><time>2026-04-28T07:31:07Z</time></trkpt><trkpt lat="50.37617635782827" lon="4.556529026483668"><ele>210.0</ele><time>2026-04-28T07:31:08Z</time></trkpt><trkpt lat="50.37603390278775" lon="4.556468292313471"><ele>210.0</ele><time>2026-04-28T07:31:09Z</time></trkpt><trkpt lat="50.37589319981711" lon="4.556378276231649"><ele>210.0</ele><time>2026-04-28T07:31:10Z</time></trkpt><trkpt lat="50.37574282263329" lon="4.556317618768323"><ele>210.0</ele><time>2026-04-28T07:31:11Z</time></trkpt><trkpt lat="50.37559140359241" lon="4.556243330463269"><ele>210.0</ele><time>2026-04-28T07:31:12Z</time></trkpt><trkpt lat="50.375432192899034" lon="4.556178798168424"><ele>210.0</ele><time>2026-04-28T07:31:13Z</time></trkpt><trkpt lat="50.375283542883345" lon="4.5561029095473815"><ele>211.33333333333331</ele><time>2026-04-28T07:31:14Z</time></trkpt><trkpt lat="50.375136473008084" lon="4.556029964889042"><ele>212.66666666666666</ele><time>2026-04-28T07:31:15Z</time></trkpt><trkpt lat="50.37498902533014" lon="4.555956662770989"><ele>214.0</ele><time>2026-04-28T07:31:16Z</time></trkpt><trkpt lat="50.37482725780882" lon="4.555907327838342"><ele>213.66666666666666</ele><time>2026-04-28T07:31:17Z</time></trkpt><trkpt lat="50.37468173136523" lon="4.555835879945251"><ele>213.33333333333331</ele><time>2026-04-28T07:31:18Z</time></trkpt><trkpt lat="50.37453515333442" lon="4.555760919647015"><ele>213.0</ele><time>2026-04-28T07:31:19Z</time></trkpt><trkpt lat="50.37438588558691" lon="4.555689135079749"><ele>213.0</ele><time>2026-04-28T07:31:20Z</time></trkpt><trkpt lat="50.37422847316823" lon="4.555624864708432"><ele>213.0</ele><time>2026-04-28T07:31:21Z</time></trkpt><trkpt lat="50.37408155795283" lon="4.55555061688008"><ele>213.0</ele><time>2026-04-28T07:31:22Z</time></trkpt><trkpt lat="50.37392607606929" lon="4.55546259019846"><ele>213.66666666666669</ele><time>2026-04-28T07:31:23Z</time></trkpt><trkpt lat="50.37377549455634" lon="4.555393213586983"><ele>214.33333333333334</ele><time>2026-04-28T07:31:24Z</time></trkpt><trkpt lat="50.373625787854394" lon="4.555324240064551"><ele>215.0</ele><time>2026-04-28T07:31:25Z</time></trkpt><trkpt lat="50.37348246044832" lon="4.555258113298709"><ele>215.5</ele><time>2026-04-28T07:31:26Z</time></trkpt><trkpt lat="50.37334956979711" lon="4.555196219031106"><ele>216.0</ele><time>2026-04-28T07:31:27Z</time></trkpt><trkpt lat="50.37320613036155" lon="4.555129995708043"><ele>216.5</ele><time>2026-04-28T07:31:28Z</time></trkpt><trkpt lat="50.373078087051944" lon="4.555071187422094"><ele>217.0</ele><time>2026-04-28T07:31:29Z</time></trkpt><trkpt lat="50.37295337738533" lon="4.555013937288816"><ele>217.25</ele><time>2026-04-28T07:31:30Z</time></trkpt><trkpt lat="50.37282517521111" lon="4.5549552406815845"><ele>217.5</ele><time>2026-04-28T07:31:31Z</time></trkpt><trkpt lat="50.372698035914574" lon="4.5548968776898935"><ele>217.75</ele><time>2026-04-28T07:31:32Z</time></trkpt><trkpt lat="50.37257579734316" lon="4.554840235931698"><ele>218.0</ele><time>2026-04-28T07:31:33Z</time></trkpt><trkpt lat="50.372441295767096" lon="4.554777105950676"><ele>218.0</ele><time>2026-04-28T07:31:34Z</time></trkpt><trkpt lat="50.372302430364925" lon="4.554716866559871"><ele>218.0</ele><time>2026-04-28T07:31:35Z</time></trkpt><trkpt lat="50.372175711490705" lon="4.554664840900056"><ele>218.0</ele><time>2026-04-28T07:31:36Z</time></trkpt><trkpt lat="50.372012855105346" lon="4.5546179215473215"><ele>218.0</ele><time>2026-04-28T07:31:37Z</time></trkpt><trkpt lat="50.3718643850197" lon="4.55458771818326"><ele>218.0</ele><time>2026-04-28T07:31:38Z</time></trkpt><trkpt lat="50.37171631855303" lon="4.554584581913222"><ele>218.0</ele><time>2026-04-28T07:31:39Z</time></trkpt><trkpt lat="50.371579253737785" lon="4.554548647637948"><ele>218.0</ele><time>2026-04-28T07:31:40Z</time></trkpt><trkpt lat="50.37142893279516" lon="4.55449827034488"><ele>218.0</ele><time>2026-04-28T07:31:41Z</time></trkpt><trkpt lat="50.3712699793175" lon="4.554468014756046"><ele>218.0</ele><time>2026-04-28T07:31:42Z</time></trkpt><trkpt lat="50.371105398037884" lon="4.554435755420737"><ele>218.0</ele><time>2026-04-28T07:31:43Z</time></trkpt><trkpt lat="50.370938828363556" lon="4.554403237647811"><ele>218.0</ele><time>2026-04-28T07:31:44Z</time></trkpt><trkpt lat="50.37078477151882" lon="4.554373182661864"><ele>218.0</ele><time>2026-04-28T07:31:45Z</time></trkpt><trkpt lat="50.37065512297028" lon="4.554346719305315"><ele>218.0</ele><time>2026-04-28T07:31:46Z</time></trkpt><trkpt lat="50.370543225994304" lon="4.554323907356376"><ele>218.0</ele><time>2026-04-28T07:31:47Z</time></trkpt><trkpt lat="50.370404899840494" lon="4.554294669233473"><ele>218.0</ele><time>2026-04-28T07:31:48Z</time></trkpt><trkpt lat="50.370290129342024" lon="4.554270661957146"><ele>218.5</ele><time>2026-04-28T07:31:49Z</time></trkpt><trkpt lat="50.37017362334595" lon="4.554244663398773"><ele>219.0</ele><time>2026-04-28T07:31:50Z</time></trkpt><trkpt lat="50.370030272806126" lon="4.554227196046068"><ele>219.5</ele><time>2026-04-28T07:31:51Z</time></trkpt><trkpt lat="50.36988172403351" lon="4.554232275695408"><ele>220.0</ele><time>2026-04-28T07:31:52Z</time></trkpt><trkpt lat="50.36973574766782" lon="4.554245149037848"><ele>220.75</ele><time>2026-04-28T07:31:53Z</time></trkpt><trkpt lat="50.36958533484622" lon="4.554278644653032"><ele>221.5</ele><time>2026-04-28T07:31:54Z</time></trkpt><trkpt lat="50.369436512297604" lon="4.55429639750023"><ele>222.25</ele><time>2026-04-28T07:31:55Z</time></trkpt><trkpt lat="50.369293325628135" lon="4.554322597656863"><ele>223.0</ele><time>2026-04-28T07:31:56Z</time></trkpt><trkpt lat="50.36915436653358" lon="4.554351879687112"><ele>223.0</ele><time>2026-04-28T07:31:57Z</time></trkpt><trkpt lat="50.36899881152717" lon="4.55437052755103"><ele>223.0</ele><time>2026-04-28T07:31:58Z</time></trkpt><trkpt lat="50.368848208955725" lon="4.554401216305658"><ele>223.0</ele><time>2026-04-28T07:31:59Z</time></trkpt><trkpt lat="50.36871561535462" lon="4.554427781929958"><ele>223.0</ele><time>2026-04-28T07:32:00Z</time></trkpt><trkpt lat="50.36858288296472" lon="4.554454309324002"><ele>223.5</ele><time>2026-04-28T07:32:00.999Z</time></trkpt><trkpt lat="50.36845191244784" lon="4.554467824038656"><ele>224.0</ele><time>2026-04-28T07:32:01.999Z</time></trkpt><trkpt lat="50.36831952945337" lon="4.55450021732836"><ele>224.5</ele><time>2026-04-28T07:32:02.999Z</time></trkpt><trkpt lat="50.368197073324694" lon="4.554520008460276"><ele>225.0</ele><time>2026-04-28T07:32:03.999Z</time></trkpt><trkpt lat="50.368090939764826" lon="4.554541370582935"><ele>224.83333333333334</ele><time>2026-04-28T07:32:04.999Z</time></trkpt><trkpt lat="50.36799024383352" lon="4.5545506531197555"><ele>224.66666666666669</ele><time>2026-04-28T07:32:05.999Z</time></trkpt><trkpt lat="50.36790115109763" lon="4.5545862287386205"><ele>224.5</ele><time>2026-04-28T07:32:06.999Z</time></trkpt><trkpt lat="50.36781615265265" lon="4.554576000092743"><ele>224.33333333333334</ele><time>2026-04-28T07:32:07.999Z</time></trkpt><trkpt lat="50.367742779258016" lon="4.554595556916301"><ele>224.16666666666669</ele><time>2026-04-28T07:32:08.999Z</time></trkpt><trkpt lat="50.36766796657368" lon="4.554618449503866"><ele>224.0</ele><time>2026-04-28T07:32:09.999Z</time></trkpt><trkpt lat="50.36759385292146" lon="4.554638254963299"><ele>224.0</ele><time>2026-04-28T07:32:10.999Z</time></trkpt><trkpt lat="50.36751592185518" lon="4.554639650174926"><ele>223.99999999999997</ele><time>2026-04-28T07:32:11.999Z</time></trkpt><trkpt lat="50.36742920809017" lon="4.554662328032313"><ele>223.99999999999997</ele><time>2026-04-28T07:32:12.999Z</time></trkpt><trkpt lat="50.36733476378638" lon="4.554659104407335"><ele>224.0</ele><time>2026-04-28T07:32:13.999Z</time></trkpt><trkpt lat="50.367237117255506" lon="4.554686395250151"><ele>224.0</ele><time>2026-04-28T07:32:14.999Z</time></trkpt><trkpt lat="50.367125206803024" lon="4.554693977154229"><ele>222.5</ele><time>2026-04-28T07:32:15.999Z</time></trkpt><trkpt lat="50.36700663639252" lon="4.554710343485717"><ele>221.0</ele><time>2026-04-28T07:32:16.999Z</time></trkpt><trkpt lat="50.36687602938846" lon="4.554739856393928"><ele>219.5</ele><time>2026-04-28T07:32:17.999Z</time></trkpt><trkpt lat="50.366739303513484" lon="4.5547648610381115"><ele>218.0</ele><time>2026-04-28T07:32:18.999Z</time></trkpt><trkpt lat="50.366594404283816" lon="4.554798134169596"><ele>218.0</ele><time>2026-04-28T07:32:19.999Z</time></trkpt><trkpt lat="50.36644168058109" lon="4.554840311100392"><ele>218.0</ele><time>2026-04-28T07:32:20.999Z</time></trkpt><trkpt lat="50.36628009822573" lon="4.554864818170576"><ele>218.0</ele><time>2026-04-28T07:32:21.999Z</time></trkpt><trkpt lat="50.36611339802431" lon="4.554907061519444"><ele>218.66666666666669</ele><time>2026-04-28T07:32:22.999Z</time></trkpt><trkpt lat="50.36594091620689" lon="4.554930093729085"><ele>219.33333333333331</ele><time>2026-04-28T07:32:23.999Z</time></trkpt><trkpt lat="50.365756866945524" lon="4.5549512582276215"><ele>220.0</ele><time>2026-04-28T07:32:24.999Z</time></trkpt><trkpt lat="50.36558007231815" lon="4.554983456049501"><ele>220.0</ele><time>2026-04-28T07:32:25.999Z</time></trkpt><trkpt lat="50.36539810837146" lon="4.555032139138294"><ele>220.0</ele><time>2026-04-28T07:32:26.999Z</time></trkpt><trkpt lat="50.365208145822464" lon="4.555067656710009"><ele>220.0</ele><time>2026-04-28T07:32:27.999Z</time></trkpt><trkpt lat="50.36501948702556" lon="4.555076138919517"><ele>220.0</ele><time>2026-04-28T07:32:28.999Z</time></trkpt><trkpt lat="50.36485649066833" lon="4.555094861057233"><ele>220.0</ele><time>2026-04-28T07:32:29.999Z</time></trkpt><trkpt lat="50.36471033452671" lon="4.555130140696838"><ele>220.0</ele><time>2026-04-28T07:32:30.999Z</time></trkpt><trkpt lat="50.36457670004166" lon="4.555171520558565"><ele>220.0</ele><time>2026-04-28T07:32:31.999Z</time></trkpt><trkpt lat="50.364455723570735" lon="4.555198344565447"><ele>220.75</ele><time>2026-04-28T07:32:32.999Z</time></trkpt><trkpt lat="50.364337187713396" lon="4.555212382490993"><ele>221.5</ele><time>2026-04-28T07:32:33.999Z</time></trkpt><trkpt lat="50.364212710300954" lon="4.555211976446586"><ele>222.25</ele><time>2026-04-28T07:32:34.999Z</time></trkpt><trkpt lat="50.3640947521694" lon="4.555228487171479"><ele>223.0</ele><time>2026-04-28T07:32:35.999Z</time></trkpt><trkpt lat="50.36397664277951" lon="4.555256554523403"><ele>223.0</ele><time>2026-04-28T07:32:36.999Z</time></trkpt><trkpt lat="50.36386878991645" lon="4.555276847505992"><ele>223.0</ele><time>2026-04-28T07:32:37.999Z</time></trkpt><trkpt lat="50.36375916680755" lon="4.555275130978331"><ele>223.0</ele><time>2026-04-28T07:32:38.999Z</time></trkpt><trkpt lat="50.36364156576509" lon="4.555245178847602"><ele>223.0</ele><time>2026-04-28T07:32:39.999Z</time></trkpt><trkpt lat="50.363519763350986" lon="4.555185056784483"><ele>223.0</ele><time>2026-04-28T07:32:40.999Z</time></trkpt><trkpt lat="50.363394619440356" lon="4.555100969880233"><ele>223.0</ele><time>2026-04-28T07:32:41.999Z</time></trkpt><trkpt lat="50.363274639586656" lon="4.555016201703839"><ele>223.0</ele><time>2026-04-28T07:32:42.999Z</time></trkpt><trkpt lat="50.363165875820215" lon="4.55493346927183"><ele>223.0</ele><time>2026-04-28T07:32:43.999Z</time></trkpt><trkpt lat="50.36306051131599" lon="4.554863119074932"><ele>222.5</ele><time>2026-04-28T07:32:44.999Z</time></trkpt><trkpt lat="50.362945428828674" lon="4.554791860608421"><ele>222.0</ele><time>2026-04-28T07:32:45.999Z</time></trkpt><trkpt lat="50.36282547903781" lon="4.5547187447018285"><ele>221.5</ele><time>2026-04-28T07:32:46.999Z</time></trkpt><trkpt lat="50.36270564096376" lon="4.5546421331943145"><ele>221.0</ele><time>2026-04-28T07:32:47.999Z</time></trkpt><trkpt lat="50.36258716976563" lon="4.554564686645335"><ele>220.75</ele><time>2026-04-28T07:32:48.999Z</time></trkpt><trkpt lat="50.362472435887675" lon="4.554494106464036"><ele>220.5</ele><time>2026-04-28T07:32:49.999Z</time></trkpt><trkpt lat="50.36235294064305" lon="4.554420476595437"><ele>220.25</ele><time>2026-04-28T07:32:50.999Z</time></trkpt><trkpt lat="50.362227295468436" lon="4.554335830564105"><ele>220.0</ele><time>2026-04-28T07:32:51.999Z</time></trkpt><trkpt lat="50.3620966854236" lon="4.554255588435508"><ele>219.5</ele><time>2026-04-28T07:32:52.999Z</time></trkpt><trkpt lat="50.36197462177074" lon="4.55418421488256"><ele>219.0</ele><time>2026-04-28T07:32:53.999Z</time></trkpt><trkpt lat="50.36186444983516" lon="4.554116187318995"><ele>218.5</ele><time>2026-04-28T07:32:54.999Z</time></trkpt><trkpt lat="50.36174731008071" lon="4.554041404871756"><ele>218.0</ele><time>2026-04-28T07:32:55.999Z</time></trkpt><trkpt lat="50.361637004294224" lon="4.553971192607663"><ele>218.0</ele><time>2026-04-28T07:32:56.999Z</time></trkpt><trkpt lat="50.36152862347261" lon="4.553905852779971"><ele>218.0</ele><time>2026-04-28T07:32:57.999Z</time></trkpt><trkpt lat="50.361418344644896" lon="4.553840769605202"><ele>218.0</ele><time>2026-04-28T07:32:58.999Z</time></trkpt><trkpt lat="50.36130636343367" lon="4.553764125544359"><ele>218.0</ele><time>2026-04-28T07:32:59.999Z</time></trkpt><trkpt lat="50.36117673773265" lon="4.5536891221674365"><ele>217.4</ele><time>2026-04-28T07:33:00.999Z</time></trkpt><trkpt lat="50.361057430638674" lon="4.553609892921588"><ele>216.8</ele><time>2026-04-28T07:33:01.999Z</time></trkpt><trkpt lat="50.36095592393044" lon="4.553547926062593"><ele>216.2</ele><time>2026-04-28T07:33:02.999Z</time></trkpt><trkpt lat="50.36086149476714" lon="4.55349053603696"><ele>215.6</ele><time>2026-04-28T07:33:03.999Z</time></trkpt><trkpt lat="50.36077679946226" lon="4.553437175515886"><ele>215.0</ele><time>2026-04-28T07:33:04.999Z</time></trkpt><trkpt lat="50.360696762505675" lon="4.5533861315925455"><ele>215.00000000000003</ele><time>2026-04-28T07:33:06Z</time></trkpt><trkpt lat="50.36060536242577" lon="4.553330800625389"><ele>215.0</ele><time>2026-04-28T07:33:07Z</time></trkpt><trkpt lat="50.36050988873004" lon="4.553269918229148"><ele>215.0</ele><time>2026-04-28T07:33:08Z</time></trkpt><trkpt lat="50.36043123313694" lon="4.553210985264644"><ele>215.0</ele><time>2026-04-28T07:33:09Z</time></trkpt><trkpt lat="50.36035657920328" lon="4.5531717651097265"><ele>215.00000000000003</ele><time>2026-04-28T07:33:10Z</time></trkpt><trkpt lat="50.36029440520026" lon="4.553105158056588"><ele>215.0</ele><time>2026-04-28T07:33:11Z</time></trkpt><trkpt lat="50.360206571015254" lon="4.553073335595906"><ele>215.00000000000003</ele><time>2026-04-28T07:33:12Z</time></trkpt><trkpt lat="50.36014174128284" lon="4.5529962591674105"><ele>215.0</ele><time>2026-04-28T07:33:13Z</time></trkpt><trkpt lat="50.36006982682504" lon="4.552954835165133"><ele>215.0</ele><time>2026-04-28T07:33:14Z</time></trkpt><trkpt lat="50.359997074994354" lon="4.552881645762947"><ele>215.0</ele><time>2026-04-28T07:33:15Z</time></trkpt><trkpt lat="50.359920085935755" lon="4.552835938577654"><ele>215.00000000000003</ele><time>2026-04-28T07:33:16Z</time></trkpt><trkpt lat="50.35984636510889" lon="4.55278962188214"><ele>215.0</ele><time>2026-04-28T07:33:17Z</time></trkpt><trkpt lat="50.35978641265408" lon="4.552748864823242"><ele>214.2</ele><time>2026-04-28T07:33:18Z</time></trkpt><trkpt lat="50.359689694564416" lon="4.5526811728030125"><ele>213.4</ele><time>2026-04-28T07:33:20Z</time></trkpt><trkpt lat="50.35962403281896" lon="4.552594712662846"><ele>212.60000000000002</ele><time>2026-04-28T07:33:23Z</time></trkpt><trkpt lat="50.35956579978674" lon="4.552524192624362"><ele>211.8</ele><time>2026-04-28T07:33:36Z</time></trkpt><trkpt lat="50.359465835534735" lon="4.552446002399449"><ele>211.0</ele><time>2026-04-28T07:33:38Z</time></trkpt><trkpt lat="50.35940897612252" lon="4.552369413103733"><ele>211.0</ele><time>2026-04-28T07:33:39Z</time></trkpt><trkpt lat="50.359315661523155" lon="4.552318213831446"><ele>211.0</ele><time>2026-04-28T07:33:40Z</time></trkpt><trkpt lat="50.35922217418688" lon="4.552242379234895"><ele>211.0</ele><time>2026-04-28T07:33:41Z</time></trkpt><trkpt lat="50.359122036725054" lon="4.552164485024765"><ele>211.0</ele><time>2026-04-28T07:33:42Z</time></trkpt><trkpt lat="50.35901941262839" lon="4.552081844537188"><ele>211.0</ele><time>2026-04-28T07:33:43Z</time></trkpt><trkpt lat="50.358913507906266" lon="4.5520239889884095"><ele>209.8</ele><time>2026-04-28T07:33:44Z</time></trkpt><trkpt lat="50.3588145036669" lon="4.551971332973279"><ele>208.60000000000002</ele><time>2026-04-28T07:33:45Z</time></trkpt><trkpt lat="50.35871501329367" lon="4.551928927475509"><ele>207.4</ele><time>2026-04-28T07:33:46Z</time></trkpt><trkpt lat="50.358611144597994" lon="4.551886843618879"><ele>206.2</ele><time>2026-04-28T07:33:47Z</time></trkpt><trkpt lat="50.358515244365975" lon="4.551852582141664"><ele>205.0</ele><time>2026-04-28T07:33:48Z</time></trkpt><trkpt lat="50.35842217679873" lon="4.551815905925878"><ele>205.0</ele><time>2026-04-28T07:33:49Z</time></trkpt><trkpt lat="50.35832834215925" lon="4.551771869202704"><ele>205.0</ele><time>2026-04-28T07:33:50Z</time></trkpt><trkpt lat="50.35823094235184" lon="4.551729798478279"><ele>205.0</ele><time>2026-04-28T07:33:51Z</time></trkpt><trkpt lat="50.35813534197581" lon="4.55169511917463"><ele>205.0</ele><time>2026-04-28T07:33:52Z</time></trkpt><trkpt lat="50.358044207955004" lon="4.551653748318491"><ele>205.0</ele><time>2026-04-28T07:33:53Z</time></trkpt><trkpt lat="50.35795799063884" lon="4.551614853134136"><ele>204.4</ele><time>2026-04-28T07:33:54Z</time></trkpt><trkpt lat="50.357877647991955" lon="4.55158119776758"><ele>203.8</ele><time>2026-04-28T07:33:55Z</time></trkpt><trkpt lat="50.35780159969007" lon="4.551552959548546"><ele>203.2</ele><time>2026-04-28T07:33:56Z</time></trkpt><trkpt lat="50.35772933766373" lon="4.551520934937979"><ele>202.6</ele><time>2026-04-28T07:33:57Z</time></trkpt><trkpt lat="50.35758169212004" lon="4.551450879026948"><ele>202.0</ele><time>2026-04-28T07:33:59Z</time></trkpt><trkpt lat="50.35748815732046" lon="4.5514049610758205"><ele>202.0</ele><time>2026-04-28T07:34:00Z</time></trkpt><trkpt lat="50.35738396607962" lon="4.551358232179668"><ele>202.0</ele><time>2026-04-28T07:34:01Z</time></trkpt><trkpt lat="50.357267870022326" lon="4.5513050764550655"><ele>202.0</ele><time>2026-04-28T07:34:02Z</time></trkpt><trkpt lat="50.357141171921256" lon="4.551240519883623"><ele>202.0</ele><time>2026-04-28T07:34:03Z</time></trkpt><trkpt lat="50.35702050664078" lon="4.551181565904972"><ele>201.25</ele><time>2026-04-28T07:34:04Z</time></trkpt><trkpt lat="50.35690261219988" lon="4.551125923058438"><ele>200.5</ele><time>2026-04-28T07:34:05Z</time></trkpt><trkpt lat="50.35678839003438" lon="4.5510652374239156"><ele>199.75</ele><time>2026-04-28T07:34:06Z</time></trkpt><trkpt lat="50.35667617010803" lon="4.551002074672576"><ele>199.0</ele><time>2026-04-28T07:34:07Z</time></trkpt><trkpt lat="50.35656161658416" lon="4.5509344074940685"><ele>199.0</ele><time>2026-04-28T07:34:08Z</time></trkpt><trkpt lat="50.35645964519985" lon="4.55086273595371"><ele>199.0</ele><time>2026-04-28T07:34:08.999Z</time></trkpt><trkpt lat="50.35636066301642" lon="4.55079001823927"><ele>199.0</ele><time>2026-04-28T07:34:09.999Z</time></trkpt><trkpt lat="50.35626155126161" lon="4.550711593231187"><ele>199.0</ele><time>2026-04-28T07:34:10.999Z</time></trkpt><trkpt lat="50.356160931284684" lon="4.550637905399725"><ele>199.0</ele><time>2026-04-28T07:34:11.999Z</time></trkpt><trkpt lat="50.35607499815124" lon="4.550545489426065"><ele>198.6</ele><time>2026-04-28T07:34:12.999Z</time></trkpt><trkpt lat="50.355981267828156" lon="4.550492626435114"><ele>198.2</ele><time>2026-04-28T07:34:13.999Z</time></trkpt><trkpt lat="50.35588396604328" lon="4.550419570400927"><ele>197.79999999999998</ele><time>2026-04-28T07:34:14.999Z</time></trkpt><trkpt lat="50.35579554686" lon="4.550328444238163"><ele>197.39999999999998</ele><time>2026-04-28T07:34:15.999Z</time></trkpt><trkpt lat="50.355693774894654" lon="4.550276827083293"><ele>197.0</ele><time>2026-04-28T07:34:16.999Z</time></trkpt><trkpt lat="50.35560263176098" lon="4.550175876054619"><ele>196.2</ele><time>2026-04-28T07:34:17.999Z</time></trkpt><trkpt lat="50.35549727605257" lon="4.550117651301054"><ele>195.39999999999998</ele><time>2026-04-28T07:34:18.999Z</time></trkpt><trkpt lat="50.35540945253082" lon="4.550035221473058"><ele>194.60000000000002</ele><time>2026-04-28T07:34:19.999Z</time></trkpt><trkpt lat="50.35531493385749" lon="4.54996421474204"><ele>193.8</ele><time>2026-04-28T07:34:20.999Z</time></trkpt><trkpt lat="50.35522064014359" lon="4.549888707052933"><ele>193.0</ele><time>2026-04-28T07:34:21.999Z</time></trkpt><trkpt lat="50.355131628852305" lon="4.5498228045046005"><ele>192.99999999999997</ele><time>2026-04-28T07:34:22.999Z</time></trkpt><trkpt lat="50.355052078362746" lon="4.549760262398558"><ele>193.0</ele><time>2026-04-28T07:34:23.999Z</time></trkpt><trkpt lat="50.35497304060498" lon="4.549697888801784"><ele>193.0</ele><time>2026-04-28T07:34:24.999Z</time></trkpt><trkpt lat="50.35490024617593" lon="4.549633504725864"><ele>193.0</ele><time>2026-04-28T07:34:25.999Z</time></trkpt><trkpt lat="50.354832383437724" lon="4.549570275195304"><ele>192.99999999999997</ele><time>2026-04-28T07:34:26.999Z</time></trkpt><trkpt lat="50.35476803980456" lon="4.549522106936673"><ele>193.0</ele><time>2026-04-28T07:34:27.999Z</time></trkpt><trkpt lat="50.35466715750452" lon="4.549441117318815"><ele>193.0</ele><time>2026-04-28T07:34:29.999Z</time></trkpt><trkpt lat="50.354601223939895" lon="4.549411758414517"><ele>193.0</ele><time>2026-04-28T07:34:33.999Z</time></trkpt><trkpt lat="50.354689619012255" lon="4.549447096169085"><ele>193.0</ele><time>2026-04-28T07:34:37.999Z</time></trkpt><trkpt lat="50.35478272047959" lon="4.549520671539697"><ele>193.0</ele><time>2026-04-28T07:34:39.999Z</time></trkpt><trkpt lat="50.35484657033938" lon="4.54957191009779"><ele>193.0</ele><time>2026-04-28T07:34:40.999Z</time></trkpt><trkpt lat="50.354964600133954" lon="4.549724422895484"><ele>193.0</ele><time>2026-04-28T07:34:41.999Z</time></trkpt><trkpt lat="50.35507315806494" lon="4.549793464150724"><ele>193.0</ele><time>2026-04-28T07:34:42.999Z</time></trkpt><trkpt lat="50.35517180736435" lon="4.5498803930345755"><ele>193.0</ele><time>2026-04-28T07:34:43.999Z</time></trkpt><trkpt lat="50.35528105374066" lon="4.5499663789591605"><ele>193.0</ele><time>2026-04-28T07:34:44.999Z</time></trkpt><trkpt lat="50.35539647738127" lon="4.5500532994597584"><ele>193.0</ele><time>2026-04-28T07:34:45.999Z</time></trkpt><trkpt lat="50.355500465885704" lon="4.550137320334903"><ele>193.0</ele><time>2026-04-28T07:34:46.999Z</time></trkpt><trkpt lat="50.35558591140525" lon="4.550206386640146"><ele>193.0</ele><time>2026-04-28T07:34:47.999Z</time></trkpt><trkpt lat="50.35567974226805" lon="4.550277608163857"><ele>193.0</ele><time>2026-04-28T07:34:48.999Z</time></trkpt><trkpt lat="50.355773049162856" lon="4.550357565762613"><ele>193.0</ele><time>2026-04-28T07:34:49.999Z</time></trkpt><trkpt lat="50.35587513766677" lon="4.550433409818631"><ele>193.5</ele><time>2026-04-28T07:34:50.999Z</time></trkpt><trkpt lat="50.3559777939472" lon="4.5505113238180135"><ele>194.0</ele><time>2026-04-28T07:34:51.999Z</time></trkpt><trkpt lat="50.356084117931005" lon="4.550585812821178"><ele>194.5</ele><time>2026-04-28T07:34:52.999Z</time></trkpt><trkpt lat="50.356192117020534" lon="4.550669476162873"><ele>195.0</ele><time>2026-04-28T07:34:53.999Z</time></trkpt><trkpt lat="50.356297403669174" lon="4.550753967823603"><ele>196.0</ele><time>2026-04-28T07:34:54.999Z</time></trkpt><trkpt lat="50.35640362730947" lon="4.550840364685977"><ele>197.0</ele><time>2026-04-28T07:34:55.999Z</time></trkpt><trkpt lat="50.35651214570078" lon="4.5509193631472655"><ele>198.0</ele><time>2026-04-28T07:34:56.999Z</time></trkpt><trkpt lat="50.356618165092286" lon="4.55098492200491"><ele>199.0</ele><time>2026-04-28T07:34:57.999Z</time></trkpt><trkpt lat="50.356722721336034" lon="4.551043835236146"><ele>199.0</ele><time>2026-04-28T07:34:58.999Z</time></trkpt><trkpt lat="50.356824732973955" lon="4.551098335160763"><ele>199.0</ele><time>2026-04-28T07:34:59.999Z</time></trkpt><trkpt lat="50.3569321550593" lon="4.55115388273087"><ele>199.0</ele><time>2026-04-28T07:35:00.999Z</time></trkpt><trkpt lat="50.35705165112899" lon="4.551221703579913"><ele>199.0</ele><time>2026-04-28T07:35:01.999Z</time></trkpt><trkpt lat="50.35717379012447" lon="4.5512828509682715"><ele>199.75</ele><time>2026-04-28T07:35:02.999Z</time></trkpt><trkpt lat="50.357287518581266" lon="4.551340361315397"><ele>200.5</ele><time>2026-04-28T07:35:03.999Z</time></trkpt><trkpt lat="50.35739377600334" lon="4.551392124296561"><ele>201.25</ele><time>2026-04-28T07:35:04.999Z</time></trkpt><trkpt lat="50.3574982716141" lon="4.551442802526322"><ele>202.0</ele><time>2026-04-28T07:35:05.999Z</time></trkpt><trkpt lat="50.35760792853953" lon="4.551519629170549"><ele>202.0</ele><time>2026-04-28T07:35:06.999Z</time></trkpt><trkpt lat="50.35773362874503" lon="4.551584286038767"><ele>202.0</ele><time>2026-04-28T07:35:07.999Z</time></trkpt><trkpt lat="50.357854620539584" lon="4.551634108371733"><ele>202.0</ele><time>2026-04-28T07:35:08.999Z</time></trkpt><trkpt lat="50.358019044288675" lon="4.551679642589631"><ele>202.0</ele><time>2026-04-28T07:35:09.999Z</time></trkpt><trkpt lat="50.35813627078871" lon="4.551728493673505"><ele>202.6</ele><time>2026-04-28T07:35:10.999Z</time></trkpt><trkpt lat="50.358239689648705" lon="4.551774568949355"><ele>203.2</ele><time>2026-04-28T07:35:12Z</time></trkpt><trkpt lat="50.35834449550409" lon="4.551820163565012"><ele>203.8</ele><time>2026-04-28T07:35:13Z</time></trkpt><trkpt lat="50.35843907491188" lon="4.551856565796086"><ele>204.4</ele><time>2026-04-28T07:35:14Z</time></trkpt><trkpt lat="50.35852936287138" lon="4.551890060568948"><ele>205.0</ele><time>2026-04-28T07:35:15Z</time></trkpt><trkpt lat="50.358621495007746" lon="4.5519227692505355"><ele>205.0</ele><time>2026-04-28T07:35:16Z</time></trkpt><trkpt lat="50.358713431664654" lon="4.5519586005597"><ele>205.0</ele><time>2026-04-28T07:35:17Z</time></trkpt><trkpt lat="50.358795165085326" lon="4.551987908576082"><ele>205.0</ele><time>2026-04-28T07:35:18Z</time></trkpt><trkpt lat="50.35887680886811" lon="4.552019737181683"><ele>205.0</ele><time>2026-04-28T07:35:19Z</time></trkpt><trkpt lat="50.358960765530234" lon="4.552092973126906"><ele>205.0</ele><time>2026-04-28T07:35:20Z</time></trkpt><trkpt lat="50.359060267116185" lon="4.552154855436365"><ele>206.2</ele><time>2026-04-28T07:35:21Z</time></trkpt><trkpt lat="50.359163315879606" lon="4.5522321629471065"><ele>207.4</ele><time>2026-04-28T07:35:22Z</time></trkpt><trkpt lat="50.35926478296008" lon="4.552309807823405"><ele>208.60000000000002</ele><time>2026-04-28T07:35:23Z</time></trkpt><trkpt lat="50.35934511275986" lon="4.552378730607113"><ele>209.8</ele><time>2026-04-28T07:35:24Z</time></trkpt><trkpt lat="50.359401528935486" lon="4.5524314494932865"><ele>211.0</ele><time>2026-04-28T07:35:25Z</time></trkpt><trkpt lat="50.3594858166528" lon="4.552496270174524"><ele>211.0</ele><time>2026-04-28T07:35:27Z</time></trkpt><trkpt lat="50.35952268909377" lon="4.552577427543759"><ele>211.0</ele><time>2026-04-28T07:35:30Z</time></trkpt><trkpt lat="50.359626052030016" lon="4.5526853058655306"><ele>211.0</ele><time>2026-04-28T07:35:32Z</time></trkpt><trkpt lat="50.359716693122664" lon="4.552747283208395"><ele>211.0</ele><time>2026-04-28T07:35:33Z</time></trkpt><trkpt lat="50.35981083998053" lon="4.552821961439214"><ele>211.0</ele><time>2026-04-28T07:35:34Z</time></trkpt><trkpt lat="50.359922688705524" lon="4.552902165521336"><ele>212.0</ele><time>2026-04-28T07:35:35Z</time></trkpt><trkpt lat="50.360030589981946" lon="4.552970903937262"><ele>213.0</ele><time>2026-04-28T07:35:36Z</time></trkpt><trkpt lat="50.36013870378878" lon="4.553039904240882"><ele>214.0</ele><time>2026-04-28T07:35:37Z</time></trkpt><trkpt lat="50.360257043358494" lon="4.553114406374663"><ele>215.0</ele><time>2026-04-28T07:35:38Z</time></trkpt><trkpt lat="50.36037722536073" lon="4.553199070918187"><ele>215.0</ele><time>2026-04-28T07:35:39Z</time></trkpt><trkpt lat="50.360492137910555" lon="4.553283262188777"><ele>215.0</ele><time>2026-04-28T07:35:40Z</time></trkpt><trkpt lat="50.360621367891596" lon="4.553371452004642"><ele>215.0</ele><time>2026-04-28T07:35:41Z</time></trkpt><trkpt lat="50.360743736710674" lon="4.553446626277053"><ele>215.0</ele><time>2026-04-28T07:35:42Z</time></trkpt><trkpt lat="50.360852420276146" lon="4.553518671247782"><ele>215.0</ele><time>2026-04-28T07:35:43Z</time></trkpt><trkpt lat="50.360967542365344" lon="4.5535960001287545"><ele>215.0</ele><time>2026-04-28T07:35:44Z</time></trkpt><trkpt lat="50.36107591386059" lon="4.553664304174996"><ele>215.0</ele><time>2026-04-28T07:35:45Z</time></trkpt><trkpt lat="50.361188800521006" lon="4.553735889767312"><ele>215.0</ele><time>2026-04-28T07:35:46Z</time></trkpt><trkpt lat="50.36129380836151" lon="4.55380219989322"><ele>215.6</ele><time>2026-04-28T07:35:47Z</time></trkpt><trkpt lat="50.361398088399" lon="4.553864412079352"><ele>216.2</ele><time>2026-04-28T07:35:48Z</time></trkpt><trkpt lat="50.36149817362303" lon="4.553927693011354"><ele>216.8</ele><time>2026-04-28T07:35:49Z</time></trkpt><trkpt lat="50.361607668608265" lon="4.553990284104965"><ele>217.4</ele><time>2026-04-28T07:35:50Z</time></trkpt><trkpt lat="50.36171026059916" lon="4.554065674008067"><ele>218.0</ele><time>2026-04-28T07:35:51Z</time></trkpt><trkpt lat="50.36182825504422" lon="4.554138535335846"><ele>218.0</ele><time>2026-04-28T07:35:52Z</time></trkpt><trkpt lat="50.361945222224065" lon="4.554213054879965"><ele>218.0</ele><time>2026-04-28T07:35:53Z</time></trkpt><trkpt lat="50.36206441212791" lon="4.554290479736951"><ele>218.0</ele><time>2026-04-28T07:35:54Z</time></trkpt><trkpt lat="50.36218588169478" lon="4.554363651600501"><ele>218.0</ele><time>2026-04-28T07:35:55Z</time></trkpt><trkpt lat="50.362306713286074" lon="4.554434525625138"><ele>218.5</ele><time>2026-04-28T07:35:56Z</time></trkpt><trkpt lat="50.36242604560875" lon="4.554513835899518"><ele>219.0</ele><time>2026-04-28T07:35:57Z</time></trkpt><trkpt lat="50.36255831616713" lon="4.5545901685574295"><ele>219.5</ele><time>2026-04-28T07:35:58Z</time></trkpt><trkpt lat="50.362684577138126" lon="4.554670264644788"><ele>220.0</ele><time>2026-04-28T07:35:59Z</time></trkpt><trkpt lat="50.362815053215265" lon="4.554754758471334"><ele>220.25</ele><time>2026-04-28T07:36:00Z</time></trkpt><trkpt lat="50.36293351851614" lon="4.554836675573609"><ele>220.5</ele><time>2026-04-28T07:36:01Z</time></trkpt><trkpt lat="50.363056489551546" lon="4.554915808503255"><ele>220.75</ele><time>2026-04-28T07:36:02Z</time></trkpt><trkpt lat="50.36317162659318" lon="4.554991217540199"><ele>221.0</ele><time>2026-04-28T07:36:03Z</time></trkpt><trkpt lat="50.363292740894096" lon="4.55505659851937"><ele>221.4</ele><time>2026-04-28T07:36:04Z</time></trkpt><trkpt lat="50.36340439354625" lon="4.555123667527304"><ele>221.8</ele><time>2026-04-28T07:36:05Z</time></trkpt><trkpt lat="50.36351063370831" lon="4.555195053455663"><ele>222.20000000000002</ele><time>2026-04-28T07:36:06Z</time></trkpt><trkpt lat="50.363602551488164" lon="4.555252801545659"><ele>222.60000000000002</ele><time>2026-04-28T07:36:07Z</time></trkpt><trkpt lat="50.36368667221908" lon="4.555290957899666"><ele>223.0</ele><time>2026-04-28T07:36:08Z</time></trkpt><trkpt lat="50.36378378314082" lon="4.555317995113542"><ele>223.0</ele><time>2026-04-28T07:36:09Z</time></trkpt><trkpt lat="50.36388624732932" lon="4.555326837901571"><ele>223.0</ele><time>2026-04-28T07:36:10Z</time></trkpt><trkpt lat="50.36399141416367" lon="4.555312246383531"><ele>223.0</ele><time>2026-04-28T07:36:11Z</time></trkpt><trkpt lat="50.36410993925167" lon="4.555284172994904"><ele>223.0</ele><time>2026-04-28T07:36:12Z</time></trkpt><trkpt lat="50.36424099745608" lon="4.555258040109129"><ele>223.0</ele><time>2026-04-28T07:36:13Z</time></trkpt><trkpt lat="50.36435659316697" lon="4.5552297463491165"><ele>223.0</ele><time>2026-04-28T07:36:14Z</time></trkpt><trkpt lat="50.3644822297092" lon="4.555205155815363"><ele>223.0</ele><time>2026-04-28T07:36:15Z</time></trkpt><trkpt lat="50.36461206042131" lon="4.5551821737262745"><ele>223.0</ele><time>2026-04-28T07:36:16Z</time></trkpt><trkpt lat="50.36473841939484" lon="4.555159486194793"><ele>222.25</ele><time>2026-04-28T07:36:16.999Z</time></trkpt><trkpt lat="50.36486780675141" lon="4.555140707219771"><ele>221.5</ele><time>2026-04-28T07:36:17.999Z</time></trkpt><trkpt lat="50.36498914504409" lon="4.555135650616127"><ele>220.75</ele><time>2026-04-28T07:36:18.999Z</time></trkpt><trkpt lat="50.365108582298575" lon="4.555114690978591"><ele>220.0</ele><time>2026-04-28T07:36:19.999Z</time></trkpt><trkpt lat="50.36523732894927" lon="4.555078327813729"><ele>220.0</ele><time>2026-04-28T07:36:20.999Z</time></trkpt><trkpt lat="50.36537085299196" lon="4.555062023463304"><ele>220.0</ele><time>2026-04-28T07:36:21.999Z</time></trkpt><trkpt lat="50.36550961041782" lon="4.555035010401085"><ele>220.0</ele><time>2026-04-28T07:36:22.999Z</time></trkpt><trkpt lat="50.365643190682476" lon="4.555008937287564"><ele>220.0</ele><time>2026-04-28T07:36:23.999Z</time></trkpt><trkpt lat="50.3657780542471" lon="4.554978880671539"><ele>220.0</ele><time>2026-04-28T07:36:24.999Z</time></trkpt><trkpt lat="50.36591444040837" lon="4.554950100196971"><ele>220.0</ele><time>2026-04-28T07:36:25.999Z</time></trkpt><trkpt lat="50.3660509296357" lon="4.554922071133598"><ele>220.0</ele><time>2026-04-28T07:36:26.999Z</time></trkpt><trkpt lat="50.36619429476599" lon="4.55490583208115"><ele>220.0</ele><time>2026-04-28T07:36:27.999Z</time></trkpt><trkpt lat="50.36632574583793" lon="4.554890975522085"><ele>219.5</ele><time>2026-04-28T07:36:28.999Z</time></trkpt><trkpt lat="50.366451160638945" lon="4.554869688386034"><ele>219.0</ele><time>2026-04-28T07:36:29.999Z</time></trkpt><trkpt lat="50.36657223527085" lon="4.554844521947804"><ele>218.5</ele><time>2026-04-28T07:36:30.999Z</time></trkpt><trkpt lat="50.366693183797445" lon="4.554821538815071"><ele>218.0</ele><time>2026-04-28T07:36:31.999Z</time></trkpt><trkpt lat="50.36681526036398" lon="4.554797559652839"><ele>218.0</ele><time>2026-04-28T07:36:32.999Z</time></trkpt><trkpt lat="50.366936216715395" lon="4.554776206293449"><ele>218.0</ele><time>2026-04-28T07:36:33.999Z</time></trkpt><trkpt lat="50.367042419969216" lon="4.554745174725775"><ele>218.0</ele><time>2026-04-28T07:36:34.999Z</time></trkpt><trkpt lat="50.36715061298623" lon="4.554744212516944"><ele>218.0</ele><time>2026-04-28T07:36:35.999Z</time></trkpt><trkpt lat="50.3672450353893" lon="4.55470424214344"><ele>218.0</ele><time>2026-04-28T07:36:36.999Z</time></trkpt><trkpt lat="50.36733779954136" lon="4.554712687409371"><ele>218.85714285714286</ele><time>2026-04-28T07:36:37.999Z</time></trkpt><trkpt lat="50.36741652384763" lon="4.554705720096087"><ele>219.71428571428572</ele><time>2026-04-28T07:36:38.999Z</time></trkpt><trkpt lat="50.367489329985865" lon="4.554684715619477"><ele>220.57142857142856</ele><time>2026-04-28T07:36:39.999Z</time></trkpt><trkpt lat="50.36755476051267" lon="4.554659052730459"><ele>221.42857142857144</ele><time>2026-04-28T07:36:40.999Z</time></trkpt><trkpt lat="50.36762130809276" lon="4.554650153295007"><ele>222.28571428571428</ele><time>2026-04-28T07:36:41.999Z</time></trkpt><trkpt lat="50.367694864600985" lon="4.5546404606584225"><ele>223.14285714285714</ele><time>2026-04-28T07:36:42.999Z</time></trkpt><trkpt lat="50.36777478391655" lon="4.554629283051927"><ele>224.0</ele><time>2026-04-28T07:36:43.999Z</time></trkpt><trkpt lat="50.36786822357768" lon="4.554636658942754"><ele>224.0</ele><time>2026-04-28T07:36:44.999Z</time></trkpt><trkpt lat="50.36798346427237" lon="4.554586309122006"><ele>224.0</ele><time>2026-04-28T07:36:45.999Z</time></trkpt><trkpt lat="50.368120281437065" lon="4.554569877547995"><ele>224.0</ele><time>2026-04-28T07:36:46.999Z</time></trkpt><trkpt lat="50.368260951396884" lon="4.554540784974389"><ele>224.0</ele><time>2026-04-28T07:36:47.999Z</time></trkpt><trkpt lat="50.36841556210079" lon="4.554513495998753"><ele>223.66666666666669</ele><time>2026-04-28T07:36:48.999Z</time></trkpt><trkpt lat="50.36857784352102" lon="4.554487754688297"><ele>223.33333333333331</ele><time>2026-04-28T07:36:49.999Z</time></trkpt><trkpt lat="50.36873670842527" lon="4.55446074457098"><ele>223.0</ele><time>2026-04-28T07:36:50.999Z</time></trkpt><trkpt lat="50.36887370471049" lon="4.554425859498036"><ele>223.0</ele><time>2026-04-28T07:36:51.999Z</time></trkpt><trkpt lat="50.369000693492374" lon="4.554397695111221"><ele>223.0</ele><time>2026-04-28T07:36:52.999Z</time></trkpt><trkpt lat="50.36911703594767" lon="4.5543903365793295"><ele>223.0</ele><time>2026-04-28T07:36:53.999Z</time></trkpt><trkpt lat="50.36922635488788" lon="4.55436960371147"><ele>223.0</ele><time>2026-04-28T07:36:54.999Z</time></trkpt><trkpt lat="50.36932892496961" lon="4.5543511142998865"><ele>223.0</ele><time>2026-04-28T07:36:55.999Z</time></trkpt><trkpt lat="50.36943248712277" lon="4.554333022425604"><ele>223.0</ele><time>2026-04-28T07:36:56.999Z</time></trkpt><trkpt lat="50.369550482850066" lon="4.554307344446274"><ele>223.0</ele><time>2026-04-28T07:36:57.999Z</time></trkpt><trkpt lat="50.369683444508325" lon="4.554294330551337"><ele>223.0</ele><time>2026-04-28T07:36:58.999Z</time></trkpt><trkpt lat="50.36983494194923" lon="4.554290492562571"><ele>222.0</ele><time>2026-04-28T07:36:59.999Z</time></trkpt><trkpt lat="50.3699952655761" lon="4.55427658905376"><ele>221.0</ele><time>2026-04-28T07:37:00.999Z</time></trkpt><trkpt lat="50.37016105752802" lon="4.55428098742367"><ele>220.0</ele><time>2026-04-28T07:37:01.999Z</time></trkpt><trkpt lat="50.37032383694039" lon="4.554305641221119"><ele>220.0</ele><time>2026-04-28T07:37:02.999Z</time></trkpt><trkpt lat="50.37047500763996" lon="4.554347643327267"><ele>220.0</ele><time>2026-04-28T07:37:03.999Z</time></trkpt><trkpt lat="50.37060183783245" lon="4.554372054314582"><ele>220.0</ele><time>2026-04-28T07:37:04.999Z</time></trkpt><trkpt lat="50.370728774730104" lon="4.554395733712818"><ele>220.0</ele><time>2026-04-28T07:37:05.999Z</time></trkpt><trkpt lat="50.370852611833854" lon="4.554438971201996"><ele>219.5</ele><time>2026-04-28T07:37:06.999Z</time></trkpt><trkpt lat="50.37099107061143" lon="4.554453268008247"><ele>219.0</ele><time>2026-04-28T07:37:07.999Z</time></trkpt><trkpt lat="50.37111554784962" lon="4.55447321524836"><ele>218.5</ele><time>2026-04-28T07:37:08.999Z</time></trkpt><trkpt lat="50.371242827640394" lon="4.554500275900864"><ele>218.0</ele><time>2026-04-28T07:37:09.999Z</time></trkpt><trkpt lat="50.371371747723444" lon="4.554523016414004"><ele>217.66666666666669</ele><time>2026-04-28T07:37:10.999Z</time></trkpt><trkpt lat="50.37150335587167" lon="4.554567475643563"><ele>217.33333333333331</ele><time>2026-04-28T07:37:11.999Z</time></trkpt><trkpt lat="50.37166336006918" lon="4.554589686271944"><ele>217.0</ele><time>2026-04-28T07:37:12.999Z</time></trkpt><trkpt lat="50.37182709198501" lon="4.554620968837315"><ele>217.0</ele><time>2026-04-28T07:37:13.999Z</time></trkpt><trkpt lat="50.3720010872301" lon="4.554651282002714"><ele>217.0</ele><time>2026-04-28T07:37:14.999Z</time></trkpt><trkpt lat="50.372180303268856" lon="4.554692339681369"><ele>217.0</ele><time>2026-04-28T07:37:15.999Z</time></trkpt><trkpt lat="50.37235360858118" lon="4.554791355475918"><ele>217.33333333333331</ele><time>2026-04-28T07:37:16.999Z</time></trkpt><trkpt lat="50.372534093177315" lon="4.554848385878184"><ele>217.66666666666669</ele><time>2026-04-28T07:37:18Z</time></trkpt><trkpt lat="50.37271131639832" lon="4.5549471013479454"><ele>218.0</ele><time>2026-04-28T07:37:19Z</time></trkpt><trkpt lat="50.37288444566543" lon="4.555045618404901"><ele>217.66666666666669</ele><time>2026-04-28T07:37:20Z</time></trkpt><trkpt lat="50.37307076628347" lon="4.5551182596243205"><ele>217.33333333333331</ele><time>2026-04-28T07:37:21Z</time></trkpt><trkpt lat="50.3732497534582" lon="4.555202556349305"><ele>217.0</ele><time>2026-04-28T07:37:22Z</time></trkpt><trkpt lat="50.37341612851648" lon="4.5552760438470274"><ele>217.0</ele><time>2026-04-28T07:37:23Z</time></trkpt><trkpt lat="50.37355461319522" lon="4.555337528929533"><ele>217.0</ele><time>2026-04-28T07:37:24Z</time></trkpt><trkpt lat="50.373676846089886" lon="4.5553872487207325"><ele>217.0</ele><time>2026-04-28T07:37:25Z</time></trkpt><trkpt lat="50.37379772891879" lon="4.555438098307065"><ele>217.0</ele><time>2026-04-28T07:37:26Z</time></trkpt><trkpt lat="50.37392011918183" lon="4.555514070319381"><ele>216.0</ele><time>2026-04-28T07:37:27Z</time></trkpt><trkpt lat="50.37405674386467" lon="4.555570751607957"><ele>215.0</ele><time>2026-04-28T07:37:28Z</time></trkpt><trkpt lat="50.37418622049009" lon="4.555632568123457"><ele>214.0</ele><time>2026-04-28T07:37:29Z</time></trkpt><trkpt lat="50.37429974246506" lon="4.55570255392709"><ele>213.0</ele><time>2026-04-28T07:37:30Z</time></trkpt><trkpt lat="50.37442808019466" lon="4.555766472138127"><ele>213.0</ele><time>2026-04-28T07:37:31Z</time></trkpt><trkpt lat="50.37451778185093" lon="4.555819365720915"><ele>213.0</ele><time>2026-04-28T07:37:32Z</time></trkpt><trkpt lat="50.37468412033412" lon="4.555882413223815"><ele>213.0</ele><time>2026-04-28T07:37:33Z</time></trkpt><trkpt lat="50.374801822663535" lon="4.555923705989205"><ele>213.0</ele><time>2026-04-28T07:37:34Z</time></trkpt><trkpt lat="50.37491194090736" lon="4.555974337254322"><ele>213.25</ele><time>2026-04-28T07:37:35Z</time></trkpt><trkpt lat="50.375037478849656" lon="4.556037538342542"><ele>213.5</ele><time>2026-04-28T07:37:36Z</time></trkpt><trkpt lat="50.37516435821919" lon="4.556099363698702"><ele>213.75</ele><time>2026-04-28T07:37:37Z</time></trkpt><trkpt lat="50.375297674654796" lon="4.55616776837235"><ele>214.0</ele><time>2026-04-28T07:37:38Z</time></trkpt><trkpt lat="50.37542467566346" lon="4.556219104499671"><ele>213.0</ele><time>2026-04-28T07:37:39Z</time></trkpt><trkpt lat="50.375550121187274" lon="4.5562816393358"><ele>212.0</ele><time>2026-04-28T07:37:40Z</time></trkpt><trkpt lat="50.37568318540583" lon="4.556341339297564"><ele>211.0</ele><time>2026-04-28T07:37:41Z</time></trkpt><trkpt lat="50.37582788775242" lon="4.556411257760189"><ele>210.0</ele><time>2026-04-28T07:37:42Z</time></trkpt><trkpt lat="50.37599148832854" lon="4.556489556399114"><ele>210.0</ele><time>2026-04-28T07:37:43Z</time></trkpt><trkpt lat="50.3761587611297" lon="4.556547414679272"><ele>210.0</ele><time>2026-04-28T07:37:44Z</time></trkpt><trkpt lat="50.37632446233395" lon="4.556603275551733"><ele>210.0</ele><time>2026-04-28T07:37:45Z</time></trkpt><trkpt lat="50.37647499037558" lon="4.556659639497644"><ele>210.0</ele><time>2026-04-28T07:37:46Z</time></trkpt><trkpt lat="50.37661898275157" lon="4.556682489144718"><ele>210.0</ele><time>2026-04-28T07:37:47Z</time></trkpt><trkpt lat="50.376753520996" lon="4.5567013597140535"><ele>210.0</ele><time>2026-04-28T07:37:48Z</time></trkpt><trkpt lat="50.37685665375741" lon="4.55674328060425"><ele>210.0</ele><time>2026-04-28T07:37:49Z</time></trkpt><trkpt lat="50.3769870059206" lon="4.556783288482144"><ele>210.0</ele><time>2026-04-28T07:37:50Z</time></trkpt><trkpt lat="50.37712185147089" lon="4.556816796698282"><ele>210.0</ele><time>2026-04-28T07:37:51Z</time></trkpt><trkpt lat="50.3772577822665" lon="4.556845036572479"><ele>210.0</ele><time>2026-04-28T07:37:52Z</time></trkpt><trkpt lat="50.3773945861131" lon="4.556877820922484"><ele>210.0</ele><time>2026-04-28T07:37:53Z</time></trkpt><trkpt lat="50.3775308959057" lon="4.556915614102303"><ele>210.66666666666669</ele><time>2026-04-28T07:37:54Z</time></trkpt><trkpt lat="50.37765878736657" lon="4.556979630897224"><ele>211.33333333333334</ele><time>2026-04-28T07:37:55Z</time></trkpt><trkpt lat="50.37782620755578" lon="4.557053048740383"><ele>212.0</ele><time>2026-04-28T07:37:56Z</time></trkpt><trkpt lat="50.377982266235044" lon="4.55713795132688"><ele>212.0</ele><time>2026-04-28T07:37:57Z</time></trkpt><trkpt lat="50.37813080077803" lon="4.5572419062687235"><ele>212.0</ele><time>2026-04-28T07:37:58Z</time></trkpt><trkpt lat="50.37829007712684" lon="4.55734503876027"><ele>212.0</ele><time>2026-04-28T07:37:59Z</time></trkpt><trkpt lat="50.37843774239586" lon="4.557447445520845"><ele>212.0</ele><time>2026-04-28T07:38:00Z</time></trkpt><trkpt lat="50.37857028023584" lon="4.557529390271133"><ele>212.0</ele><time>2026-04-28T07:38:01Z</time></trkpt><trkpt lat="50.37868673528542" lon="4.5576100410987435"><ele>212.0</ele><time>2026-04-28T07:38:02Z</time></trkpt><trkpt lat="50.37879398790301" lon="4.557675414774282"><ele>212.0</ele><time>2026-04-28T07:38:03Z</time></trkpt><trkpt lat="50.37889574903743" lon="4.557734911720624"><ele>211.75</ele><time>2026-04-28T07:38:04Z</time></trkpt><trkpt lat="50.37900803894128" lon="4.557806723341348"><ele>211.5</ele><time>2026-04-28T07:38:05Z</time></trkpt><trkpt lat="50.379117482040336" lon="4.557869128725439"><ele>211.25</ele><time>2026-04-28T07:38:06Z</time></trkpt><trkpt lat="50.37923306729166" lon="4.557961547787978"><ele>211.0</ele><time>2026-04-28T07:38:07Z</time></trkpt><trkpt lat="50.37935258693085" lon="4.558039494839255"><ele>211.0</ele><time>2026-04-28T07:38:08Z</time></trkpt><trkpt lat="50.37947241070947" lon="4.558124160277032"><ele>211.0</ele><time>2026-04-28T07:38:09Z</time></trkpt><trkpt lat="50.37959825295869" lon="4.5582133999210175"><ele>211.0</ele><time>2026-04-28T07:38:10Z</time></trkpt><trkpt lat="50.379737744797985" lon="4.5583057796439315"><ele>211.0</ele><time>2026-04-28T07:38:11Z</time></trkpt><trkpt lat="50.37987034229068" lon="4.558389787604723"><ele>210.75</ele><time>2026-04-28T07:38:12Z</time></trkpt><trkpt lat="50.3799783271646" lon="4.558466457832018"><ele>210.5</ele><time>2026-04-28T07:38:12.999Z</time></trkpt><trkpt lat="50.380121031344466" lon="4.558552100845019"><ele>210.25</ele><time>2026-04-28T07:38:13.999Z</time></trkpt><trkpt lat="50.38024933195301" lon="4.55864026270868"><ele>210.0</ele><time>2026-04-28T07:38:14.999Z</time></trkpt><trkpt lat="50.3803815647227" lon="4.55872598369089"><ele>209.66666666666669</ele><time>2026-04-28T07:38:15.999Z</time></trkpt><trkpt lat="50.38052551668864" lon="4.5588161665065705"><ele>209.33333333333334</ele><time>2026-04-28T07:38:16.999Z</time></trkpt><trkpt lat="50.38067383626835" lon="4.558913857470628"><ele>209.0</ele><time>2026-04-28T07:38:17.999Z</time></trkpt><trkpt lat="50.38082511362553" lon="4.559004956607904"><ele>209.0</ele><time>2026-04-28T07:38:18.999Z</time></trkpt><trkpt lat="50.38096403931362" lon="4.55912785088069"><ele>209.0</ele><time>2026-04-28T07:38:19.999Z</time></trkpt><trkpt lat="50.3810910641182" lon="4.559262057305478"><ele>209.0</ele><time>2026-04-28T07:38:20.999Z</time></trkpt><trkpt lat="50.38121488232033" lon="4.559432798716457"><ele>208.66666666666669</ele><time>2026-04-28T07:38:21.999Z</time></trkpt><trkpt lat="50.38134176716693" lon="4.559626027995601"><ele>208.33333333333331</ele><time>2026-04-28T07:38:22.999Z</time></trkpt><trkpt lat="50.38146847334487" lon="4.559817068961016"><ele>208.0</ele><time>2026-04-28T07:38:23.999Z</time></trkpt><trkpt lat="50.38157518511579" lon="4.559987132100763"><ele>207.0</ele><time>2026-04-28T07:38:24.999Z</time></trkpt><trkpt lat="50.381652521340435" lon="4.560136368938163"><ele>206.0</ele><time>2026-04-28T07:38:25.999Z</time></trkpt><trkpt lat="50.38173237871816" lon="4.560263257418718"><ele>205.0</ele><time>2026-04-28T07:38:26.999Z</time></trkpt><trkpt lat="50.381824124488666" lon="4.560378269914599"><ele>204.0</ele><time>2026-04-28T07:38:27.999Z</time></trkpt><trkpt lat="50.381909703096824" lon="4.560451645066886"><ele>203.16666666666666</ele><time>2026-04-28T07:38:28.999Z</time></trkpt><trkpt lat="50.38199725532341" lon="4.56050351703491"><ele>202.33333333333331</ele><time>2026-04-28T07:38:29.999Z</time></trkpt><trkpt lat="50.382079928378914" lon="4.560523012919003"><ele>201.5</ele><time>2026-04-28T07:38:30.999Z</time></trkpt><trkpt lat="50.38216481037324" lon="4.56053570224686"><ele>200.66666666666666</ele><time>2026-04-28T07:38:31.999Z</time></trkpt><trkpt lat="50.38224435969501" lon="4.560537483083771"><ele>199.83333333333331</ele><time>2026-04-28T07:38:32.999Z</time></trkpt><trkpt lat="50.38231175400077" lon="4.560534124774627"><ele>199.0</ele><time>2026-04-28T07:38:33.999Z</time></trkpt><trkpt lat="50.382409608356554" lon="4.560527399624836"><ele>198.33333333333331</ele><time>2026-04-28T07:38:35.999Z</time></trkpt><trkpt lat="50.382486854945576" lon="4.560533398851615"><ele>197.66666666666666</ele><time>2026-04-28T07:38:37.999Z</time></trkpt><trkpt lat="50.38255814635975" lon="4.560545166519718"><ele>197.0</ele><time>2026-04-28T07:38:39.999Z</time></trkpt><trkpt lat="50.382591133414145" lon="4.560410186941166"><ele>196.33333333333331</ele><time>2026-04-28T07:38:40.999Z</time></trkpt><trkpt lat="50.38261087305606" lon="4.560302829106794"><ele>195.66666666666666</ele><time>2026-04-28T07:38:41.999Z</time></trkpt><trkpt lat="50.38262295707742" lon="4.5601803253515545"><ele>195.0</ele><time>2026-04-28T07:38:42.999Z</time></trkpt><trkpt lat="50.38264333280313" lon="4.560043021279717"><ele>195.0</ele><time>2026-04-28T07:38:43.999Z</time></trkpt><trkpt lat="50.38266959801175" lon="4.559892189383164"><ele>195.0</ele><time>2026-04-28T07:38:44.999Z</time></trkpt><trkpt lat="50.38269701390472" lon="4.559719419594416"><ele>195.0</ele><time>2026-04-28T07:38:45.999Z</time></trkpt><trkpt lat="50.382730279192465" lon="4.559547458227155"><ele>195.0</ele><time>2026-04-28T07:38:46.999Z</time></trkpt><trkpt lat="50.382753740451314" lon="4.559353630324564"><ele>195.0</ele><time>2026-04-28T07:38:47.999Z</time></trkpt><trkpt lat="50.3827746170554" lon="4.559154299275664"><ele>195.0</ele><time>2026-04-28T07:38:48.999Z</time></trkpt><trkpt lat="50.38277446205347" lon="4.5589746494997625"><ele>195.0</ele><time>2026-04-28T07:38:49.999Z</time></trkpt><trkpt lat="50.382767154020456" lon="4.558803928272317"><ele>195.0</ele><time>2026-04-28T07:38:50.999Z</time></trkpt><trkpt lat="50.38276002405895" lon="4.558640325633831"><ele>195.2</ele><time>2026-04-28T07:38:51.999Z</time></trkpt><trkpt lat="50.38274722618838" lon="4.558484226072854"><ele>195.4</ele><time>2026-04-28T07:38:52.999Z</time></trkpt><trkpt lat="50.38273912257745" lon="4.55832628920743"><ele>195.60000000000002</ele><time>2026-04-28T07:38:53.999Z</time></trkpt><trkpt lat="50.38274528180642" lon="4.5581656794327525"><ele>195.8</ele><time>2026-04-28T07:38:54.999Z</time></trkpt><trkpt lat="50.382770493961246" lon="4.557992904192914"><ele>196.0</ele><time>2026-04-28T07:38:55.999Z</time></trkpt><trkpt lat="50.382816534674426" lon="4.557801257602219"><ele>195.5</ele><time>2026-04-28T07:38:56.999Z</time></trkpt><trkpt lat="50.38287003243818" lon="4.557597599382768"><ele>195.0</ele><time>2026-04-28T07:38:57.999Z</time></trkpt><trkpt lat="50.38293130327336" lon="4.557385163967119"><ele>194.5</ele><time>2026-04-28T07:38:58.999Z</time></trkpt><trkpt lat="50.38298284612458" lon="4.557177151002602"><ele>194.0</ele><time>2026-04-28T07:38:59.999Z</time></trkpt><trkpt lat="50.38303291740561" lon="4.556978843269712"><ele>190.5</ele><time>2026-04-28T07:39:00.999Z</time></trkpt><trkpt lat="50.38307696646019" lon="4.556798585203014"><ele>187.0</ele><time>2026-04-28T07:39:01.999Z</time></trkpt><trkpt lat="50.383121699274156" lon="4.556629729232103"><ele>183.5</ele><time>2026-04-28T07:39:02.999Z</time></trkpt><trkpt lat="50.3831675663921" lon="4.556463032073117"><ele>180.0</ele><time>2026-04-28T07:39:03.999Z</time></trkpt><trkpt lat="50.3832100785581" lon="4.556301571034995"><ele>179.33333333333334</ele><time>2026-04-28T07:39:04.999Z</time></trkpt><trkpt lat="50.38324774083703" lon="4.556155302232724"><ele>178.66666666666666</ele><time>2026-04-28T07:39:05.999Z</time></trkpt><trkpt lat="50.3832799255558" lon="4.556019117881284"><ele>178.0</ele><time>2026-04-28T07:39:06.999Z</time></trkpt><trkpt lat="50.38330903668154" lon="4.5558986416633696"><ele>177.33333333333331</ele><time>2026-04-28T07:39:07.999Z</time></trkpt><trkpt lat="50.38334609639899" lon="4.555789254046482"><ele>176.66666666666666</ele><time>2026-04-28T07:39:08.999Z</time></trkpt><trkpt lat="50.38339452759213" lon="4.555704025087994"><ele>176.0</ele><time>2026-04-28T07:39:09.999Z</time></trkpt><trkpt lat="50.38346459718304" lon="4.555647336152035"><ele>176.0</ele><time>2026-04-28T07:39:10.999Z</time></trkpt><trkpt lat="50.3835501434403" lon="4.555608330749561"><ele>176.0</ele><time>2026-04-28T07:39:11.999Z</time></trkpt><trkpt lat="50.38362758411947" lon="4.555577309129792"><ele>176.0</ele><time>2026-04-28T07:39:12.999Z</time></trkpt><trkpt lat="50.383689176306206" lon="4.555542036259351"><ele>176.0</ele><time>2026-04-28T07:39:13.999Z</time></trkpt><trkpt lat="50.38378919414276" lon="4.5554868118418845"><ele>176.0</ele><time>2026-04-28T07:39:15.999Z</time></trkpt><trkpt lat="50.3838564026291" lon="4.555429034698315"><ele>176.0</ele><time>2026-04-28T07:39:17.999Z</time></trkpt><trkpt lat="50.38383825884797" lon="4.55524041814429"><ele>176.0</ele><time>2026-04-28T07:39:18.999Z</time></trkpt><trkpt lat="50.38381718322686" lon="4.555113279607363"><ele>176.0</ele><time>2026-04-28T07:39:19.999Z</time></trkpt><trkpt lat="50.38378622110154" lon="4.554968449297709"><ele>176.0</ele><time>2026-04-28T07:39:20.999Z</time></trkpt><trkpt lat="50.383758999098" lon="4.5547999509724235"><ele>176.0</ele><time>2026-04-28T07:39:21.999Z</time></trkpt><trkpt lat="50.383736474659045" lon="4.554617146391335"><ele>176.0</ele><time>2026-04-28T07:39:22.999Z</time></trkpt><trkpt lat="50.383712615602505" lon="4.554421409330137"><ele>176.0</ele><time>2026-04-28T07:39:24Z</time></trkpt><trkpt lat="50.38369139325263" lon="4.554209429682009"><ele>176.0</ele><time>2026-04-28T07:39:25Z</time></trkpt><trkpt lat="50.38369571802436" lon="4.553982920209245"><ele>176.0</ele><time>2026-04-28T07:39:26Z</time></trkpt><trkpt lat="50.383708339791134" lon="4.553758904300528"><ele>176.0</ele><time>2026-04-28T07:39:27Z</time></trkpt><trkpt lat="50.383741167405475" lon="4.553555825536795"><ele>175.75</ele><time>2026-04-28T07:39:28Z</time></trkpt><trkpt lat="50.38378447866707" lon="4.55338638438666"><ele>175.5</ele><time>2026-04-28T07:39:29Z</time></trkpt><trkpt lat="50.383842259148246" lon="4.553190335949027"><ele>175.25</ele><time>2026-04-28T07:39:30Z</time></trkpt><trkpt lat="50.383920885506285" lon="4.553004632119622"><ele>175.0</ele><time>2026-04-28T07:39:31Z</time></trkpt><trkpt lat="50.38401586248004" lon="4.5528202434324445"><ele>174.75</ele><time>2026-04-28T07:39:32Z</time></trkpt><trkpt lat="50.3840992926391" lon="4.552636520989271"><ele>174.5</ele><time>2026-04-28T07:39:33Z</time></trkpt><trkpt lat="50.38417289892637" lon="4.552461780031494"><ele>174.25</ele><time>2026-04-28T07:39:34Z</time></trkpt><trkpt lat="50.38424118527339" lon="4.552312764071139"><ele>174.0</ele><time>2026-04-28T07:39:35Z</time></trkpt><trkpt lat="50.38430714102975" lon="4.552169569388487"><ele>174.0</ele><time>2026-04-28T07:39:36Z</time></trkpt><trkpt lat="50.384377180044865" lon="4.552030574353526"><ele>174.0</ele><time>2026-04-28T07:39:37Z</time></trkpt><trkpt lat="50.38444955818638" lon="4.551889314715274"><ele>174.0</ele><time>2026-04-28T07:39:38Z</time></trkpt><trkpt lat="50.38451806154889" lon="4.551738492904293"><ele>174.0</ele><time>2026-04-28T07:39:39Z</time></trkpt><trkpt lat="50.38457746454068" lon="4.551583291030677"><ele>174.0</ele><time>2026-04-28T07:39:40Z</time></trkpt><trkpt lat="50.38461967906292" lon="4.55141531590623"><ele>174.0</ele><time>2026-04-28T07:39:41Z</time></trkpt><trkpt lat="50.384651009856576" lon="4.551244606034087"><ele>174.0</ele><time>2026-04-28T07:39:42Z</time></trkpt><trkpt lat="50.384673726157544" lon="4.551070561540096"><ele>174.0</ele><time>2026-04-28T07:39:43Z</time></trkpt><trkpt lat="50.38469225509429" lon="4.55089353688781"><ele>173.0</ele><time>2026-04-28T07:39:44Z</time></trkpt><trkpt lat="50.384708761358176" lon="4.550715001044165"><ele>172.0</ele><time>2026-04-28T07:39:45Z</time></trkpt><trkpt lat="50.384729521601" lon="4.550532803672758"><ele>171.0</ele><time>2026-04-28T07:39:46Z</time></trkpt><trkpt lat="50.384752546877976" lon="4.550351477657929"><ele>170.0</ele><time>2026-04-28T07:39:47Z</time></trkpt><trkpt lat="50.38477363707008" lon="4.550170280200248"><ele>170.0</ele><time>2026-04-28T07:39:48Z</time></trkpt><trkpt lat="50.38480796622814" lon="4.549991037120814"><ele>170.0</ele><time>2026-04-28T07:39:49Z</time></trkpt><trkpt lat="50.38485636676626" lon="4.549819703905104"><ele>170.0</ele><time>2026-04-28T07:39:50Z</time></trkpt><trkpt lat="50.38490405003385" lon="4.549648716471938"><ele>170.0</ele><time>2026-04-28T07:39:51Z</time></trkpt><trkpt lat="50.38494686993584" lon="4.549472584278967"><ele>170.25</ele><time>2026-04-28T07:39:52Z</time></trkpt><trkpt lat="50.38498924115969" lon="4.549295003992373"><ele>170.5</ele><time>2026-04-28T07:39:53Z</time></trkpt><trkpt lat="50.38503155115469" lon="4.549117708413489"><ele>170.75</ele><time>2026-04-28T07:39:54Z</time></trkpt><trkpt lat="50.385075547177976" lon="4.548946036742308"><ele>171.0</ele><time>2026-04-28T07:39:55Z</time></trkpt><trkpt lat="50.385118625865836" lon="4.548785672691596"><ele>171.4</ele><time>2026-04-28T07:39:56Z</time></trkpt><trkpt lat="50.385157755247924" lon="4.548616336624438"><ele>171.8</ele><time>2026-04-28T07:39:57Z</time></trkpt><trkpt lat="50.38520055280566" lon="4.5484494956613295"><ele>172.20000000000002</ele><time>2026-04-28T07:39:58Z</time></trkpt><trkpt lat="50.3852502151579" lon="4.5483008544810835"><ele>172.60000000000002</ele><time>2026-04-28T07:39:59Z</time></trkpt><trkpt lat="50.385309193425115" lon="4.548163094656041"><ele>173.0</ele><time>2026-04-28T07:40:00Z</time></trkpt><trkpt lat="50.38538061492506" lon="4.548054813224132"><ele>173.0</ele><time>2026-04-28T07:40:01Z</time></trkpt><trkpt lat="50.385472449026516" lon="4.547957296435861"><ele>173.0</ele><time>2026-04-28T07:40:02Z</time></trkpt><trkpt lat="50.3855628064727" lon="4.547822117325476"><ele>173.0</ele><time>2026-04-28T07:40:03Z</time></trkpt><trkpt lat="50.385651938609925" lon="4.547709277022593"><ele>173.0</ele><time>2026-04-28T07:40:04Z</time></trkpt><trkpt lat="50.385742771055675" lon="4.5475991484025124"><ele>172.5</ele><time>2026-04-28T07:40:05Z</time></trkpt><trkpt lat="50.3858346526328" lon="4.547485298262728"><ele>172.0</ele><time>2026-04-28T07:40:06Z</time></trkpt><trkpt lat="50.38592842842232" lon="4.547375063022472"><ele>171.5</ele><time>2026-04-28T07:40:07Z</time></trkpt><trkpt lat="50.38602297224627" lon="4.5472580723938725"><ele>171.0</ele><time>2026-04-28T07:40:08Z</time></trkpt><trkpt lat="50.386115282576895" lon="4.547140953481858"><ele>171.0</ele><time>2026-04-28T07:40:09Z</time></trkpt><trkpt lat="50.386205404208575" lon="4.547028809885102"><ele>171.0</ele><time>2026-04-28T07:40:10Z</time></trkpt><trkpt lat="50.38629950698845" lon="4.546908840385651"><ele>171.0</ele><time>2026-04-28T07:40:11Z</time></trkpt><trkpt lat="50.386396883088096" lon="4.54677549503241"><ele>171.0</ele><time>2026-04-28T07:40:12Z</time></trkpt><trkpt lat="50.38649962561123" lon="4.546605209229815"><ele>171.25</ele><time>2026-04-28T07:40:12.999Z</time></trkpt><trkpt lat="50.38659986484251" lon="4.5464137674879055"><ele>171.5</ele><time>2026-04-28T07:40:13.999Z</time></trkpt><trkpt lat="50.38667250056134" lon="4.5463182593384035"><ele>171.75</ele><time>2026-04-28T07:40:14.999Z</time></trkpt><trkpt lat="50.386746832925056" lon="4.546165362723758"><ele>172.0</ele><time>2026-04-28T07:40:15.999Z</time></trkpt><trkpt lat="50.38682342354719" lon="4.546025285116668"><ele>172.25</ele><time>2026-04-28T07:40:16.999Z</time></trkpt><trkpt lat="50.386918877850675" lon="4.5459024969258515"><ele>172.5</ele><time>2026-04-28T07:40:17.999Z</time></trkpt><trkpt lat="50.38702355575228" lon="4.545775289595449"><ele>172.75</ele><time>2026-04-28T07:40:18.999Z</time></trkpt><trkpt lat="50.38713914496564" lon="4.545642642098989"><ele>173.0</ele><time>2026-04-28T07:40:19.999Z</time></trkpt><trkpt lat="50.387252816357275" lon="4.545483784666114"><ele>172.0</ele><time>2026-04-28T07:40:20.999Z</time></trkpt><trkpt lat="50.38737489830922" lon="4.5453199983807995"><ele>171.0</ele><time>2026-04-28T07:40:21.999Z</time></trkpt><trkpt lat="50.38750248825719" lon="4.545148408420499"><ele>170.0</ele><time>2026-04-28T07:40:22.999Z</time></trkpt><trkpt lat="50.38764447940353" lon="4.54496355466541"><ele>170.0</ele><time>2026-04-28T07:40:23.999Z</time></trkpt><trkpt lat="50.387798950994934" lon="4.544804508257944"><ele>170.0</ele><time>2026-04-28T07:40:24.999Z</time></trkpt><trkpt lat="50.387928121544725" lon="4.5446364926430425"><ele>170.0</ele><time>2026-04-28T07:40:25.999Z</time></trkpt><trkpt lat="50.38804672628872" lon="4.544489175026859"><ele>169.5</ele><time>2026-04-28T07:40:26.999Z</time></trkpt><trkpt lat="50.388160642316585" lon="4.544377818713684"><ele>169.0</ele><time>2026-04-28T07:40:27.999Z</time></trkpt><trkpt lat="50.388275144584846" lon="4.544275365149144"><ele>168.5</ele><time>2026-04-28T07:40:28.999Z</time></trkpt><trkpt lat="50.38837814602551" lon="4.544181176321408"><ele>168.0</ele><time>2026-04-28T07:40:29.999Z</time></trkpt><trkpt lat="50.38847616051752" lon="4.544082649450726"><ele>168.0</ele><time>2026-04-28T07:40:30.999Z</time></trkpt><trkpt lat="50.38857099027641" lon="4.543979740393153"><ele>168.0</ele><time>2026-04-28T07:40:31.999Z</time></trkpt><trkpt lat="50.38865953415087" lon="4.543851933078481"><ele>168.0</ele><time>2026-04-28T07:40:32.999Z</time></trkpt><trkpt lat="50.388762016773" lon="4.543719084783992"><ele>168.0</ele><time>2026-04-28T07:40:33.999Z</time></trkpt><trkpt lat="50.388867855831556" lon="4.54355949208952"><ele>166.66666666666666</ele><time>2026-04-28T07:40:34.999Z</time></trkpt><trkpt lat="50.38896823025741" lon="4.543364067652296"><ele>165.33333333333331</ele><time>2026-04-28T07:40:35.999Z</time></trkpt><trkpt lat="50.389054476130035" lon="4.543108252973756"><ele>164.0</ele><time>2026-04-28T07:40:36.999Z</time></trkpt><trkpt lat="50.389134844947286" lon="4.542876354646714"><ele>164.0</ele><time>2026-04-28T07:40:37.999Z</time></trkpt><trkpt lat="50.38920330561934" lon="4.542645865739704"><ele>164.0</ele><time>2026-04-28T07:40:38.999Z</time></trkpt><trkpt lat="50.38926337958424" lon="4.542419542476171"><ele>164.0</ele><time>2026-04-28T07:40:39.999Z</time></trkpt><trkpt lat="50.3893171378882" lon="4.5422102782567775"><ele>164.6</ele><time>2026-04-28T07:40:40.999Z</time></trkpt><trkpt lat="50.38936305750781" lon="4.542021077994035"><ele>165.2</ele><time>2026-04-28T07:40:41.999Z</time></trkpt><trkpt lat="50.38939961680885" lon="4.5418603605688785"><ele>165.79999999999998</ele><time>2026-04-28T07:40:42.999Z</time></trkpt><trkpt lat="50.38942770702356" lon="4.541709008067613"><ele>166.39999999999998</ele><time>2026-04-28T07:40:43.999Z</time></trkpt><trkpt lat="50.38945408705563" lon="4.541570287921292"><ele>167.0</ele><time>2026-04-28T07:40:44.999Z</time></trkpt><trkpt lat="50.38948535891673" lon="4.541456609940575"><ele>167.0</ele><time>2026-04-28T07:40:45.999Z</time></trkpt><trkpt lat="50.38951273723372" lon="4.541349028382984"><ele>167.0</ele><time>2026-04-28T07:40:46.999Z</time></trkpt><trkpt lat="50.3895317263831" lon="4.541252139531576"><ele>167.0</ele><time>2026-04-28T07:40:47.999Z</time></trkpt><trkpt lat="50.38958062666815" lon="4.541064214055271"><ele>167.0</ele><time>2026-04-28T07:40:49.999Z</time></trkpt><trkpt lat="50.38944753776736" lon="4.540909347795899"><ele>167.0</ele><time>2026-04-28T07:40:50.999Z</time></trkpt><trkpt lat="50.38935990274514" lon="4.540804265578125"><ele>167.5</ele><time>2026-04-28T07:40:51.999Z</time></trkpt><trkpt lat="50.38929761965743" lon="4.540663612087485"><ele>168.0</ele><time>2026-04-28T07:40:52.999Z</time></trkpt><trkpt lat="50.389218558140165" lon="4.5405239318782895"><ele>168.5</ele><time>2026-04-28T07:40:53.999Z</time></trkpt><trkpt lat="50.38914152366951" lon="4.5403878329582135"><ele>169.0</ele><time>2026-04-28T07:40:54.999Z</time></trkpt><trkpt lat="50.38907301612645" lon="4.540238136226123"><ele>169.0</ele><time>2026-04-28T07:40:55.999Z</time></trkpt><trkpt lat="50.38900397936077" lon="4.540057328667842"><ele>169.0</ele><time>2026-04-28T07:40:56.999Z</time></trkpt><trkpt lat="50.38894703054193" lon="4.539899635232049"><ele>169.0</ele><time>2026-04-28T07:40:57.999Z</time></trkpt><trkpt lat="50.38889235204805" lon="4.53976246917643"><ele>169.0</ele><time>2026-04-28T07:40:58.999Z</time></trkpt><trkpt lat="50.38885221364527" lon="4.539638871279968"><ele>169.0</ele><time>2026-04-28T07:40:59.999Z</time></trkpt><trkpt lat="50.388817109034726" lon="4.53952449881681"><ele>169.39999999999998</ele><time>2026-04-28T07:41:00.999Z</time></trkpt><trkpt lat="50.388781125396065" lon="4.5394151485952445"><ele>169.8</ele><time>2026-04-28T07:41:01.999Z</time></trkpt><trkpt lat="50.38873732401584" lon="4.539293737180901"><ele>170.2</ele><time>2026-04-28T07:41:02.999Z</time></trkpt><trkpt lat="50.38869809774358" lon="4.539148886274903"><ele>170.60000000000002</ele><time>2026-04-28T07:41:03.999Z</time></trkpt><trkpt lat="50.388650598668896" lon="4.539008661172272"><ele>171.0</ele><time>2026-04-28T07:41:04.999Z</time></trkpt><trkpt lat="50.38860213989731" lon="4.538874714893362"><ele>171.0</ele><time>2026-04-28T07:41:05.999Z</time></trkpt><trkpt lat="50.38855160863352" lon="4.538726921844782"><ele>171.0</ele><time>2026-04-28T07:41:06.999Z</time></trkpt><trkpt lat="50.38851400529484" lon="4.538552497819033"><ele>171.0</ele><time>2026-04-28T07:41:07.999Z</time></trkpt><trkpt lat="50.38846167538363" lon="4.538381437364014"><ele>171.0</ele><time>2026-04-28T07:41:08.999Z</time></trkpt><trkpt lat="50.38841577445204" lon="4.53823139233467"><ele>170.8</ele><time>2026-04-28T07:41:09.999Z</time></trkpt><trkpt lat="50.388373900941716" lon="4.5380997544319595"><ele>170.60000000000002</ele><time>2026-04-28T07:41:10.999Z</time></trkpt><trkpt lat="50.38831535857428" lon="4.537967333463555"><ele>170.4</ele><time>2026-04-28T07:41:11.999Z</time></trkpt><trkpt lat="50.3882732959395" lon="4.537820930292774"><ele>170.2</ele><time>2026-04-28T07:41:12.999Z</time></trkpt><trkpt lat="50.388229318904" lon="4.537693323840576"><ele>170.0</ele><time>2026-04-28T07:41:13.999Z</time></trkpt><trkpt lat="50.38818759067534" lon="4.537585921972227"><ele>170.0</ele><time>2026-04-28T07:41:14.999Z</time></trkpt><trkpt lat="50.38815663021419" lon="4.5374956344371355"><ele>170.0</ele><time>2026-04-28T07:41:15.999Z</time></trkpt><trkpt lat="50.388119354183125" lon="4.537369143259258"><ele>170.0</ele><time>2026-04-28T07:41:17.999Z</time></trkpt><trkpt lat="50.38806363453258" lon="4.537209660086492"><ele>170.0</ele><time>2026-04-28T07:41:19.999Z</time></trkpt><trkpt lat="50.38802635060054" lon="4.537099262390089"><ele>170.0</ele><time>2026-04-28T07:41:20.999Z</time></trkpt><trkpt lat="50.3879790385171" lon="4.536972982141173"><ele>170.0</ele><time>2026-04-28T07:41:21.999Z</time></trkpt><trkpt lat="50.387946655456695" lon="4.536856534050585"><ele>170.0</ele><time>2026-04-28T07:41:22.999Z</time></trkpt><trkpt lat="50.387873658917606" lon="4.536689284848459"><ele>170.0</ele><time>2026-04-28T07:41:23.999Z</time></trkpt><trkpt lat="50.38782178172038" lon="4.536549569620232"><ele>170.0</ele><time>2026-04-28T07:41:24.999Z</time></trkpt><trkpt lat="50.38776356002186" lon="4.536394992476178"><ele>170.0</ele><time>2026-04-28T07:41:25.999Z</time></trkpt><trkpt lat="50.38770123393921" lon="4.536227483433038"><ele>170.0</ele><time>2026-04-28T07:41:26.998Z</time></trkpt><trkpt lat="50.38764935176242" lon="4.536085262251145"><ele>170.0</ele><time>2026-04-28T07:41:27.998Z</time></trkpt><trkpt lat="50.38758009931424" lon="4.535921111211357"><ele>170.0</ele><time>2026-04-28T07:41:28.998Z</time></trkpt><trkpt lat="50.387509079337576" lon="4.535732627833491"><ele>170.0</ele><time>2026-04-28T07:41:30Z</time></trkpt><trkpt lat="50.38742413975199" lon="4.535534859470613"><ele>169.75</ele><time>2026-04-28T07:41:31Z</time></trkpt><trkpt lat="50.38734260649616" lon="4.535347467976482"><ele>169.5</ele><time>2026-04-28T07:41:32Z</time></trkpt><trkpt lat="50.38727067851456" lon="4.53518900572933"><ele>169.25</ele><time>2026-04-28T07:41:33Z</time></trkpt><trkpt lat="50.387201554378514" lon="4.535041110559243"><ele>169.0</ele><time>2026-04-28T07:41:34Z</time></trkpt><trkpt lat="50.387132637131046" lon="4.534901245319939"><ele>169.0</ele><time>2026-04-28T07:41:35Z</time></trkpt><trkpt lat="50.38706958008044" lon="4.534755256764695"><ele>169.0</ele><time>2026-04-28T07:41:36Z</time></trkpt><trkpt lat="50.38701818205409" lon="4.534608414044423"><ele>169.0</ele><time>2026-04-28T07:41:37Z</time></trkpt><trkpt lat="50.386987782614476" lon="4.534467264348866"><ele>169.0</ele><time>2026-04-28T07:41:38Z</time></trkpt><trkpt lat="50.38697875888735" lon="4.534310140697699"><ele>169.0</ele><time>2026-04-28T07:41:39Z</time></trkpt><trkpt lat="50.38701258207375" lon="4.534145515302673"><ele>169.0</ele><time>2026-04-28T07:41:40Z</time></trkpt><trkpt lat="50.387029966922114" lon="4.533964597780831"><ele>169.0</ele><time>2026-04-28T07:41:41Z</time></trkpt><trkpt lat="50.38707023784334" lon="4.533784442081479"><ele>169.0</ele><time>2026-04-28T07:41:42Z</time></trkpt><trkpt lat="50.387097214696134" lon="4.5336240504453"><ele>169.0</ele><time>2026-04-28T07:41:43Z</time></trkpt><trkpt lat="50.38712166896706" lon="4.533474414803418"><ele>169.0</ele><time>2026-04-28T07:41:44Z</time></trkpt><trkpt lat="50.387153713764874" lon="4.533348818727224"><ele>169.0</ele><time>2026-04-28T07:41:45Z</time></trkpt><trkpt lat="50.3871797456454" lon="4.533228188853053"><ele>169.0</ele><time>2026-04-28T07:41:46Z</time></trkpt><trkpt lat="50.387214287814054" lon="4.533027005806852"><ele>169.0</ele><time>2026-04-28T07:41:48Z</time></trkpt><trkpt lat="50.387243988847736" lon="4.532859868016197"><ele>169.0</ele><time>2026-04-28T07:41:50Z</time></trkpt><trkpt lat="50.38726970497758" lon="4.5327499731363545"><ele>169.0</ele><time>2026-04-28T07:41:52Z</time></trkpt><trkpt lat="50.38727906014252" lon="4.532612855345692"><ele>168.83333333333334</ele><time>2026-04-28T07:41:57Z</time></trkpt><trkpt lat="50.387284918664896" lon="4.532484750653365"><ele>168.66666666666669</ele><time>2026-04-28T07:41:59Z</time></trkpt><trkpt lat="50.3872870247179" lon="4.532383840148523"><ele>168.5</ele><time>2026-04-28T07:42:00Z</time></trkpt><trkpt lat="50.3873019722153" lon="4.532180946998128"><ele>168.33333333333334</ele><time>2026-04-28T07:42:02Z</time></trkpt><trkpt lat="50.38731167438494" lon="4.532054549880356"><ele>168.16666666666666</ele><time>2026-04-28T07:42:03Z</time></trkpt><trkpt lat="50.38730992456432" lon="4.5319141019717755"><ele>168.0</ele><time>2026-04-28T07:42:04Z</time></trkpt><trkpt lat="50.38732788913545" lon="4.5317834734617"><ele>167.8</ele><time>2026-04-28T07:42:05Z</time></trkpt><trkpt lat="50.38734860912133" lon="4.531663311435302"><ele>167.60000000000002</ele><time>2026-04-28T07:42:06Z</time></trkpt><trkpt lat="50.38738304550021" lon="4.5315332066626155"><ele>167.39999999999998</ele><time>2026-04-28T07:42:07Z</time></trkpt><trkpt lat="50.387426101855596" lon="4.531406842034584"><ele>167.2</ele><time>2026-04-28T07:42:08Z</time></trkpt><trkpt lat="50.38747397078741" lon="4.531260310008121"><ele>167.0</ele><time>2026-04-28T07:42:09Z</time></trkpt><trkpt lat="50.387538052804274" lon="4.531118800698086"><ele>166.75</ele><time>2026-04-28T07:42:10Z</time></trkpt><trkpt lat="50.38759235340952" lon="4.530966997994093"><ele>166.5</ele><time>2026-04-28T07:42:11Z</time></trkpt><trkpt lat="50.38765627761522" lon="4.530788291512433"><ele>166.25</ele><time>2026-04-28T07:42:12Z</time></trkpt><trkpt lat="50.38770796399083" lon="4.530600698547119"><ele>166.0</ele><time>2026-04-28T07:42:13Z</time></trkpt><trkpt lat="50.38776857615498" lon="4.530432158020943"><ele>165.5</ele><time>2026-04-28T07:42:14Z</time></trkpt><trkpt lat="50.387828667442434" lon="4.530272656995438"><ele>165.0</ele><time>2026-04-28T07:42:15Z</time></trkpt><trkpt lat="50.3878950014486" lon="4.530108075455669"><ele>164.5</ele><time>2026-04-28T07:42:16Z</time></trkpt><trkpt lat="50.38795901447175" lon="4.529925912556195"><ele>164.0</ele><time>2026-04-28T07:42:17Z</time></trkpt><trkpt lat="50.38802198658723" lon="4.529743630527081"><ele>164.0</ele><time>2026-04-28T07:42:18Z</time></trkpt><trkpt lat="50.38808570172719" lon="4.529565157156499"><ele>164.0</ele><time>2026-04-28T07:42:18.999Z</time></trkpt><trkpt lat="50.38814903801316" lon="4.529390048031789"><ele>164.0</ele><time>2026-04-28T07:42:19.999Z</time></trkpt><trkpt lat="50.38820751071975" lon="4.529217691483539"><ele>164.0</ele><time>2026-04-28T07:42:20.999Z</time></trkpt><trkpt lat="50.388265202163" lon="4.52907934536561"><ele>164.0</ele><time>2026-04-28T07:42:21.999Z</time></trkpt><trkpt lat="50.38831145774168" lon="4.528940691399014"><ele>164.0</ele><time>2026-04-28T07:42:22.999Z</time></trkpt><trkpt lat="50.38836635788835" lon="4.528800030570327"><ele>164.0</ele><time>2026-04-28T07:42:23.999Z</time></trkpt><trkpt lat="50.388417871956634" lon="4.528652920976402"><ele>164.0</ele><time>2026-04-28T07:42:24.999Z</time></trkpt><trkpt lat="50.38847229184917" lon="4.528537733581194"><ele>164.0</ele><time>2026-04-28T07:42:25.999Z</time></trkpt><trkpt lat="50.38852793053047" lon="4.528389138722811"><ele>164.0</ele><time>2026-04-28T07:42:26.999Z</time></trkpt><trkpt lat="50.388569385123134" lon="4.528278425640362"><ele>164.0</ele><time>2026-04-28T07:42:27.999Z</time></trkpt><trkpt lat="50.388606169970586" lon="4.528180183762914"><ele>164.0</ele><time>2026-04-28T07:42:28.999Z</time></trkpt><trkpt lat="50.38865126166445" lon="4.528024207674456"><ele>164.0</ele><time>2026-04-28T07:42:30.999Z</time></trkpt><trkpt lat="50.388723010842035" lon="4.527863185797707"><ele>164.0</ele><time>2026-04-28T07:42:32.999Z</time></trkpt><trkpt lat="50.388745601322455" lon="4.527770960489477"><ele>163.79999999999998</ele><time>2026-04-28T07:42:33.999Z</time></trkpt><trkpt lat="50.38875385851615" lon="4.527635878482544"><ele>163.6</ele><time>2026-04-28T07:42:35.999Z</time></trkpt><trkpt lat="50.38863830456894" lon="4.527543923111529"><ele>163.4</ele><time>2026-04-28T07:42:36.999Z</time></trkpt><trkpt lat="50.38855589732363" lon="4.527483835153891"><ele>163.2</ele><time>2026-04-28T07:42:37.999Z</time></trkpt><trkpt lat="50.3884611458572" lon="4.527430733163454"><ele>163.0</ele><time>2026-04-28T07:42:38.999Z</time></trkpt><trkpt lat="50.38836837731959" lon="4.527374682076712"><ele>163.0</ele><time>2026-04-28T07:42:39.999Z</time></trkpt><trkpt lat="50.38828769605612" lon="4.52726929445979"><ele>163.0</ele><time>2026-04-28T07:42:40.999Z</time></trkpt><trkpt lat="50.38817461994311" lon="4.52718629251134"><ele>163.0</ele><time>2026-04-28T07:42:41.999Z</time></trkpt><trkpt lat="50.38805805177702" lon="4.5270949869287795"><ele>163.0</ele><time>2026-04-28T07:42:42.999Z</time></trkpt><trkpt lat="50.387943912355034" lon="4.526982228132532"><ele>162.5</ele><time>2026-04-28T07:42:43.999Z</time></trkpt><trkpt lat="50.38781922152305" lon="4.526877028412626"><ele>162.0</ele><time>2026-04-28T07:42:44.999Z</time></trkpt><trkpt lat="50.38773370550041" lon="4.526728128457507"><ele>161.5</ele><time>2026-04-28T07:42:45.999Z</time></trkpt><trkpt lat="50.38765250254353" lon="4.526608325849779"><ele>161.0</ele><time>2026-04-28T07:42:46.999Z</time></trkpt><trkpt lat="50.38756945204332" lon="4.526488433392506"><ele>161.0</ele><time>2026-04-28T07:42:47.999Z</time></trkpt><trkpt lat="50.38748606779503" lon="4.52638422060924"><ele>161.0</ele><time>2026-04-28T07:42:48.999Z</time></trkpt><trkpt lat="50.38740105023306" lon="4.526292164038191"><ele>161.0</ele><time>2026-04-28T07:42:49.999Z</time></trkpt><trkpt lat="50.38732011284874" lon="4.526211144037104"><ele>161.0</ele><time>2026-04-28T07:42:50.999Z</time></trkpt><trkpt lat="50.38724136218093" lon="4.526133653057783"><ele>161.0</ele><time>2026-04-28T07:42:51.999Z</time></trkpt><trkpt lat="50.38715914272184" lon="4.526051954597601"><ele>160.20000000000002</ele><time>2026-04-28T07:42:52.999Z</time></trkpt><trkpt lat="50.387083349198384" lon="4.525968604239912"><ele>159.4</ele><time>2026-04-28T07:42:53.999Z</time></trkpt><trkpt lat="50.387006668096106" lon="4.525873354532387"><ele>158.6</ele><time>2026-04-28T07:42:54.999Z</time></trkpt><trkpt lat="50.386927521579764" lon="4.525794245620418"><ele>157.8</ele><time>2026-04-28T07:42:55.999Z</time></trkpt><trkpt lat="50.38687658829131" lon="4.5256698050694375"><ele>157.0</ele><time>2026-04-28T07:42:56.999Z</time></trkpt><trkpt lat="50.386816145885064" lon="4.525554663843325"><ele>157.0</ele><time>2026-04-28T07:42:57.999Z</time></trkpt><trkpt lat="50.38675554649909" lon="4.525433357370019"><ele>157.0</ele><time>2026-04-28T07:42:58.999Z</time></trkpt><trkpt lat="50.38668750336453" lon="4.525323904601789"><ele>157.0</ele><time>2026-04-28T07:42:59.999Z</time></trkpt><trkpt lat="50.386641563317774" lon="4.5251959216468185"><ele>157.0</ele><time>2026-04-28T07:43:00.999Z</time></trkpt><trkpt lat="50.386569096902925" lon="4.525105114964483"><ele>157.0</ele><time>2026-04-28T07:43:01.999Z</time></trkpt><trkpt lat="50.38650179526776" lon="4.525017477161468"><ele>157.0</ele><time>2026-04-28T07:43:02.999Z</time></trkpt><trkpt lat="50.38643739967881" lon="4.524939502926966"><ele>157.0</ele><time>2026-04-28T07:43:03.999Z</time></trkpt><trkpt lat="50.386376000338494" lon="4.524873317310002"><ele>157.0</ele><time>2026-04-28T07:43:04.999Z</time></trkpt><trkpt lat="50.38633101496793" lon="4.524792893813114"><ele>157.0</ele><time>2026-04-28T07:43:05.999Z</time></trkpt><trkpt lat="50.38621575740187" lon="4.52468654358314"><ele>157.0</ele><time>2026-04-28T07:43:07.999Z</time></trkpt><trkpt lat="50.38613776492239" lon="4.524643154811405"><ele>157.0</ele><time>2026-04-28T07:43:08.999Z</time></trkpt><trkpt lat="50.3860548642711" lon="4.524575384759709"><ele>155.79999999999998</ele><time>2026-04-28T07:43:09.999Z</time></trkpt><trkpt lat="50.38596905633843" lon="4.524509484420604"><ele>154.6</ele><time>2026-04-28T07:43:10.999Z</time></trkpt><trkpt lat="50.38588680915888" lon="4.524445767646694"><ele>153.39999999999998</ele><time>2026-04-28T07:43:11.999Z</time></trkpt><trkpt lat="50.38580304305628" lon="4.5243846761266955"><ele>152.2</ele><time>2026-04-28T07:43:12.999Z</time></trkpt><trkpt lat="50.385721206312176" lon="4.5243209686982215"><ele>151.0</ele><time>2026-04-28T07:43:13.999Z</time></trkpt><trkpt lat="50.38564165489358" lon="4.524252859247748"><ele>151.0</ele><time>2026-04-28T07:43:14.999Z</time></trkpt><trkpt lat="50.385574052881104" lon="4.524166877535612"><ele>151.0</ele><time>2026-04-28T07:43:15.999Z</time></trkpt><trkpt lat="50.3855142576058" lon="4.524065825370651"><ele>151.0</ele><time>2026-04-28T07:43:16.999Z</time></trkpt><trkpt lat="50.38545282017378" lon="4.523963376507343"><ele>151.0</ele><time>2026-04-28T07:43:17.999Z</time></trkpt><trkpt lat="50.38539321948447" lon="4.523855542479291"><ele>151.0</ele><time>2026-04-28T07:43:18.999Z</time></trkpt><trkpt lat="50.38533252425985" lon="4.523753790635087"><ele>151.0</ele><time>2026-04-28T07:43:19.999Z</time></trkpt><trkpt lat="50.38527199931775" lon="4.523647528539301"><ele>149.5</ele><time>2026-04-28T07:43:20.999Z</time></trkpt><trkpt lat="50.385207122801404" lon="4.5235442895833815"><ele>148.0</ele><time>2026-04-28T07:43:21.999Z</time></trkpt><trkpt lat="50.38514540147659" lon="4.523444607842815"><ele>146.5</ele><time>2026-04-28T07:43:22.999Z</time></trkpt><trkpt lat="50.38507403075454" lon="4.523356983932583"><ele>145.0</ele><time>2026-04-28T07:43:23.999Z</time></trkpt><trkpt lat="50.38500853200793" lon="4.523259675510406"><ele>143.5</ele><time>2026-04-28T07:43:24.999Z</time></trkpt><trkpt lat="50.384952519107834" lon="4.523186027363788"><ele>142.0</ele><time>2026-04-28T07:43:25.999Z</time></trkpt><trkpt lat="50.384891903939675" lon="4.523113763922936"><ele>142.0</ele><time>2026-04-28T07:43:26.999Z</time></trkpt><trkpt lat="50.38485839740793" lon="4.522988726163606"><ele>142.0</ele><time>2026-04-28T07:43:27.999Z</time></trkpt><trkpt lat="50.3848465176021" lon="4.5228654914252955"><ele>142.0</ele><time>2026-04-28T07:43:28.999Z</time></trkpt><trkpt lat="50.384837851596274" lon="4.522749689859067"><ele>142.0</ele><time>2026-04-28T07:43:29.999Z</time></trkpt><trkpt lat="50.384843626751206" lon="4.522641194421259"><ele>142.0</ele><time>2026-04-28T07:43:30.999Z</time></trkpt><trkpt lat="50.38486910955845" lon="4.5225245074321325"><ele>142.0</ele><time>2026-04-28T07:43:31.999Z</time></trkpt><trkpt lat="50.3849116720484" lon="4.522401764565238"><ele>139.79999999999998</ele><time>2026-04-28T07:43:32.998Z</time></trkpt><trkpt lat="50.38496557445597" lon="4.522288972603112"><ele>137.6</ele><time>2026-04-28T07:43:33.998Z</time></trkpt><trkpt lat="50.385022697826415" lon="4.522179079964809"><ele>135.39999999999998</ele><time>2026-04-28T07:43:34.998Z</time></trkpt><trkpt lat="50.38508135704441" lon="4.522065938352934"><ele>133.2</ele><time>2026-04-28T07:43:36Z</time></trkpt><trkpt lat="50.38513693032494" lon="4.521952066133421"><ele>131.0</ele><time>2026-04-28T07:43:37Z</time></trkpt><trkpt lat="50.385189245359996" lon="4.521841984398399"><ele>129.16666666666666</ele><time>2026-04-28T07:43:38Z</time></trkpt><trkpt lat="50.385243635364" lon="4.521739189284917"><ele>127.33333333333333</ele><time>2026-04-28T07:43:39Z</time></trkpt><trkpt lat="50.38529438222124" lon="4.521626722712921"><ele>125.5</ele><time>2026-04-28T07:43:40Z</time></trkpt><trkpt lat="50.38533000966727" lon="4.521512200571451"><ele>123.66666666666666</ele><time>2026-04-28T07:43:41Z</time></trkpt><trkpt lat="50.38536474655219" lon="4.521399370635534"><ele>121.83333333333333</ele><time>2026-04-28T07:43:42Z</time></trkpt><trkpt lat="50.38540246535616" lon="4.521283495940885"><ele>120.0</ele><time>2026-04-28T07:43:43Z</time></trkpt><trkpt lat="50.38543918530634" lon="4.521169942349485"><ele>120.0</ele><time>2026-04-28T07:43:44Z</time></trkpt><trkpt lat="50.38547480302508" lon="4.521065889512152"><ele>120.0</ele><time>2026-04-28T07:43:45Z</time></trkpt><trkpt lat="50.38551258822965" lon="4.520964430966538"><ele>120.0</ele><time>2026-04-28T07:43:46Z</time></trkpt><trkpt lat="50.385547952071605" lon="4.5208772616151585"><ele>120.0</ele><time>2026-04-28T07:43:47Z</time></trkpt><trkpt lat="50.38561668836396" lon="4.520739384711138"><ele>120.0</ele><time>2026-04-28T07:43:49Z</time></trkpt><trkpt lat="50.38566065788309" lon="4.520623395377647"><ele>120.0</ele><time>2026-04-28T07:43:51Z</time></trkpt><trkpt lat="50.385694305866245" lon="4.520475042917154"><ele>120.16666666666667</ele><time>2026-04-28T07:43:53Z</time></trkpt><trkpt lat="50.385759988152635" lon="4.520397162360994"><ele>120.33333333333334</ele><time>2026-04-28T07:43:54Z</time></trkpt><trkpt lat="50.3858182072178" lon="4.520307364151116"><ele>120.5</ele><time>2026-04-28T07:43:55Z</time></trkpt><trkpt lat="50.385895077367685" lon="4.520219278181717"><ele>120.66666666666667</ele><time>2026-04-28T07:43:56Z</time></trkpt><trkpt lat="50.38597770581059" lon="4.520146886213005"><ele>120.83333333333334</ele><time>2026-04-28T07:43:57Z</time></trkpt><trkpt lat="50.38606177333291" lon="4.5200872256226035"><ele>121.0</ele><time>2026-04-28T07:43:58Z</time></trkpt><trkpt lat="50.3861558366535" lon="4.520025232434216"><ele>121.0</ele><time>2026-04-28T07:43:59Z</time></trkpt><trkpt lat="50.38625443168355" lon="4.519981782645565"><ele>121.0</ele><time>2026-04-28T07:44:00Z</time></trkpt><trkpt lat="50.386352240064554" lon="4.519945257782291"><ele>121.0</ele><time>2026-04-28T07:44:01Z</time></trkpt><trkpt lat="50.38644389118232" lon="4.519910912131003"><ele>121.0</ele><time>2026-04-28T07:44:02Z</time></trkpt><trkpt lat="50.38653887361584" lon="4.5198756414353864"><ele>121.0</ele><time>2026-04-28T07:44:03Z</time></trkpt><trkpt lat="50.38663484104492" lon="4.519837425109312"><ele>121.19999999999999</ele><time>2026-04-28T07:44:04Z</time></trkpt><trkpt lat="50.38674094220296" lon="4.519809265846469"><ele>121.39999999999999</ele><time>2026-04-28T07:44:05Z</time></trkpt><trkpt lat="50.386846019566974" lon="4.519779609984802"><ele>121.6</ele><time>2026-04-28T07:44:06Z</time></trkpt><trkpt lat="50.38695119864016" lon="4.519745600998069"><ele>121.8</ele><time>2026-04-28T07:44:07Z</time></trkpt><trkpt lat="50.387055016635756" lon="4.5197066442790605"><ele>122.0</ele><time>2026-04-28T07:44:08Z</time></trkpt><trkpt lat="50.387163020159925" lon="4.519670336153086"><ele>121.25</ele><time>2026-04-28T07:44:09Z</time></trkpt><trkpt lat="50.38727153091966" lon="4.519640714906597"><ele>120.5</ele><time>2026-04-28T07:44:10Z</time></trkpt><trkpt lat="50.38738575371422" lon="4.519623104617693"><ele>119.75</ele><time>2026-04-28T07:44:11Z</time></trkpt><trkpt lat="50.387502247868106" lon="4.519618003427784"><ele>119.0</ele><time>2026-04-28T07:44:12Z</time></trkpt><trkpt lat="50.38762152522321" lon="4.519623857000981"><ele>119.0</ele><time>2026-04-28T07:44:13Z</time></trkpt><trkpt lat="50.38774366191668" lon="4.5196508438582566"><ele>119.0</ele><time>2026-04-28T07:44:14Z</time></trkpt><trkpt lat="50.38786672523364" lon="4.519666707476883"><ele>119.0</ele><time>2026-04-28T07:44:15Z</time></trkpt><trkpt lat="50.38797533085562" lon="4.519670884004616"><ele>119.0</ele><time>2026-04-28T07:44:16Z</time></trkpt><trkpt lat="50.3880707972693" lon="4.519676417863411"><ele>119.0</ele><time>2026-04-28T07:44:17Z</time></trkpt><trkpt lat="50.388153074861236" lon="4.519678488124445"><ele>119.0</ele><time>2026-04-28T07:44:18Z</time></trkpt><trkpt lat="50.38821842868918" lon="4.519681284231574"><ele>119.0</ele><time>2026-04-28T07:44:19Z</time></trkpt><trkpt lat="50.38831117395012" lon="4.519688720402896"><ele>119.0</ele><time>2026-04-28T07:44:21Z</time></trkpt><trkpt lat="50.38827312742614" lon="4.519298000620651"><ele>118.57142857142857</ele><time>2026-04-28T07:44:24.999Z</time></trkpt><trkpt lat="50.388209137546646" lon="4.519236888116557"><ele>118.14285714285714</ele><time>2026-04-28T07:44:25.999Z</time></trkpt><trkpt lat="50.38814326854704" lon="4.519176479484056"><ele>117.71428571428572</ele><time>2026-04-28T07:44:26.999Z</time></trkpt><trkpt lat="50.38807066434044" lon="4.519146000216152"><ele>117.28571428571429</ele><time>2026-04-28T07:44:27.999Z</time></trkpt><trkpt lat="50.388012631368106" lon="4.5190963006099105"><ele>116.85714285714286</ele><time>2026-04-28T07:44:28.999Z</time></trkpt><trkpt lat="50.38796455902322" lon="4.5190280362057385"><ele>116.42857142857144</ele><time>2026-04-28T07:44:29.999Z</time></trkpt><trkpt lat="50.387906955933566" lon="4.518974970610683"><ele>116.00000000000001</ele><time>2026-04-28T07:44:30.999Z</time></trkpt><trkpt lat="50.38784257558117" lon="4.518915411632691"><ele>116.00000000000001</ele><time>2026-04-28T07:44:31.999Z</time></trkpt><trkpt lat="50.38777931397999" lon="4.518853285800362"><ele>116.0</ele><time>2026-04-28T07:44:32.999Z</time></trkpt><trkpt lat="50.38771659335204" lon="4.5188002863432954"><ele>116.00000000000001</ele><time>2026-04-28T07:44:33.999Z</time></trkpt><trkpt lat="50.38764604733928" lon="4.518792607552799"><ele>116.00000000000001</ele><time>2026-04-28T07:44:34.999Z</time></trkpt><trkpt lat="50.38758598651724" lon="4.518759875602436"><ele>116.0</ele><time>2026-04-28T07:44:35.999Z</time></trkpt><trkpt lat="50.3875180195494" lon="4.5187479644574315"><ele>116.00000000000001</ele><time>2026-04-28T07:44:36.999Z</time></trkpt><trkpt lat="50.38745176067484" lon="4.518710756926579"><ele>116.00000000000001</ele><time>2026-04-28T07:44:37.999Z</time></trkpt><trkpt lat="50.3873774934929" lon="4.518699166590301"><ele>116.83333333333333</ele><time>2026-04-28T07:44:38.999Z</time></trkpt><trkpt lat="50.38730584527102" lon="4.51871089656898"><ele>117.66666666666666</ele><time>2026-04-28T07:44:39.999Z</time></trkpt><trkpt lat="50.387230956742414" lon="4.518703012204674"><ele>118.5</ele><time>2026-04-28T07:44:40.999Z</time></trkpt><trkpt lat="50.387158996945885" lon="4.518710029248749"><ele>119.33333333333334</ele><time>2026-04-28T07:44:41.999Z</time></trkpt><trkpt lat="50.38707999193175" lon="4.51872290830377"><ele>120.16666666666667</ele><time>2026-04-28T07:44:42.999Z</time></trkpt><trkpt lat="50.387001838676916" lon="4.518748967264565"><ele>121.0</ele><time>2026-04-28T07:44:43.999Z</time></trkpt><trkpt lat="50.38691812863867" lon="4.518769386910089"><ele>121.00000000000001</ele><time>2026-04-28T07:44:44.999Z</time></trkpt><trkpt lat="50.38683739394721" lon="4.5187759007935275"><ele>121.0</ele><time>2026-04-28T07:44:45.999Z</time></trkpt><trkpt lat="50.38676659841166" lon="4.51880974437707"><ele>121.0</ele><time>2026-04-28T07:44:46.999Z</time></trkpt><trkpt lat="50.38668882322929" lon="4.518810190610944"><ele>121.0</ele><time>2026-04-28T07:44:47.999Z</time></trkpt><trkpt lat="50.386613917621794" lon="4.51885181637045"><ele>121.00000000000001</ele><time>2026-04-28T07:44:48.999Z</time></trkpt><trkpt lat="50.38653578308752" lon="4.518871489453632"><ele>121.0</ele><time>2026-04-28T07:44:49.999Z</time></trkpt><trkpt lat="50.386454403821524" lon="4.518884713345356"><ele>121.00000000000001</ele><time>2026-04-28T07:44:50.999Z</time></trkpt><trkpt lat="50.38637519105372" lon="4.518912236322073"><ele>121.0</ele><time>2026-04-28T07:44:51.999Z</time></trkpt><trkpt lat="50.38629751363901" lon="4.5189349854369185"><ele>121.0</ele><time>2026-04-28T07:44:52.999Z</time></trkpt><trkpt lat="50.38621561937067" lon="4.518958129534158"><ele>121.0</ele><time>2026-04-28T07:44:53.999Z</time></trkpt><trkpt lat="50.386139644300776" lon="4.51897754789379"><ele>121.00000000000001</ele><time>2026-04-28T07:44:54.999Z</time></trkpt><trkpt lat="50.38606137667623" lon="4.5190058224416"><ele>121.0</ele><time>2026-04-28T07:44:55.999Z</time></trkpt><trkpt lat="50.38598874861192" lon="4.519049839332659"><ele>122.16666666666667</ele><time>2026-04-28T07:44:56.999Z</time></trkpt><trkpt lat="50.385916176183024" lon="4.519094879112581"><ele>123.33333333333334</ele><time>2026-04-28T07:44:57.999Z</time></trkpt><trkpt lat="50.3858507245198" lon="4.5191371162451865"><ele>124.5</ele><time>2026-04-28T07:44:58.999Z</time></trkpt><trkpt lat="50.38576234746233" lon="4.5191817687277265"><ele>125.66666666666666</ele><time>2026-04-28T07:44:59.999Z</time></trkpt><trkpt lat="50.38568804343449" lon="4.519234079813293"><ele>126.83333333333333</ele><time>2026-04-28T07:45:00.999Z</time></trkpt><trkpt lat="50.385628075416804" lon="4.519298615101408"><ele>128.0</ele><time>2026-04-28T07:45:01.999Z</time></trkpt><trkpt lat="50.38557294683818" lon="4.519372772135805"><ele>128.33333333333331</ele><time>2026-04-28T07:45:02.999Z</time></trkpt><trkpt lat="50.38550155050959" lon="4.519433819377889"><ele>128.66666666666666</ele><time>2026-04-28T07:45:03.999Z</time></trkpt><trkpt lat="50.385452971322124" lon="4.519551735787077"><ele>129.0</ele><time>2026-04-28T07:45:04.999Z</time></trkpt><trkpt lat="50.3854019223565" lon="4.519650957856505"><ele>129.33333333333334</ele><time>2026-04-28T07:45:05.999Z</time></trkpt><trkpt lat="50.38533938050141" lon="4.519740288100597"><ele>129.66666666666669</ele><time>2026-04-28T07:45:06.999Z</time></trkpt><trkpt lat="50.38527953387955" lon="4.5197883528281295"><ele>130.0</ele><time>2026-04-28T07:45:07.999Z</time></trkpt><trkpt lat="50.3851563558016" lon="4.519803073697118"><ele>130.0</ele><time>2026-04-28T07:45:09.999Z</time></trkpt><trkpt lat="50.385082960711664" lon="4.519809661908412"><ele>130.0</ele><time>2026-04-28T07:45:10.999Z</time></trkpt><trkpt lat="50.38500238444152" lon="4.5198335582409115"><ele>130.0</ele><time>2026-04-28T07:45:11.999Z</time></trkpt><trkpt lat="50.38492094562264" lon="4.519851089391435"><ele>130.0</ele><time>2026-04-28T07:45:12.999Z</time></trkpt><trkpt lat="50.38484849926027" lon="4.519867761503662"><ele>130.0</ele><time>2026-04-28T07:45:13.999Z</time></trkpt><trkpt lat="50.38477720022929" lon="4.519876904760901"><ele>130.0</ele><time>2026-04-28T07:45:14.999Z</time></trkpt><trkpt lat="50.38470988835491" lon="4.519895239435016"><ele>131.5</ele><time>2026-04-28T07:45:15.999Z</time></trkpt><trkpt lat="50.384637274694725" lon="4.519903811198859"><ele>133.0</ele><time>2026-04-28T07:45:16.999Z</time></trkpt><trkpt lat="50.384555021001326" lon="4.51990524922469"><ele>134.5</ele><time>2026-04-28T07:45:17.999Z</time></trkpt><trkpt lat="50.38446302068998" lon="4.519886493979112"><ele>136.0</ele><time>2026-04-28T07:45:18.999Z</time></trkpt><trkpt lat="50.384400116104715" lon="4.519829688242981"><ele>137.5</ele><time>2026-04-28T07:45:19.999Z</time></trkpt><trkpt lat="50.38433298622753" lon="4.519787691664902"><ele>139.0</ele><time>2026-04-28T07:45:20.999Z</time></trkpt><trkpt lat="50.38425885234133" lon="4.519733165462026"><ele>139.0</ele><time>2026-04-28T07:45:21.999Z</time></trkpt><trkpt lat="50.38417778151518" lon="4.519670102175611"><ele>139.0</ele><time>2026-04-28T07:45:22.999Z</time></trkpt><trkpt lat="50.38410099260599" lon="4.519607092471353"><ele>139.0</ele><time>2026-04-28T07:45:23.999Z</time></trkpt><trkpt lat="50.384027483658436" lon="4.519546862457925"><ele>139.0</ele><time>2026-04-28T07:45:24.999Z</time></trkpt><trkpt lat="50.38394629964002" lon="4.51948339779423"><ele>139.0</ele><time>2026-04-28T07:45:25.999Z</time></trkpt><trkpt lat="50.383872139378184" lon="4.519438851644096"><ele>139.0</ele><time>2026-04-28T07:45:26.999Z</time></trkpt><trkpt lat="50.38379472271509" lon="4.519378184949565"><ele>140.4</ele><time>2026-04-28T07:45:27.999Z</time></trkpt><trkpt lat="50.38371288157972" lon="4.519308813988576"><ele>141.8</ele><time>2026-04-28T07:45:28.999Z</time></trkpt><trkpt lat="50.38362495671046" lon="4.519233014430497"><ele>143.2</ele><time>2026-04-28T07:45:29.999Z</time></trkpt><trkpt lat="50.383530334805336" lon="4.519150011182844"><ele>144.6</ele><time>2026-04-28T07:45:30.999Z</time></trkpt><trkpt lat="50.383428219242425" lon="4.519051629319382"><ele>146.0</ele><time>2026-04-28T07:45:31.999Z</time></trkpt><trkpt lat="50.38332725826534" lon="4.518943035401063"><ele>146.0</ele><time>2026-04-28T07:45:32.999Z</time></trkpt><trkpt lat="50.38324918831948" lon="4.518820571571098"><ele>146.0</ele><time>2026-04-28T07:45:33.999Z</time></trkpt><trkpt lat="50.3831239997192" lon="4.518687312095813"><ele>146.0</ele><time>2026-04-28T07:45:34.999Z</time></trkpt><trkpt lat="50.38300899363615" lon="4.51854428744426"><ele>146.0</ele><time>2026-04-28T07:45:35.999Z</time></trkpt><trkpt lat="50.382892761779196" lon="4.518384350506694"><ele>146.66666666666666</ele><time>2026-04-28T07:45:36.999Z</time></trkpt><trkpt lat="50.38276911175122" lon="4.518227697021714"><ele>147.33333333333334</ele><time>2026-04-28T07:45:37.998Z</time></trkpt><trkpt lat="50.38264815233017" lon="4.518053273132878"><ele>148.0</ele><time>2026-04-28T07:45:38.998Z</time></trkpt><trkpt lat="50.382524036620715" lon="4.517870611579891"><ele>148.0</ele><time>2026-04-28T07:45:39.998Z</time></trkpt><trkpt lat="50.38239177558564" lon="4.517685703057023"><ele>148.0</ele><time>2026-04-28T07:45:40.998Z</time></trkpt><trkpt lat="50.38226506138961" lon="4.517484519523847"><ele>148.0</ele><time>2026-04-28T07:45:42Z</time></trkpt><trkpt lat="50.382126508393775" lon="4.517299637382893"><ele>148.0</ele><time>2026-04-28T07:45:43Z</time></trkpt><trkpt lat="50.38198577926899" lon="4.517112375001652"><ele>148.0</ele><time>2026-04-28T07:45:44Z</time></trkpt><trkpt lat="50.38185672695506" lon="4.5169342427370305"><ele>148.0</ele><time>2026-04-28T07:45:45Z</time></trkpt><trkpt lat="50.38174461443709" lon="4.516770738645343"><ele>149.25</ele><time>2026-04-28T07:45:46Z</time></trkpt><trkpt lat="50.38164622942044" lon="4.516615589310493"><ele>150.5</ele><time>2026-04-28T07:45:47Z</time></trkpt><trkpt lat="50.381550524752505" lon="4.516485424587878"><ele>151.75</ele><time>2026-04-28T07:45:48Z</time></trkpt><trkpt lat="50.38148664575806" lon="4.516330413763892"><ele>153.0</ele><time>2026-04-28T07:45:49Z</time></trkpt><trkpt lat="50.38141081621935" lon="4.516172931770683"><ele>154.0</ele><time>2026-04-28T07:45:50Z</time></trkpt><trkpt lat="50.381334545089075" lon="4.515998141297878"><ele>155.0</ele><time>2026-04-28T07:45:51Z</time></trkpt><trkpt lat="50.38124773699283" lon="4.515828627314627"><ele>156.0</ele><time>2026-04-28T07:45:52Z</time></trkpt><trkpt lat="50.38117037045095" lon="4.515632946111219"><ele>157.0</ele><time>2026-04-28T07:45:53Z</time></trkpt><trkpt lat="50.381086026941574" lon="4.515430007079623"><ele>158.0</ele><time>2026-04-28T07:45:54Z</time></trkpt><trkpt lat="50.38100872695279" lon="4.5152224087576895"><ele>159.0</ele><time>2026-04-28T07:45:55Z</time></trkpt><trkpt lat="50.38095021524381" lon="4.515009929339252"><ele>160.0</ele><time>2026-04-28T07:45:56Z</time></trkpt><trkpt lat="50.38088874433044" lon="4.514812097479802"><ele>161.0</ele><time>2026-04-28T07:45:57Z</time></trkpt><trkpt lat="50.380840394933294" lon="4.514646315359212"><ele>161.20000000000002</ele><time>2026-04-28T07:45:58Z</time></trkpt><trkpt lat="50.380802357853256" lon="4.514494634924134"><ele>161.4</ele><time>2026-04-28T07:45:59Z</time></trkpt><trkpt lat="50.38076928502736" lon="4.514348405502795"><ele>161.6</ele><time>2026-04-28T07:46:00Z</time></trkpt><trkpt lat="50.3807429721623" lon="4.514213350672039"><ele>161.8</ele><time>2026-04-28T07:46:01Z</time></trkpt><trkpt lat="50.38071856145859" lon="4.514077995977627"><ele>162.0</ele><time>2026-04-28T07:46:02Z</time></trkpt><trkpt lat="50.38069789604685" lon="4.513956713035679"><ele>162.0</ele><time>2026-04-28T07:46:03Z</time></trkpt><trkpt lat="50.38066973049391" lon="4.513852298870042"><ele>162.0</ele><time>2026-04-28T07:46:04Z</time></trkpt><trkpt lat="50.38064907981013" lon="4.5137435613574635"><ele>162.0</ele><time>2026-04-28T07:46:05Z</time></trkpt><trkpt lat="50.380663379924414" lon="4.513622816680737"><ele>162.0</ele><time>2026-04-28T07:46:06Z</time></trkpt><trkpt lat="50.3806477033336" lon="4.51349747129349"><ele>162.0</ele><time>2026-04-28T07:46:07Z</time></trkpt><trkpt lat="50.38064984380238" lon="4.513374254948756"><ele>162.0</ele><time>2026-04-28T07:46:08Z</time></trkpt><trkpt lat="50.38064846219204" lon="4.513261220100119"><ele>161.8</ele><time>2026-04-28T07:46:09Z</time></trkpt><trkpt lat="50.38065047160657" lon="4.513161143510076"><ele>161.6</ele><time>2026-04-28T07:46:10Z</time></trkpt><trkpt lat="50.380651782462536" lon="4.5130609280850615"><ele>161.4</ele><time>2026-04-28T07:46:11Z</time></trkpt><trkpt lat="50.380655946646975" lon="4.512862702586114"><ele>161.20000000000002</ele><time>2026-04-28T07:46:13Z</time></trkpt><trkpt lat="50.38064295717938" lon="4.512689981637902"><ele>161.0</ele><time>2026-04-28T07:46:15Z</time></trkpt><trkpt lat="50.38055195616806" lon="4.512638705454038"><ele>161.20000000000002</ele><time>2026-04-28T07:46:16Z</time></trkpt><trkpt lat="50.38046510585748" lon="4.512647028885668"><ele>161.4</ele><time>2026-04-28T07:46:18Z</time></trkpt><trkpt lat="50.380391650719815" lon="4.512769452844154"><ele>161.6</ele><time>2026-04-28T07:46:20Z</time></trkpt><trkpt lat="50.38031823146974" lon="4.512922072886708"><ele>161.8</ele><time>2026-04-28T07:46:22Z</time></trkpt><trkpt lat="50.38026995619387" lon="4.513006972191174"><ele>162.0</ele><time>2026-04-28T07:46:23Z</time></trkpt><trkpt lat="50.38022138358861" lon="4.513094480318994"><ele>162.6</ele><time>2026-04-28T07:46:24Z</time></trkpt><trkpt lat="50.38016514479218" lon="4.513193260370264"><ele>163.2</ele><time>2026-04-28T07:46:25Z</time></trkpt><trkpt lat="50.38003599357579" lon="4.513344871052182"><ele>163.8</ele><time>2026-04-28T07:46:27Z</time></trkpt><trkpt lat="50.37997585746214" lon="4.513432378319773"><ele>164.4</ele><time>2026-04-28T07:46:28Z</time></trkpt><trkpt lat="50.3799117970705" lon="4.51352559586258"><ele>165.0</ele><time>2026-04-28T07:46:29Z</time></trkpt><trkpt lat="50.37985402684767" lon="4.5136371086143905"><ele>165.0</ele><time>2026-04-28T07:46:30Z</time></trkpt><trkpt lat="50.37978300422146" lon="4.513733704699512"><ele>165.0</ele><time>2026-04-28T07:46:31Z</time></trkpt><trkpt lat="50.379709968996835" lon="4.513832615468429"><ele>165.0</ele><time>2026-04-28T07:46:32Z</time></trkpt><trkpt lat="50.37963240092525" lon="4.513941995278148"><ele>165.0</ele><time>2026-04-28T07:46:33Z</time></trkpt><trkpt lat="50.37956579816726" lon="4.51403425202359"><ele>165.0</ele><time>2026-04-28T07:46:34Z</time></trkpt><trkpt lat="50.379509646169296" lon="4.514126833502181"><ele>165.33333333333334</ele><time>2026-04-28T07:46:34.999Z</time></trkpt><trkpt lat="50.379447304695056" lon="4.514215993409475"><ele>165.66666666666666</ele><time>2026-04-28T07:46:35.999Z</time></trkpt><trkpt lat="50.37938394668745" lon="4.51430045279783"><ele>166.0</ele><time>2026-04-28T07:46:36.999Z</time></trkpt><trkpt lat="50.37932828453409" lon="4.514379348666593"><ele>166.33333333333331</ele><time>2026-04-28T07:46:37.999Z</time></trkpt><trkpt lat="50.3792462552892" lon="4.514506197542547"><ele>166.66666666666666</ele><time>2026-04-28T07:46:39.999Z</time></trkpt><trkpt lat="50.3791805488303" lon="4.514579787610049"><ele>167.0</ele><time>2026-04-28T07:46:41.999Z</time></trkpt><trkpt lat="50.37911133418576" lon="4.514618112602633"><ele>167.2</ele><time>2026-04-28T07:47:04.999Z</time></trkpt><trkpt lat="50.379081065986945" lon="4.514479803141976"><ele>167.39999999999998</ele><time>2026-04-28T07:47:06.999Z</time></trkpt><trkpt lat="50.37902893974117" lon="4.514371472864698"><ele>167.60000000000002</ele><time>2026-04-28T07:47:08.999Z</time></trkpt><trkpt lat="50.378990105676976" lon="4.514291431626853"><ele>167.8</ele><time>2026-04-28T07:47:09.999Z</time></trkpt><trkpt lat="50.37891089166342" lon="4.514128317641101"><ele>168.0</ele><time>2026-04-28T07:47:11.999Z</time></trkpt><trkpt lat="50.37886535602512" lon="4.514034552762242"><ele>168.16666666666666</ele><time>2026-04-28T07:47:12.999Z</time></trkpt><trkpt lat="50.37881604825045" lon="4.513933020435026"><ele>168.33333333333334</ele><time>2026-04-28T07:47:13.999Z</time></trkpt><trkpt lat="50.378773005829515" lon="4.51384890269542"><ele>168.5</ele><time>2026-04-28T07:47:14.999Z</time></trkpt><trkpt lat="50.37870717641464" lon="4.513710243482208"><ele>168.66666666666669</ele><time>2026-04-28T07:47:16.999Z</time></trkpt><trkpt lat="50.3786683087504" lon="4.513600420607069"><ele>168.83333333333334</ele><time>2026-04-28T07:47:18.999Z</time></trkpt><trkpt lat="50.37870794849317" lon="4.513712060386093"><ele>169.0</ele><time>2026-04-28T07:47:24.999Z</time></trkpt><trkpt lat="50.37877016777754" lon="4.5138433870428365"><ele>168.75</ele><time>2026-04-28T07:47:26.999Z</time></trkpt><trkpt lat="50.378856679451374" lon="4.514141049722577"><ele>168.5</ele><time>2026-04-28T07:47:28.999Z</time></trkpt><trkpt lat="50.378929934789085" lon="4.514296228350231"><ele>168.25</ele><time>2026-04-28T07:47:30.999Z</time></trkpt><trkpt lat="50.37900863756444" lon="4.514424288969227"><ele>168.0</ele><time>2026-04-28T07:47:32.999Z</time></trkpt><trkpt lat="50.37907873064018" lon="4.51454773978224"><ele>168.0</ele><time>2026-04-28T07:47:34.999Z</time></trkpt><trkpt lat="50.37911912219827" lon="4.514639664497085"><ele>168.0</ele><time>2026-04-28T07:47:36.999Z</time></trkpt><trkpt lat="50.379227653835585" lon="4.514580392546333"><ele>168.0</ele><time>2026-04-28T07:47:38.999Z</time></trkpt><trkpt lat="50.37927180646138" lon="4.5144871064011864"><ele>168.0</ele><time>2026-04-28T07:47:39.999Z</time></trkpt><trkpt lat="50.37932106523522" lon="4.514405405571523"><ele>168.0</ele><time>2026-04-28T07:47:40.999Z</time></trkpt><trkpt lat="50.37939254568498" lon="4.514320363009054"><ele>168.0</ele><time>2026-04-28T07:47:41.999Z</time></trkpt><trkpt lat="50.37945938317845" lon="4.51421657598401"><ele>168.0</ele><time>2026-04-28T07:47:42.999Z</time></trkpt><trkpt lat="50.37952560221826" lon="4.5141085138726575"><ele>168.0</ele><time>2026-04-28T07:47:43.999Z</time></trkpt><trkpt lat="50.37960231629606" lon="4.513993901139984"><ele>168.0</ele><time>2026-04-28T07:47:44.999Z</time></trkpt><trkpt lat="50.379682304035924" lon="4.51388179584671"><ele>168.0</ele><time>2026-04-28T07:47:45.999Z</time></trkpt><trkpt lat="50.37975343191636" lon="4.513776489724737"><ele>168.0</ele><time>2026-04-28T07:47:46.999Z</time></trkpt><trkpt lat="50.37982520438109" lon="4.513676521366834"><ele>167.4</ele><time>2026-04-28T07:47:48Z</time></trkpt><trkpt lat="50.37990102427192" lon="4.513572652772471"><ele>166.8</ele><time>2026-04-28T07:47:49Z</time></trkpt><trkpt lat="50.379976135965784" lon="4.5134634373146225"><ele>166.2</ele><time>2026-04-28T07:47:50Z</time></trkpt><trkpt lat="50.38004516519524" lon="4.513354896778957"><ele>165.6</ele><time>2026-04-28T07:47:51Z</time></trkpt><trkpt lat="50.38011230240264" lon="4.513255757076983"><ele>165.0</ele><time>2026-04-28T07:47:52Z</time></trkpt><trkpt lat="50.380176080099325" lon="4.513161254597836"><ele>165.0</ele><time>2026-04-28T07:47:53Z</time></trkpt><trkpt lat="50.38023389914252" lon="4.513071282264151"><ele>165.0</ele><time>2026-04-28T07:47:54Z</time></trkpt><trkpt lat="50.38031268128763" lon="4.513021858472665"><ele>165.0</ele><time>2026-04-28T07:47:55Z</time></trkpt><trkpt lat="50.380358250976506" lon="4.512946750650621"><ele>165.0</ele><time>2026-04-28T07:47:56Z</time></trkpt><trkpt lat="50.38040111420898" lon="4.512870758112863"><ele>165.0</ele><time>2026-04-28T07:47:57Z</time></trkpt><trkpt lat="50.38046855891444" lon="4.512745542480235"><ele>165.0</ele><time>2026-04-28T07:47:59Z</time></trkpt><trkpt lat="50.38052832379516" lon="4.512670281460047"><ele>164.2</ele><time>2026-04-28T07:48:01Z</time></trkpt><trkpt lat="50.380618088590715" lon="4.512861822004629"><ele>163.4</ele><time>2026-04-28T07:48:04Z</time></trkpt><trkpt lat="50.38063504380681" lon="4.512973192060976"><ele>162.60000000000002</ele><time>2026-04-28T07:48:05Z</time></trkpt><trkpt lat="50.380630177211955" lon="4.513087637052301"><ele>161.8</ele><time>2026-04-28T07:48:06Z</time></trkpt><trkpt lat="50.380640736109484" lon="4.513221020081231"><ele>161.0</ele><time>2026-04-28T07:48:07Z</time></trkpt><trkpt lat="50.3806326675937" lon="4.51335449179756"><ele>161.0</ele><time>2026-04-28T07:48:08Z</time></trkpt><trkpt lat="50.380633476628105" lon="4.51351128801964"><ele>161.0</ele><time>2026-04-28T07:48:09Z</time></trkpt><trkpt lat="50.380637375099695" lon="4.513677546269749"><ele>161.0</ele><time>2026-04-28T07:48:10Z</time></trkpt><trkpt lat="50.38065127909489" lon="4.513837856336548"><ele>161.0</ele><time>2026-04-28T07:48:11Z</time></trkpt><trkpt lat="50.38067478436507" lon="4.5140118571375005"><ele>161.0</ele><time>2026-04-28T07:48:12Z</time></trkpt><trkpt lat="50.38070893873472" lon="4.5142029346346195"><ele>161.0</ele><time>2026-04-28T07:48:13Z</time></trkpt><trkpt lat="50.38074635799455" lon="4.514390923536554"><ele>161.0</ele><time>2026-04-28T07:48:14Z</time></trkpt><trkpt lat="50.38079428434525" lon="4.5145883357238255"><ele>161.0</ele><time>2026-04-28T07:48:15Z</time></trkpt><trkpt lat="50.38084835554633" lon="4.514796539566411"><ele>161.0</ele><time>2026-04-28T07:48:16Z</time></trkpt><trkpt lat="50.38091628850943" lon="4.515013244840299"><ele>161.0</ele><time>2026-04-28T07:48:17Z</time></trkpt><trkpt lat="50.38099574409432" lon="4.515240215027626"><ele>161.0</ele><time>2026-04-28T07:48:18Z</time></trkpt><trkpt lat="50.38108321958149" lon="4.515462116229436"><ele>161.0</ele><time>2026-04-28T07:48:19Z</time></trkpt><trkpt lat="50.38117698934107" lon="4.515694547857411"><ele>160.0</ele><time>2026-04-28T07:48:20Z</time></trkpt><trkpt lat="50.38127404099068" lon="4.515933692618193"><ele>159.0</ele><time>2026-04-28T07:48:21Z</time></trkpt><trkpt lat="50.381376526275396" lon="4.516171819486227"><ele>158.0</ele><time>2026-04-28T07:48:22Z</time></trkpt><trkpt lat="50.38147239904112" lon="4.51637197600339"><ele>156.33333333333331</ele><time>2026-04-28T07:48:23Z</time></trkpt><trkpt lat="50.381568932860226" lon="4.516545377677555"><ele>154.66666666666666</ele><time>2026-04-28T07:48:24Z</time></trkpt><trkpt lat="50.3816756883135" lon="4.516724726055782"><ele>153.0</ele><time>2026-04-28T07:48:25Z</time></trkpt><trkpt lat="50.38180219141336" lon="4.516894782851677"><ele>153.0</ele><time>2026-04-28T07:48:26Z</time></trkpt><trkpt lat="50.381927465889014" lon="4.517093802487015"><ele>153.0</ele><time>2026-04-28T07:48:27Z</time></trkpt><trkpt lat="50.38206269962777" lon="4.51727394516681"><ele>153.0</ele><time>2026-04-28T07:48:28Z</time></trkpt><trkpt lat="50.38220263836504" lon="4.517452134768703"><ele>153.0</ele><time>2026-04-28T07:48:29Z</time></trkpt><trkpt lat="50.38233248219247" lon="4.517630092607673"><ele>153.0</ele><time>2026-04-28T07:48:30Z</time></trkpt><trkpt lat="50.382443063441556" lon="4.51778099696404"><ele>153.0</ele><time>2026-04-28T07:48:31Z</time></trkpt><trkpt lat="50.38254667880361" lon="4.517920714012143"><ele>151.75</ele><time>2026-04-28T07:48:32Z</time></trkpt><trkpt lat="50.38263105338324" lon="4.5180455337517875"><ele>150.5</ele><time>2026-04-28T07:48:33Z</time></trkpt><trkpt lat="50.38271794103057" lon="4.518180756266717"><ele>149.25</ele><time>2026-04-28T07:48:34Z</time></trkpt><trkpt lat="50.382798119898865" lon="4.518291213169468"><ele>148.0</ele><time>2026-04-28T07:48:35Z</time></trkpt><trkpt lat="50.38288815478298" lon="4.518405652674357"><ele>148.0</ele><time>2026-04-28T07:48:36Z</time></trkpt><trkpt lat="50.38297530007274" lon="4.518520196047493"><ele>148.0</ele><time>2026-04-28T07:48:37Z</time></trkpt><trkpt lat="50.38305990693176" lon="4.518623831182468"><ele>148.0</ele><time>2026-04-28T07:48:38Z</time></trkpt><trkpt lat="50.38314646409676" lon="4.518733794080141"><ele>148.0</ele><time>2026-04-28T07:48:39Z</time></trkpt><trkpt lat="50.3832296591243" lon="4.518840773588346"><ele>148.0</ele><time>2026-04-28T07:48:40Z</time></trkpt><trkpt lat="50.383310560837636" lon="4.518941077344511"><ele>147.6</ele><time>2026-04-28T07:48:41Z</time></trkpt><trkpt lat="50.383388993688655" lon="4.519030516935862"><ele>147.20000000000002</ele><time>2026-04-28T07:48:41.999Z</time></trkpt><trkpt lat="50.38346895025719" lon="4.5191153946433875"><ele>146.8</ele><time>2026-04-28T07:48:42.999Z</time></trkpt><trkpt lat="50.3835549484661" lon="4.5192065502541015"><ele>146.4</ele><time>2026-04-28T07:48:43.999Z</time></trkpt><trkpt lat="50.38365345833866" lon="4.5192767660439745"><ele>146.0</ele><time>2026-04-28T07:48:44.999Z</time></trkpt><trkpt lat="50.38374708539582" lon="4.519353863910944"><ele>146.0</ele><time>2026-04-28T07:48:45.999Z</time></trkpt><trkpt lat="50.38383496901919" lon="4.519429744465025"><ele>146.0</ele><time>2026-04-28T07:48:46.999Z</time></trkpt><trkpt lat="50.38391666979861" lon="4.519493608818047"><ele>146.0</ele><time>2026-04-28T07:48:47.999Z</time></trkpt><trkpt lat="50.38399385717093" lon="4.51956045716602"><ele>146.0</ele><time>2026-04-28T07:48:48.999Z</time></trkpt><trkpt lat="50.38407034491944" lon="4.5196230303614335"><ele>146.0</ele><time>2026-04-28T07:48:49.999Z</time></trkpt><trkpt lat="50.38414451755045" lon="4.51968562534819"><ele>144.83333333333331</ele><time>2026-04-28T07:48:50.999Z</time></trkpt><trkpt lat="50.38421952129203" lon="4.519746096329476"><ele>143.66666666666666</ele><time>2026-04-28T07:48:51.999Z</time></trkpt><trkpt lat="50.38429033289418" lon="4.519802491261929"><ele>142.5</ele><time>2026-04-28T07:48:52.999Z</time></trkpt><trkpt lat="50.384363382504354" lon="4.519847598854533"><ele>141.33333333333334</ele><time>2026-04-28T07:48:53.999Z</time></trkpt><trkpt lat="50.384436395756346" lon="4.519882103762996"><ele>140.16666666666669</ele><time>2026-04-28T07:48:54.999Z</time></trkpt><trkpt lat="50.38450697059668" lon="4.519924846759512"><ele>139.0</ele><time>2026-04-28T07:48:55.999Z</time></trkpt><trkpt lat="50.38457584175307" lon="4.519937129470721"><ele>139.0</ele><time>2026-04-28T07:48:56.999Z</time></trkpt><trkpt lat="50.3846586997285" lon="4.519910556323174"><ele>139.0</ele><time>2026-04-28T07:48:57.999Z</time></trkpt><trkpt lat="50.384735934340156" lon="4.519903789339795"><ele>139.0</ele><time>2026-04-28T07:48:58.999Z</time></trkpt><trkpt lat="50.384803821044166" lon="4.519902798719492"><ele>139.0</ele><time>2026-04-28T07:48:59.999Z</time></trkpt><trkpt lat="50.38487471840503" lon="4.5198759006163645"><ele>139.0</ele><time>2026-04-28T07:49:00.999Z</time></trkpt><trkpt lat="50.38495253612637" lon="4.51986140871772"><ele>139.0</ele><time>2026-04-28T07:49:01.999Z</time></trkpt><trkpt lat="50.3850297804664" lon="4.5198451122918435"><ele>139.5</ele><time>2026-04-28T07:49:02.999Z</time></trkpt><trkpt lat="50.385106114032254" lon="4.519837990553103"><ele>140.0</ele><time>2026-04-28T07:49:03.999Z</time></trkpt><trkpt lat="50.385183300368986" lon="4.519838320955668"><ele>140.5</ele><time>2026-04-28T07:49:04.999Z</time></trkpt><trkpt lat="50.38524896107478" lon="4.519818753062685"><ele>141.0</ele><time>2026-04-28T07:49:05.999Z</time></trkpt><trkpt lat="50.385312234561226" lon="4.519794931801333"><ele>141.5</ele><time>2026-04-28T07:49:06.999Z</time></trkpt><trkpt lat="50.38538062654404" lon="4.51976104959347"><ele>142.0</ele><time>2026-04-28T07:49:07.999Z</time></trkpt><trkpt lat="50.385492947316" lon="4.519552163073528"><ele>139.66666666666669</ele><time>2026-04-28T07:49:09.999Z</time></trkpt><trkpt lat="50.385536910644554" lon="4.519423558444906"><ele>137.33333333333334</ele><time>2026-04-28T07:49:10.999Z</time></trkpt><trkpt lat="50.38562244524392" lon="4.519351544512822"><ele>135.0</ele><time>2026-04-28T07:49:11.999Z</time></trkpt><trkpt lat="50.38569818930231" lon="4.5192849312576"><ele>132.66666666666666</ele><time>2026-04-28T07:49:12.999Z</time></trkpt><trkpt lat="50.38577410375944" lon="4.519233576268625"><ele>130.33333333333331</ele><time>2026-04-28T07:49:13.999Z</time></trkpt><trkpt lat="50.385854255575204" lon="4.519183459099318"><ele>128.0</ele><time>2026-04-28T07:49:14.999Z</time></trkpt><trkpt lat="50.385938571197244" lon="4.519132575746927"><ele>128.0</ele><time>2026-04-28T07:49:15.999Z</time></trkpt><trkpt lat="50.3860257263047" lon="4.519073433883183"><ele>128.0</ele><time>2026-04-28T07:49:16.999Z</time></trkpt><trkpt lat="50.38610306750768" lon="4.5190181529412135"><ele>128.0</ele><time>2026-04-28T07:49:17.999Z</time></trkpt><trkpt lat="50.386201028686216" lon="4.519000114855946"><ele>128.0</ele><time>2026-04-28T07:49:18.999Z</time></trkpt><trkpt lat="50.38629759299287" lon="4.51894704019773"><ele>128.0</ele><time>2026-04-28T07:49:19.999Z</time></trkpt><trkpt lat="50.38639521151124" lon="4.5189194114137"><ele>126.60000000000001</ele><time>2026-04-28T07:49:20.999Z</time></trkpt><trkpt lat="50.386495117335535" lon="4.5188924829162005"><ele>125.20000000000002</ele><time>2026-04-28T07:49:21.999Z</time></trkpt><trkpt lat="50.38658886752292" lon="4.518863094721362"><ele>123.8</ele><time>2026-04-28T07:49:22.999Z</time></trkpt><trkpt lat="50.38668287995264" lon="4.518845512256085"><ele>122.4</ele><time>2026-04-28T07:49:23.999Z</time></trkpt><trkpt lat="50.38677701596036" lon="4.518821621998528"><ele>121.0</ele><time>2026-04-28T07:49:24.999Z</time></trkpt><trkpt lat="50.38687291720247" lon="4.5188062596181915"><ele>121.00000000000001</ele><time>2026-04-28T07:49:25.999Z</time></trkpt><trkpt lat="50.38696528561333" lon="4.5187802325005615"><ele>121.0</ele><time>2026-04-28T07:49:26.999Z</time></trkpt><trkpt lat="50.3870493528154" lon="4.518750479797995"><ele>121.0</ele><time>2026-04-28T07:49:27.999Z</time></trkpt><trkpt lat="50.38713224297691" lon="4.518751432582478"><ele>121.0</ele><time>2026-04-28T07:49:28.999Z</time></trkpt><trkpt lat="50.38720776213113" lon="4.518739007758463"><ele>121.00000000000001</ele><time>2026-04-28T07:49:29.999Z</time></trkpt><trkpt lat="50.387278369900145" lon="4.5187394408825"><ele>121.0</ele><time>2026-04-28T07:49:30.999Z</time></trkpt><trkpt lat="50.38735196403272" lon="4.518748260328701"><ele>120.0</ele><time>2026-04-28T07:49:31.999Z</time></trkpt><trkpt lat="50.387429284921446" lon="4.518759076536357"><ele>119.0</ele><time>2026-04-28T07:49:32.999Z</time></trkpt><trkpt lat="50.387505999263944" lon="4.518774669311263"><ele>118.0</ele><time>2026-04-28T07:49:33.999Z</time></trkpt><trkpt lat="50.38763651434188" lon="4.518815227321569"><ele>117.0</ele><time>2026-04-28T07:49:35.999Z</time></trkpt><trkpt lat="50.38770247105783" lon="4.518821546752125"><ele>116.0</ele><time>2026-04-28T07:49:36.999Z</time></trkpt><trkpt lat="50.38779352388307" lon="4.518931076305361"><ele>116.0</ele><time>2026-04-28T07:49:38.999Z</time></trkpt><trkpt lat="50.38790522708224" lon="4.519034149278549"><ele>116.0</ele><time>2026-04-28T07:49:40.999Z</time></trkpt><trkpt lat="50.38797307215175" lon="4.519067747419968"><ele>116.0</ele><time>2026-04-28T07:49:41.999Z</time></trkpt><trkpt lat="50.38803884167572" lon="4.519121816231731"><ele>116.0</ele><time>2026-04-28T07:49:42.999Z</time></trkpt><trkpt lat="50.38808923924737" lon="4.519191233198714"><ele>116.0</ele><time>2026-04-28T07:49:43.999Z</time></trkpt><trkpt lat="50.38819592052241" lon="4.519281429696962"><ele>115.66666666666666</ele><time>2026-04-28T07:49:45.999Z</time></trkpt><trkpt lat="50.388287133991355" lon="4.519362011815178"><ele>115.33333333333333</ele><time>2026-04-28T07:49:47.999Z</time></trkpt><trkpt lat="50.38830343453716" lon="4.519471804586457"><ele>115.0</ele><time>2026-04-28T07:49:50.999Z</time></trkpt><trkpt lat="50.388279621569716" lon="4.519609929208372"><ele>114.66666666666666</ele><time>2026-04-28T07:49:59Z</time></trkpt><trkpt lat="50.388188201976774" lon="4.5196447730200395"><ele>114.33333333333333</ele><time>2026-04-28T07:50:01Z</time></trkpt><trkpt lat="50.38810745780297" lon="4.519633421117031"><ele>114.0</ele><time>2026-04-28T07:50:02Z</time></trkpt><trkpt lat="50.38803381399008" lon="4.519618575307714"><ele>114.4</ele><time>2026-04-28T07:50:03Z</time></trkpt><trkpt lat="50.387963470959846" lon="4.519594146525946"><ele>114.80000000000001</ele><time>2026-04-28T07:50:04Z</time></trkpt><trkpt lat="50.38788953284072" lon="4.519569944094313"><ele>115.19999999999999</ele><time>2026-04-28T07:50:05Z</time></trkpt><trkpt lat="50.38779539651582" lon="4.519534489560805"><ele>115.6</ele><time>2026-04-28T07:50:06Z</time></trkpt><trkpt lat="50.38768012701331" lon="4.519532854265539"><ele>116.0</ele><time>2026-04-28T07:50:07Z</time></trkpt><trkpt lat="50.387550188301546" lon="4.519494409251288"><ele>116.0</ele><time>2026-04-28T07:50:08Z</time></trkpt><trkpt lat="50.38740532515604" lon="4.519525166204632"><ele>116.0</ele><time>2026-04-28T07:50:09Z</time></trkpt><trkpt lat="50.387265338005" lon="4.519551772677149"><ele>116.0</ele><time>2026-04-28T07:50:10Z</time></trkpt><trkpt lat="50.38714378244671" lon="4.519610234887718"><ele>116.0</ele><time>2026-04-28T07:50:11Z</time></trkpt><trkpt lat="50.38703546448114" lon="4.5196773046886065"><ele>117.5</ele><time>2026-04-28T07:50:12Z</time></trkpt><trkpt lat="50.386913099852876" lon="4.519703977597552"><ele>119.0</ele><time>2026-04-28T07:50:13Z</time></trkpt><trkpt lat="50.386799453348736" lon="4.519741499413136"><ele>120.5</ele><time>2026-04-28T07:50:14Z</time></trkpt><trkpt lat="50.386687692376505" lon="4.519778394936023"><ele>122.0</ele><time>2026-04-28T07:50:15Z</time></trkpt><trkpt lat="50.38658113348785" lon="4.5198134234031855"><ele>122.0</ele><time>2026-04-28T07:50:16Z</time></trkpt><trkpt lat="50.38649507357142" lon="4.519841629041781"><ele>121.99999999999999</ele><time>2026-04-28T07:50:17Z</time></trkpt><trkpt lat="50.38638114780359" lon="4.519878813121148"><ele>121.99999999999999</ele><time>2026-04-28T07:50:19Z</time></trkpt><trkpt lat="50.38628965539726" lon="4.519911484386107"><ele>122.0</ele><time>2026-04-28T07:50:20Z</time></trkpt><trkpt lat="50.38619694973138" lon="4.519951351260031"><ele>122.0</ele><time>2026-04-28T07:50:21Z</time></trkpt><trkpt lat="50.38610105294047" lon="4.520007056851617"><ele>121.8</ele><time>2026-04-28T07:50:22Z</time></trkpt><trkpt lat="50.38602010743985" lon="4.5200851008592124"><ele>121.6</ele><time>2026-04-28T07:50:23Z</time></trkpt><trkpt lat="50.38593918754999" lon="4.520163690851161"><ele>121.39999999999999</ele><time>2026-04-28T07:50:24Z</time></trkpt><trkpt lat="50.38586259787665" lon="4.520233792723006"><ele>121.19999999999999</ele><time>2026-04-28T07:50:25Z</time></trkpt><trkpt lat="50.38578056432277" lon="4.520294309055199"><ele>121.0</ele><time>2026-04-28T07:50:26Z</time></trkpt><trkpt lat="50.38569245060972" lon="4.520386724004566"><ele>120.75</ele><time>2026-04-28T07:50:27Z</time></trkpt><trkpt lat="50.3856020492988" lon="4.520479208405652"><ele>120.5</ele><time>2026-04-28T07:50:28Z</time></trkpt><trkpt lat="50.38557765756143" lon="4.52075493063306"><ele>120.25</ele><time>2026-04-28T07:50:29Z</time></trkpt><trkpt lat="50.3855251619149" lon="4.520870181651945"><ele>120.0</ele><time>2026-04-28T07:50:30Z</time></trkpt><trkpt lat="50.385469232172866" lon="4.520998690606508"><ele>120.0</ele><time>2026-04-28T07:50:31Z</time></trkpt><trkpt lat="50.38542425452817" lon="4.521136615498635"><ele>120.0</ele><time>2026-04-28T07:50:32Z</time></trkpt><trkpt lat="50.385379360369605" lon="4.521280434999334"><ele>120.0</ele><time>2026-04-28T07:50:33Z</time></trkpt><trkpt lat="50.38533998709798" lon="4.521401689838929"><ele>120.0</ele><time>2026-04-28T07:50:34Z</time></trkpt><trkpt lat="50.385294929358444" lon="4.521537089566892"><ele>120.0</ele><time>2026-04-28T07:50:35Z</time></trkpt><trkpt lat="50.38525950301818" lon="4.521674964055256"><ele>120.0</ele><time>2026-04-28T07:50:36Z</time></trkpt><trkpt lat="50.38520487942723" lon="4.521807903701887"><ele>120.0</ele><time>2026-04-28T07:50:37Z</time></trkpt><trkpt lat="50.3851374301526" lon="4.5219383632221675"><ele>120.0</ele><time>2026-04-28T07:50:38Z</time></trkpt><trkpt lat="50.38505918107165" lon="4.5220739613727"><ele>120.0</ele><time>2026-04-28T07:50:39Z</time></trkpt><trkpt lat="50.38498481903961" lon="4.522217445568037"><ele>120.0</ele><time>2026-04-28T07:50:40Z</time></trkpt><trkpt lat="50.384910910959704" lon="4.522363155461399"><ele>122.2</ele><time>2026-04-28T07:50:41Z</time></trkpt><trkpt lat="50.38484975842167" lon="4.522488987314656"><ele>124.4</ele><time>2026-04-28T07:50:42Z</time></trkpt><trkpt lat="50.38481235528482" lon="4.522620548342598"><ele>126.6</ele><time>2026-04-28T07:50:43Z</time></trkpt><trkpt lat="50.38480524310914" lon="4.522768201751958"><ele>128.8</ele><time>2026-04-28T07:50:43.999Z</time></trkpt><trkpt lat="50.38482123523157" lon="4.522928647743921"><ele>131.0</ele><time>2026-04-28T07:50:44.999Z</time></trkpt><trkpt lat="50.38485115139219" lon="4.523077336389413"><ele>133.2</ele><time>2026-04-28T07:50:45.999Z</time></trkpt><trkpt lat="50.384901027389304" lon="4.52321509366992"><ele>135.39999999999998</ele><time>2026-04-28T07:50:46.999Z</time></trkpt><trkpt lat="50.38497774061879" lon="4.5233237207420665"><ele>137.6</ele><time>2026-04-28T07:50:47.999Z</time></trkpt><trkpt lat="50.38507237157733" lon="4.523408126781885"><ele>139.79999999999998</ele><time>2026-04-28T07:50:48.999Z</time></trkpt><trkpt lat="50.38516246872863" lon="4.523503649415329"><ele>142.0</ele><time>2026-04-28T07:50:49.999Z</time></trkpt><trkpt lat="50.38522966413771" lon="4.523634665981343"><ele>143.5</ele><time>2026-04-28T07:50:50.999Z</time></trkpt><trkpt lat="50.38531214851569" lon="4.523746560728687"><ele>145.0</ele><time>2026-04-28T07:50:51.999Z</time></trkpt><trkpt lat="50.38538976497936" lon="4.523883314377429"><ele>146.5</ele><time>2026-04-28T07:50:52.999Z</time></trkpt><trkpt lat="50.385470150473026" lon="4.524022895261577"><ele>148.0</ele><time>2026-04-28T07:50:53.999Z</time></trkpt><trkpt lat="50.38554304197531" lon="4.524150406404099"><ele>148.6</ele><time>2026-04-28T07:50:54.999Z</time></trkpt><trkpt lat="50.3855807477119" lon="4.524269286040891"><ele>149.20000000000002</ele><time>2026-04-28T07:50:55.999Z</time></trkpt><trkpt lat="50.385679122342104" lon="4.524334262451641"><ele>149.8</ele><time>2026-04-28T07:50:56.999Z</time></trkpt><trkpt lat="50.385782520256" lon="4.524398619326434"><ele>150.4</ele><time>2026-04-28T07:50:57.999Z</time></trkpt><trkpt lat="50.38587651279513" lon="4.524473681706143"><ele>151.0</ele><time>2026-04-28T07:50:58.999Z</time></trkpt><trkpt lat="50.385957490306424" lon="4.524537449341288"><ele>151.0</ele><time>2026-04-28T07:50:59.999Z</time></trkpt><trkpt lat="50.38602152867051" lon="4.524580972795229"><ele>151.0</ele><time>2026-04-28T07:51:00.999Z</time></trkpt><trkpt lat="50.386109925528515" lon="4.524652563143534"><ele>151.0</ele><time>2026-04-28T07:51:02.999Z</time></trkpt><trkpt lat="50.38622854359913" lon="4.52456036725291"><ele>151.0</ele><time>2026-04-28T07:51:05.999Z</time></trkpt><trkpt lat="50.38625074255846" lon="4.524365714794824"><ele>151.0</ele><time>2026-04-28T07:51:07.999Z</time></trkpt><trkpt lat="50.38630174728226" lon="4.524301219682746"><ele>152.5</ele><time>2026-04-28T07:51:08.999Z</time></trkpt><trkpt lat="50.38635465111358" lon="4.524233700632493"><ele>154.0</ele><time>2026-04-28T07:51:09.999Z</time></trkpt><trkpt lat="50.38643120162806" lon="4.524184702648869"><ele>155.5</ele><time>2026-04-28T07:51:10.999Z</time></trkpt><trkpt lat="50.38651208824342" lon="4.524142461040883"><ele>157.0</ele><time>2026-04-28T07:51:11.999Z</time></trkpt><trkpt lat="50.3865919489182" lon="4.524109262797956"><ele>158.5</ele><time>2026-04-28T07:51:12.999Z</time></trkpt><trkpt lat="50.38668468145403" lon="4.524071419641239"><ele>160.0</ele><time>2026-04-28T07:51:13.999Z</time></trkpt><trkpt lat="50.38678313694647" lon="4.524011127608785"><ele>160.0</ele><time>2026-04-28T07:51:14.999Z</time></trkpt><trkpt lat="50.38688429229903" lon="4.523941268610684"><ele>160.0</ele><time>2026-04-28T07:51:15.999Z</time></trkpt><trkpt lat="50.386968662151524" lon="4.523882453842546"><ele>160.0</ele><time>2026-04-28T07:51:16.999Z</time></trkpt><trkpt lat="50.3870536948936" lon="4.523825399693631"><ele>160.0</ele><time>2026-04-28T07:51:17.999Z</time></trkpt><trkpt lat="50.38713998280956" lon="4.523767505280216"><ele>160.0</ele><time>2026-04-28T07:51:18.999Z</time></trkpt><trkpt lat="50.38722384840015" lon="4.523727320348067"><ele>160.16666666666669</ele><time>2026-04-28T07:51:19.999Z</time></trkpt><trkpt lat="50.387298974508695" lon="4.523691106556479"><ele>160.33333333333334</ele><time>2026-04-28T07:51:20.999Z</time></trkpt><trkpt lat="50.38737281181016" lon="4.5236556906874705"><ele>160.5</ele><time>2026-04-28T07:51:21.999Z</time></trkpt><trkpt lat="50.387446102364784" lon="4.523622369544277"><ele>160.66666666666666</ele><time>2026-04-28T07:51:22.999Z</time></trkpt><trkpt lat="50.387516442691016" lon="4.523589713311765"><ele>160.83333333333331</ele><time>2026-04-28T07:51:23.999Z</time></trkpt><trkpt lat="50.38761861730197" lon="4.523545643444998"><ele>161.0</ele><time>2026-04-28T07:51:25.999Z</time></trkpt><trkpt lat="50.38768637724718" lon="4.523516327278244"><ele>161.0</ele><time>2026-04-28T07:51:27.999Z</time></trkpt><trkpt lat="50.387774372600084" lon="4.523478257428195"><ele>161.0</ele><time>2026-04-28T07:51:29.999Z</time></trkpt><trkpt lat="50.387896630619906" lon="4.523420937704383"><ele>161.0</ele><time>2026-04-28T07:51:31.999Z</time></trkpt><trkpt lat="50.38797210525866" lon="4.523363951121843"><ele>161.0</ele><time>2026-04-28T07:51:32.999Z</time></trkpt><trkpt lat="50.38805396346021" lon="4.523327956275359"><ele>161.0</ele><time>2026-04-28T07:51:33.999Z</time></trkpt><trkpt lat="50.388146476414754" lon="4.523298578258036"><ele>161.0</ele><time>2026-04-28T07:51:34.999Z</time></trkpt><trkpt lat="50.388247608717634" lon="4.523245921974878"><ele>161.0</ele><time>2026-04-28T07:51:35.999Z</time></trkpt><trkpt lat="50.388355350259275" lon="4.523207764741374"><ele>161.0</ele><time>2026-04-28T07:51:36.999Z</time></trkpt><trkpt lat="50.38844716993402" lon="4.523170793473694"><ele>161.0</ele><time>2026-04-28T07:51:37.999Z</time></trkpt><trkpt lat="50.38853714789245" lon="4.523164039070638"><ele>161.0</ele><time>2026-04-28T07:51:38.999Z</time></trkpt><trkpt lat="50.388632172202264" lon="4.523117387845031"><ele>161.0</ele><time>2026-04-28T07:51:39.999Z</time></trkpt><trkpt lat="50.388725652661044" lon="4.5231245144257475"><ele>161.0</ele><time>2026-04-28T07:51:40.999Z</time></trkpt><trkpt lat="50.388805416517165" lon="4.523108379279582"><ele>161.0</ele><time>2026-04-28T07:51:41.999Z</time></trkpt><trkpt lat="50.38887747191511" lon="4.523093469344788"><ele>161.0</ele><time>2026-04-28T07:51:42.999Z</time></trkpt><trkpt lat="50.3889560230346" lon="4.523074664930357"><ele>161.0</ele><time>2026-04-28T07:51:43.999Z</time></trkpt><trkpt lat="50.389030000346246" lon="4.523027177571443"><ele>161.0</ele><time>2026-04-28T07:51:44.999Z</time></trkpt><trkpt lat="50.3891086763202" lon="4.522999884995522"><ele>161.20000000000002</ele><time>2026-04-28T07:51:45.999Z</time></trkpt><trkpt lat="50.38918652906861" lon="4.522944032039442"><ele>161.4</ele><time>2026-04-28T07:51:46.999Z</time></trkpt><trkpt lat="50.389257914204855" lon="4.522862756747498"><ele>161.6</ele><time>2026-04-28T07:51:47.999Z</time></trkpt><trkpt lat="50.389324072202214" lon="4.522764953222519"><ele>161.8</ele><time>2026-04-28T07:51:48.999Z</time></trkpt><trkpt lat="50.38940210825638" lon="4.52267867244578"><ele>162.0</ele><time>2026-04-28T07:51:49.999Z</time></trkpt><trkpt lat="50.38947197702276" lon="4.522561683223091"><ele>161.5</ele><time>2026-04-28T07:51:50.999Z</time></trkpt><trkpt lat="50.38954651681037" lon="4.522431895111109"><ele>161.0</ele><time>2026-04-28T07:51:51.999Z</time></trkpt><trkpt lat="50.38963153882982" lon="4.522284085323106"><ele>160.5</ele><time>2026-04-28T07:51:52.999Z</time></trkpt><trkpt lat="50.38971306957892" lon="4.522148014195181"><ele>160.0</ele><time>2026-04-28T07:51:53.999Z</time></trkpt><trkpt lat="50.38979888154093" lon="4.5220055121449"><ele>159.0</ele><time>2026-04-28T07:51:54.999Z</time></trkpt><trkpt lat="50.38989169333086" lon="4.521862423710275"><ele>158.0</ele><time>2026-04-28T07:51:55.998Z</time></trkpt><trkpt lat="50.38998224552364" lon="4.521745470128675"><ele>157.0</ele><time>2026-04-28T07:51:56.998Z</time></trkpt><trkpt lat="50.390070939226504" lon="4.5216525566915315"><ele>156.0</ele><time>2026-04-28T07:51:57.998Z</time></trkpt><trkpt lat="50.39015311791448" lon="4.521577137606202"><ele>155.0</ele><time>2026-04-28T07:51:58.998Z</time></trkpt><trkpt lat="50.39022706046173" lon="4.52151385694084"><ele>155.0</ele><time>2026-04-28T07:52:00Z</time></trkpt><trkpt lat="50.39028507111013" lon="4.521464211298125"><ele>155.0</ele><time>2026-04-28T07:52:01Z</time></trkpt><trkpt lat="50.3903732720248" lon="4.521388782837745"><ele>155.0</ele><time>2026-04-28T07:52:03Z</time></trkpt><trkpt lat="50.39043042087033" lon="4.521340437518424"><ele>155.0</ele><time>2026-04-28T07:52:05Z</time></trkpt><trkpt lat="50.39049056559864" lon="4.521469218602632"><ele>155.0</ele><time>2026-04-28T07:52:10Z</time></trkpt><trkpt lat="50.39044409209608" lon="4.521674275808318"><ele>155.0</ele><time>2026-04-28T07:52:12Z</time></trkpt><trkpt lat="50.390405012029206" lon="4.52180124934777"><ele>155.0</ele><time>2026-04-28T07:52:13Z</time></trkpt><trkpt lat="50.39036873866102" lon="4.521963538522715"><ele>155.0</ele><time>2026-04-28T07:52:14Z</time></trkpt><trkpt lat="50.3903119294255" lon="4.522116262560977"><ele>155.0</ele><time>2026-04-28T07:52:15Z</time></trkpt><trkpt lat="50.390263456163005" lon="4.522297561897237"><ele>155.0</ele><time>2026-04-28T07:52:16Z</time></trkpt><trkpt lat="50.390208338286" lon="4.5224871433134455"><ele>155.66666666666666</ele><time>2026-04-28T07:52:17Z</time></trkpt><trkpt lat="50.39014146002612" lon="4.5227147140401165"><ele>156.33333333333334</ele><time>2026-04-28T07:52:18Z</time></trkpt><trkpt lat="50.39006008757255" lon="4.522960385748724"><ele>157.0</ele><time>2026-04-28T07:52:19Z</time></trkpt><trkpt lat="50.39002233706399" lon="4.523244890619906"><ele>157.5</ele><time>2026-04-28T07:52:20Z</time></trkpt><trkpt lat="50.38999739807443" lon="4.5235346797076685"><ele>158.0</ele><time>2026-04-28T07:52:21Z</time></trkpt><trkpt lat="50.3900163339633" lon="4.523777120554335"><ele>158.5</ele><time>2026-04-28T07:52:24Z</time></trkpt><trkpt lat="50.389989900695525" lon="4.523920614328768"><ele>159.0</ele><time>2026-04-28T07:52:25Z</time></trkpt><trkpt lat="50.38995682566403" lon="4.524175680146265"><ele>159.5</ele><time>2026-04-28T07:52:27Z</time></trkpt><trkpt lat="50.38990523893648" lon="4.524314300948539"><ele>160.0</ele><time>2026-04-28T07:52:28Z</time></trkpt><trkpt lat="50.38986620578834" lon="4.524476183177857"><ele>160.5</ele><time>2026-04-28T07:52:29Z</time></trkpt><trkpt lat="50.389818233754085" lon="4.524649110909692"><ele>161.0</ele><time>2026-04-28T07:52:30Z</time></trkpt><trkpt lat="50.38977998025428" lon="4.524845779564638"><ele>161.25</ele><time>2026-04-28T07:52:31Z</time></trkpt><trkpt lat="50.389746925290126" lon="4.525047206384821"><ele>161.5</ele><time>2026-04-28T07:52:32Z</time></trkpt><trkpt lat="50.389734589995285" lon="4.525219637970556"><ele>161.75</ele><time>2026-04-28T07:52:33Z</time></trkpt><trkpt lat="50.38974582703718" lon="4.52542132121091"><ele>162.0</ele><time>2026-04-28T07:52:34Z</time></trkpt><trkpt lat="50.38974661079689" lon="4.525609148694685"><ele>162.2</ele><time>2026-04-28T07:52:35Z</time></trkpt><trkpt lat="50.38973352613323" lon="4.525781787216986"><ele>162.39999999999998</ele><time>2026-04-28T07:52:36Z</time></trkpt><trkpt lat="50.38965701335338" lon="4.525920139436893"><ele>162.60000000000002</ele><time>2026-04-28T07:52:37Z</time></trkpt><trkpt lat="50.38957856949156" lon="4.5260291543606295"><ele>162.8</ele><time>2026-04-28T07:52:38Z</time></trkpt><trkpt lat="50.38948796978337" lon="4.526106292134074"><ele>163.0</ele><time>2026-04-28T07:52:39Z</time></trkpt><trkpt lat="50.389372432094305" lon="4.526196262225044"><ele>163.5</ele><time>2026-04-28T07:52:40Z</time></trkpt><trkpt lat="50.38924606266716" lon="4.526287972517082"><ele>164.0</ele><time>2026-04-28T07:52:41Z</time></trkpt><trkpt lat="50.38913814177" lon="4.526367023545498"><ele>164.5</ele><time>2026-04-28T07:52:42Z</time></trkpt><trkpt lat="50.38904622746629" lon="4.526443654349721"><ele>165.0</ele><time>2026-04-28T07:52:43Z</time></trkpt><trkpt lat="50.38897215923083" lon="4.526532196960361"><ele>165.0</ele><time>2026-04-28T07:52:44Z</time></trkpt><trkpt lat="50.388908334700766" lon="4.526653041294876"><ele>165.0</ele><time>2026-04-28T07:52:45Z</time></trkpt><trkpt lat="50.3888604800514" lon="4.526779386599498"><ele>165.0</ele><time>2026-04-28T07:52:46Z</time></trkpt><trkpt lat="50.388839048718175" lon="4.526905151473166"><ele>165.0</ele><time>2026-04-28T07:52:47Z</time></trkpt><trkpt lat="50.388816508858916" lon="4.527112768187495"><ele>165.0</ele><time>2026-04-28T07:52:49Z</time></trkpt><trkpt lat="50.38880032672262" lon="4.5272715997992465"><ele>164.8</ele><time>2026-04-28T07:52:50.999Z</time></trkpt><trkpt lat="50.388741721806284" lon="4.527367858601867"><ele>164.6</ele><time>2026-04-28T07:52:52.999Z</time></trkpt><trkpt lat="50.38864493536295" lon="4.527210367017968"><ele>164.39999999999998</ele><time>2026-04-28T07:52:55.999Z</time></trkpt><trkpt lat="50.388601395400556" lon="4.527076821933498"><ele>164.2</ele><time>2026-04-28T07:52:57.999Z</time></trkpt><trkpt lat="50.38856755394362" lon="4.526972775421915"><ele>164.0</ele><time>2026-04-28T07:52:59.999Z</time></trkpt><trkpt lat="50.38853058271291" lon="4.526877856068357"><ele>164.0</ele><time>2026-04-28T07:53:02.999Z</time></trkpt></trkseg></trk></gpx>